Time,TemperatureF,DewpointF,PressureIn,WindDirection,WindDirectionDegrees,WindSpeedMPH,WindSpeedGustMPH,Humidity,HourlyPrecipIn,Conditions,Clouds,dailyrainin,SoftwareType,DateUTC
2013-08-05 00:00:00,71.3,66.2,30.03,NE,45,0.0,0.0,84,0.00,,,0.00,VWS V14.01,2013-08-05 04:00:00,
2013-08-05 00:01:00,71.3,66.2,30.03,NE,45,0.0,0.0,84,0.00,,CLR,0.00,VWS V14.01,2013-08-05 04:01:00,
2013-08-05 00:02:00,71.3,66.2,30.03,NE,45,0.0,0.0,84,0.00,,CLR,0.00,VWS V14.01,2013-08-05 04:02:00,
2013-08-05 00:03:00,71.3,66.2,30.03,NE,45,0.0,0.0,84,0.00,,,0.00,VWS V14.01,2013-08-05 04:03:00,
2013-08-05 00:04:00,71.3,66.2,30.03,NE,45,0.0,0.0,84,0.00,,CLR,0.00,VWS V14.01,2013-08-05 04:04:00,
2013-08-05 00:05:00,71.5,66.0,30.03,NE,45,0.0,0.0,83,0.00,,,0.00,VWS V14.01,2013-08-05 04:05:00,
2013-08-05 00:06:00,71.5,66.0,30.03,NE,45,0.0,0.0,83,0.00,,,0.00,VWS V14.01,2013-08-05 04:06:00,
2013-08-05 00:07:00,71.3,65.9,30.03,NE,45,0.0,0.0,83,0.00,,,0.00,VWS V14.01,2013-08-05 04:07:00,
2013-08-05 00:08:00,71.3,65.5,30.03,NE,45,0.0,0.0,82,0.00,,,0.00,VWS V14.01,2013-08-05 04:08:00,
2013-08-05 00:09:00,71.3,65.5,30.03,NE,45,0.0,0.0,82,0.00,,CLR,0.00,VWS V14.01,2013-08-05 04:09:00,
2013-08-05 00:10:00,71.3,65.2,30.03,NE,45,0.9,0.9,81,0.00,,,0.00,VWS V14.01,2013-08-05 04:10:00,
2013-08-05 00:11:00,71.3,65.5,30.03,NE,45,1.3,1.3,82,0.00,,,0.00,VWS V14.01,2013-08-05 04:11:00,
2013-08-05 00:12:00,71.3,65.5,30.03,NE,45,0.9,0.9,82,0.00,,,0.00,VWS V14.01,2013-08-05 04:12:00,
2013-08-05 00:13:00,71.3,65.5,30.03,NE,45,0.0,0.0,82,0.00,,,0.00,VWS V14.01,2013-08-05 04:13:00,
2013-08-05 00:14:00,71.1,65.3,30.03,ENE,68,1.3,1.3,82,0.00,,CLR,0.00,VWS V14.01,2013-08-05 04:14:00,
2013-08-05 00:15:00,71.3,65.5,30.03,East,90,1.6,1.6,82,0.00,,,0.00,VWS V14.01,2013-08-05 04:15:00,
2013-08-05 00:16:00,71.3,65.5,30.03,East,90,0.0,0.0,82,0.00,,,0.00,VWS V14.01,2013-08-05 04:16:00,
2013-08-05 00:17:00,71.5,65.7,30.03,East,90,0.0,0.0,82,0.00,,,0.00,VWS V14.01,2013-08-05 04:17:00,
2013-08-05 00:18:00,71.5,65.3,30.03,East,90,0.0,0.0,81,0.00,,,0.00,VWS V14.01,2013-08-05 04:18:00,
2013-08-05 00:19:00,71.3,65.2,30.03,ENE,68,1.6,1.6,81,0.00,,CLR,0.00,VWS V14.01,2013-08-05 04:19:00,
2013-08-05 00:20:00,71.3,65.5,30.03,NE,45,1.6,1.6,82,0.00,,,0.00,VWS V14.01,2013-08-05 04:20:00,
2013-08-05 00:21:00,71.3,65.5,30.03,NE,45,0.9,0.9,82,0.00,,,0.00,VWS V14.01,2013-08-05 04:21:00,
2013-08-05 00:22:00,71.5,65.3,30.03,NE,45,1.1,1.1,81,0.00,,,0.00,VWS V14.01,2013-08-05 04:22:00,
2013-08-05 00:23:00,71.6,65.5,30.03,NE,45,0.0,0.0,81,0.00,,CLR,0.00,VWS V14.01,2013-08-05 04:23:00,
2013-08-05 00:24:00,71.6,65.5,30.03,NE,45,0.0,0.0,81,0.00,,,0.00,VWS V14.01,2013-08-05 04:24:00,
2013-08-05 00:25:00,71.6,65.5,30.00,NE,45,0.0,0.0,81,0.00,,,0.00,VWS V14.01,2013-08-05 04:25:00,
2013-08-05 00:26:00,71.6,65.5,30.00,NE,45,0.0,0.0,81,0.00,,,0.00,VWS V14.01,2013-08-05 04:26:00,
2013-08-05 00:27:00,71.6,65.5,30.00,NE,45,0.0,0.0,81,0.00,,,0.00,VWS V14.01,2013-08-05 04:27:00,
2013-08-05 00:28:00,71.6,65.5,30.00,NE,45,0.0,0.0,81,0.00,,CLR,0.00,VWS V14.01,2013-08-05 04:28:00,
2013-08-05 00:29:00,71.6,65.5,30.00,NE,45,0.0,0.0,81,0.00,,,0.00,VWS V14.01,2013-08-05 04:29:00,
2013-08-05 00:30:00,71.6,65.2,30.00,NE,45,0.0,0.0,80,0.00,,,0.00,VWS V14.01,2013-08-05 04:30:00,
2013-08-05 00:31:00,71.6,65.2,30.00,NE,45,0.0,0.0,80,0.00,,,0.00,VWS V14.01,2013-08-05 04:31:00,
2013-08-05 00:32:00,71.5,65.0,30.00,NE,45,0.0,0.0,80,0.00,,,0.00,VWS V14.01,2013-08-05 04:32:00,
2013-08-05 00:33:00,71.5,65.0,30.00,NE,45,0.0,0.0,80,0.00,,,0.00,VWS V14.01,2013-08-05 04:33:00,
2013-08-05 00:34:00,71.5,65.0,30.00,NE,45,0.0,0.0,80,0.00,,CLR,0.00,VWS V14.01,2013-08-05 04:34:00,
2013-08-05 00:35:00,71.5,65.0,30.00,NE,45,0.0,0.0,80,0.00,,,0.00,VWS V14.01,2013-08-05 04:35:00,
2013-08-05 00:36:00,71.3,65.2,30.00,NE,45,0.0,0.0,81,0.00,,,0.00,VWS V14.01,2013-08-05 04:36:00,
2013-08-05 00:37:00,71.1,65.7,30.00,NE,45,0.0,0.0,83,0.00,,,0.00,VWS V14.01,2013-08-05 04:37:00,
2013-08-05 00:38:00,70.9,65.8,30.00,NE,45,1.6,1.6,84,0.00,,,0.00,VWS V14.01,2013-08-05 04:38:00,
2013-08-05 00:39:00,70.9,65.8,30.00,NE,45,1.1,1.1,84,0.00,,CLR,0.00,VWS V14.01,2013-08-05 04:39:00,
2013-08-05 00:40:00,70.9,66.2,30.03,NE,45,1.3,1.3,85,0.00,,,0.00,VWS V14.01,2013-08-05 04:40:00,
2013-08-05 00:41:00,70.9,66.2,30.03,NE,45,0.0,0.0,85,0.00,,,0.00,VWS V14.01,2013-08-05 04:41:00,
2013-08-05 00:42:00,70.9,66.2,30.03,NE,45,0.0,0.0,85,0.00,,,0.00,VWS V14.01,2013-08-05 04:42:00,
2013-08-05 00:43:00,70.9,66.2,30.03,NE,45,0.0,0.0,85,0.00,,,0.00,VWS V14.01,2013-08-05 04:43:00,
2013-08-05 00:44:00,70.9,65.8,30.03,NE,45,0.0,0.0,84,0.00,,CLR,0.00,VWS V14.01,2013-08-05 04:44:00,
2013-08-05 00:45:00,70.9,65.8,30.03,NE,45,0.0,0.0,84,0.00,,,0.00,VWS V14.01,2013-08-05 04:45:00,
2013-08-05 00:46:00,70.7,65.7,30.03,NE,45,0.0,0.0,84,0.00,,,0.00,VWS V14.01,2013-08-05 04:46:00,
2013-08-05 00:47:00,70.7,65.7,30.03,NE,45,0.0,0.0,84,0.00,,,0.00,VWS V14.01,2013-08-05 04:47:00,
2013-08-05 00:48:00,70.6,65.5,30.03,NE,45,0.0,0.0,84,0.00,,,0.00,VWS V14.01,2013-08-05 04:48:00,
2013-08-05 00:49:00,70.6,65.5,30.03,NE,45,0.0,0.0,84,0.00,,CLR,0.00,VWS V14.01,2013-08-05 04:49:00,
2013-08-05 00:50:00,70.6,65.8,30.03,NE,45,0.9,0.9,85,0.00,,,0.00,VWS V14.01,2013-08-05 04:50:00,
2013-08-05 00:51:00,70.7,66.0,30.03,NE,45,0.0,0.0,85,0.00,,,0.00,VWS V14.01,2013-08-05 04:51:00,
2013-08-05 00:52:00,70.7,66.0,30.03,NE,45,1.1,1.1,85,0.00,,,0.00,VWS V14.01,2013-08-05 04:52:00,
2013-08-05 00:53:00,70.9,66.2,30.03,NE,45,1.1,1.1,85,0.00,,,0.00,VWS V14.01,2013-08-05 04:53:00,
2013-08-05 00:54:00,70.9,65.8,30.03,NE,45,0.0,0.0,84,0.00,,CLR,0.00,VWS V14.01,2013-08-05 04:54:00,
2013-08-05 00:55:00,70.9,65.8,30.03,NE,45,0.0,0.0,84,0.00,,,0.00,VWS V14.01,2013-08-05 04:55:00,
2013-08-05 00:56:00,70.9,65.8,30.03,East,90,0.0,0.0,84,0.00,,,0.00,VWS V14.01,2013-08-05 04:56:00,
2013-08-05 00:57:00,70.9,65.8,30.03,ESE,112,2.0,2.0,84,0.00,,,0.00,VWS V14.01,2013-08-05 04:57:00,
2013-08-05 00:58:00,70.9,65.8,30.03,SE,135,1.3,1.3,84,0.00,,,0.00,VWS V14.01,2013-08-05 04:58:00,
2013-08-05 00:59:00,70.9,65.8,30.03,SE,135,0.0,0.0,84,0.00,,CLR,0.00,VWS V14.01,2013-08-05 04:59:00,
2013-08-05 01:00:00,71.1,66.0,30.03,SE,135,0.0,0.0,84,0.00,,,0.00,VWS V14.01,2013-08-05 05:00:00,
2013-08-05 01:01:00,71.1,66.0,30.03,SE,135,0.0,0.0,84,0.00,,,0.00,VWS V14.01,2013-08-05 05:01:00,
2013-08-05 01:02:00,71.1,66.0,30.03,SE,135,0.0,0.0,84,0.00,,,0.00,VWS V14.01,2013-08-05 05:02:00,
2013-08-05 01:03:00,71.1,66.0,30.03,SE,135,0.0,0.0,84,0.00,,,0.00,VWS V14.01,2013-08-05 05:03:00,
2013-08-05 01:04:00,71.1,65.7,30.03,SE,135,0.0,0.0,83,0.00,,CLR,0.00,VWS V14.01,2013-08-05 05:04:00,
2013-08-05 01:05:00,71.1,65.7,30.03,SE,135,0.0,0.0,83,0.00,,,0.00,VWS V14.01,2013-08-05 05:05:00,
2013-08-05 01:06:00,71.1,65.7,30.03,SE,135,0.0,0.0,83,0.00,,,0.00,VWS V14.01,2013-08-05 05:06:00,
2013-08-05 01:07:00,70.9,65.8,30.03,SE,135,0.0,0.0,84,0.00,,,0.00,VWS V14.01,2013-08-05 05:07:00,
2013-08-05 01:08:00,70.9,66.2,30.03,SE,135,0.0,0.0,85,0.00,,,0.00,VWS V14.01,2013-08-05 05:08:00,
2013-08-05 01:09:00,70.9,66.2,30.03,SE,135,0.0,0.0,85,0.00,,CLR,0.00,VWS V14.01,2013-08-05 05:09:00,
2013-08-05 01:10:00,70.7,66.0,30.03,East,90,0.0,0.0,85,0.00,,,0.00,VWS V14.01,2013-08-05 05:10:00,
2013-08-05 01:11:00,70.7,66.0,30.03,NE,45,0.0,0.0,85,0.00,,,0.00,VWS V14.01,2013-08-05 05:11:00,
2013-08-05 01:12:00,70.7,66.0,30.03,NE,45,0.0,0.0,85,0.00,,,0.00,VWS V14.01,2013-08-05 05:12:00,
2013-08-05 01:13:00,70.7,66.3,30.03,NE,45,0.9,0.9,86,0.00,,,0.00,VWS V14.01,2013-08-05 05:13:00,
2013-08-05 01:14:00,70.6,66.2,30.03,NE,45,1.3,1.3,86,0.00,,CLR,0.00,VWS V14.01,2013-08-05 05:14:00,
2013-08-05 01:15:00,70.6,66.5,30.03,NE,45,1.6,1.6,87,0.00,,,0.00,VWS V14.01,2013-08-05 05:15:00,
2013-08-05 01:16:00,70.6,66.5,30.03,NE,45,1.3,1.3,87,0.00,,,0.00,VWS V14.01,2013-08-05 05:16:00,
2013-08-05 01:17:00,70.7,67.0,30.03,NE,45,1.3,1.3,88,0.00,,,0.00,VWS V14.01,2013-08-05 05:17:00,
2013-08-05 01:18:00,70.7,67.0,30.03,NE,45,0.0,0.0,88,0.00,,,0.00,VWS V14.01,2013-08-05 05:18:00,
2013-08-05 01:19:00,70.7,67.0,30.03,NE,45,0.9,0.9,88,0.00,,CLR,0.00,VWS V14.01,2013-08-05 05:19:00,
2013-08-05 01:20:00,70.7,67.3,30.03,NE,45,0.0,0.0,89,0.00,,,0.00,VWS V14.01,2013-08-05 05:20:00,
2013-08-05 01:21:00,70.6,66.8,30.03,NE,45,0.0,0.0,88,0.00,,,0.00,VWS V14.01,2013-08-05 05:21:00,
2013-08-05 01:22:00,70.6,66.8,30.03,NE,45,0.0,0.0,88,0.00,,,0.00,VWS V14.01,2013-08-05 05:22:00,
2013-08-05 01:23:00,70.6,66.8,30.03,NE,45,0.0,0.0,88,0.00,,,0.00,VWS V14.01,2013-08-05 05:23:00,
2013-08-05 01:24:00,70.6,66.8,30.03,NE,45,0.0,0.0,88,0.00,,CLR,0.00,VWS V14.01,2013-08-05 05:24:00,
2013-08-05 01:25:00,70.6,66.5,30.03,NE,45,0.0,0.0,87,0.00,,,0.00,VWS V14.01,2013-08-05 05:25:00,
2013-08-05 01:26:00,70.6,66.5,30.03,NE,45,0.0,0.0,87,0.00,,,0.00,VWS V14.01,2013-08-05 05:26:00,
2013-08-05 01:27:00,70.6,66.5,30.03,NE,45,0.0,0.0,87,0.00,,,0.00,VWS V14.01,2013-08-05 05:27:00,
2013-08-05 01:28:00,70.6,66.5,30.03,NE,45,0.0,0.0,87,0.00,,,0.00,VWS V14.01,2013-08-05 05:28:00,
2013-08-05 01:29:00,70.6,66.8,30.03,NE,45,0.0,0.0,88,0.00,,CLR,0.00,VWS V14.01,2013-08-05 05:29:00,
2013-08-05 01:30:00,70.6,67.2,30.03,NE,45,0.0,0.0,89,0.00,,,0.00,VWS V14.01,2013-08-05 05:30:00,
2013-08-05 01:31:00,70.6,67.2,30.03,NE,45,0.0,0.0,89,0.00,,,0.00,VWS V14.01,2013-08-05 05:31:00,
2013-08-05 01:32:00,70.6,67.2,30.03,ENE,68,1.6,1.6,89,0.00,,,0.00,VWS V14.01,2013-08-05 05:32:00,
2013-08-05 01:33:00,70.7,67.0,30.03,ENE,68,1.3,1.3,88,0.00,,,0.00,VWS V14.01,2013-08-05 05:33:00,
2013-08-05 01:34:00,70.7,67.0,30.03,ENE,68,0.9,0.9,88,0.00,,CLR,0.00,VWS V14.01,2013-08-05 05:34:00,
2013-08-05 01:35:00,70.7,67.0,30.03,ENE,68,0.0,0.0,88,0.00,,,0.00,VWS V14.01,2013-08-05 05:35:00,
2013-08-05 01:36:00,70.7,67.0,30.03,ENE,68,0.0,0.0,88,0.00,,,0.00,VWS V14.01,2013-08-05 05:36:00,
2013-08-05 01:37:00,70.7,67.0,30.03,ENE,68,0.0,0.0,88,0.00,,,0.00,VWS V14.01,2013-08-05 05:37:00,
2013-08-05 01:38:00,70.7,67.0,30.03,NE,45,0.0,0.0,88,0.00,,,0.00,VWS V14.01,2013-08-05 05:38:00,
2013-08-05 01:39:00,70.7,67.0,30.03,NE,45,0.0,0.0,88,0.00,,CLR,0.00,VWS V14.01,2013-08-05 05:39:00,
2013-08-05 01:40:00,70.7,67.0,30.03,NE,45,0.0,0.0,88,0.00,,,0.00,VWS V14.01,2013-08-05 05:40:00,
2013-08-05 01:41:00,70.7,67.0,30.03,NE,45,0.0,0.0,88,0.00,,,0.00,VWS V14.01,2013-08-05 05:41:00,
2013-08-05 01:42:00,70.7,67.0,30.03,NE,45,0.0,0.0,88,0.00,,,0.00,VWS V14.01,2013-08-05 05:42:00,
2013-08-05 01:43:00,70.7,67.0,30.03,NE,45,0.0,0.0,88,0.00,,,0.00,VWS V14.01,2013-08-05 05:43:00,
2013-08-05 01:44:00,70.7,67.0,30.03,NE,45,0.0,0.0,88,0.00,,CLR,0.00,VWS V14.01,2013-08-05 05:44:00,
2013-08-05 01:45:00,70.7,67.0,30.03,NE,45,0.0,0.0,88,0.00,,,0.00,VWS V14.01,2013-08-05 05:45:00,
2013-08-05 01:46:00,70.7,67.3,30.03,NE,45,1.3,1.3,89,0.00,,,0.00,VWS V14.01,2013-08-05 05:46:00,
2013-08-05 01:47:00,70.7,67.3,30.03,ENE,68,2.2,2.2,89,0.00,,,0.00,VWS V14.01,2013-08-05 05:47:00,
2013-08-05 01:48:00,70.9,67.2,30.03,ENE,68,2.5,2.5,88,0.00,,,0.00,VWS V14.01,2013-08-05 05:48:00,
2013-08-05 01:49:00,71.1,67.4,30.03,NE,45,2.5,2.5,88,0.00,,CLR,0.00,VWS V14.01,2013-08-05 05:49:00,
2013-08-05 01:50:00,71.1,67.4,30.03,NE,45,2.5,2.5,88,0.00,,,0.00,VWS V14.01,2013-08-05 05:50:00,
2013-08-05 01:51:00,71.1,67.4,30.03,NE,45,3.1,3.1,88,0.00,,,0.00,VWS V14.01,2013-08-05 05:51:00,
2013-08-05 01:52:00,71.1,67.4,30.03,ENE,68,2.7,2.7,88,0.00,,,0.00,VWS V14.01,2013-08-05 05:52:00,
2013-08-05 01:53:00,71.1,67.0,30.03,NE,45,2.0,2.0,87,0.00,,,0.00,VWS V14.01,2013-08-05 05:53:00,
2013-08-05 01:54:00,71.1,67.4,30.03,NE,45,1.6,1.6,88,0.00,,CLR,0.00,VWS V14.01,2013-08-05 05:54:00,
2013-08-05 01:55:00,71.1,67.4,30.03,NE,45,1.3,1.3,88,0.00,,,0.00,VWS V14.01,2013-08-05 05:55:00,
2013-08-05 01:56:00,71.1,67.4,30.03,NE,45,1.1,1.1,88,0.00,,,0.00,VWS V14.01,2013-08-05 05:56:00,
2013-08-05 01:57:00,71.1,67.4,30.03,NE,45,0.9,0.9,88,0.00,,,0.00,VWS V14.01,2013-08-05 05:57:00,
2013-08-05 01:58:00,71.1,67.4,30.03,NE,45,0.0,0.0,88,0.00,,,0.00,VWS V14.01,2013-08-05 05:58:00,
2013-08-05 01:59:00,70.9,67.2,30.03,NE,45,0.0,0.0,88,0.00,,CLR,0.00,VWS V14.01,2013-08-05 05:59:00,
2013-08-05 02:00:00,70.9,67.2,30.03,NE,45,0.0,0.0,88,0.00,,,0.00,VWS V14.01,2013-08-05 06:00:00,
2013-08-05 02:01:00,70.9,67.2,30.03,NE,45,0.9,0.9,88,0.00,,,0.00,VWS V14.01,2013-08-05 06:01:00,
2013-08-05 02:02:00,70.9,67.2,30.03,NE,45,0.0,0.0,88,0.00,,,0.00,VWS V14.01,2013-08-05 06:02:00,
2013-08-05 02:03:00,70.9,67.2,30.03,NE,45,0.0,0.0,88,0.00,,,0.00,VWS V14.01,2013-08-05 06:03:00,
2013-08-05 02:04:00,70.9,67.2,30.03,NE,45,0.0,0.0,88,0.00,,CLR,0.00,VWS V14.01,2013-08-05 06:04:00,
2013-08-05 02:05:00,70.9,67.2,30.03,NE,45,0.0,0.0,88,0.00,,,0.00,VWS V14.01,2013-08-05 06:05:00,
2013-08-05 02:06:00,70.9,67.2,30.03,NE,45,0.0,0.0,88,0.00,,,0.00,VWS V14.01,2013-08-05 06:06:00,
2013-08-05 02:07:00,70.9,67.2,30.03,NE,45,1.1,1.1,88,0.00,,,0.00,VWS V14.01,2013-08-05 06:07:00,
2013-08-05 02:08:00,70.7,67.3,30.03,NE,45,1.1,1.1,89,0.00,,,0.00,VWS V14.01,2013-08-05 06:08:00,
2013-08-05 02:09:00,70.7,67.3,30.03,NE,45,1.3,1.3,89,0.00,,CLR,0.00,VWS V14.01,2013-08-05 06:09:00,
2013-08-05 02:10:00,70.7,67.3,30.03,ENE,68,0.0,0.0,89,0.00,,,0.00,VWS V14.01,2013-08-05 06:10:00,
2013-08-05 02:11:00,70.7,67.3,30.03,NE,45,1.3,1.3,89,0.00,,,0.00,VWS V14.01,2013-08-05 06:11:00,
2013-08-05 02:12:00,70.9,67.5,30.03,NE,45,0.0,0.0,89,0.00,,,0.00,VWS V14.01,2013-08-05 06:12:00,
2013-08-05 02:13:00,70.9,67.5,30.03,NE,45,0.0,0.0,89,0.00,,,0.00,VWS V14.01,2013-08-05 06:13:00,
2013-08-05 02:14:00,70.9,67.5,30.03,NE,45,0.0,0.0,89,0.00,,CLR,0.00,VWS V14.01,2013-08-05 06:14:00,
2013-08-05 02:15:00,70.9,67.5,30.03,NE,45,0.0,0.0,89,0.00,,,0.00,VWS V14.01,2013-08-05 06:15:00,
2013-08-05 02:16:00,70.9,67.2,30.03,NE,45,0.0,0.0,88,0.00,,,0.00,VWS V14.01,2013-08-05 06:16:00,
2013-08-05 02:17:00,70.9,67.2,30.03,NE,45,0.0,0.0,88,0.00,,,0.00,VWS V14.01,2013-08-05 06:17:00,
2013-08-05 02:18:00,70.9,67.2,30.03,NE,45,0.0,0.0,88,0.00,,,0.00,VWS V14.01,2013-08-05 06:18:00,
2013-08-05 02:19:00,70.9,67.2,30.03,NE,45,0.0,0.0,88,0.00,,CLR,0.00,VWS V14.01,2013-08-05 06:19:00,
2013-08-05 02:20:00,70.9,67.2,30.03,NE,45,0.9,0.9,88,0.00,,,0.00,VWS V14.01,2013-08-05 06:20:00,
2013-08-05 02:21:00,70.9,67.2,30.03,NE,45,1.3,1.3,88,0.00,,,0.00,VWS V14.01,2013-08-05 06:21:00,
2013-08-05 02:22:00,70.9,67.2,30.03,NE,45,2.0,2.0,88,0.00,,,0.00,VWS V14.01,2013-08-05 06:22:00,
2013-08-05 02:23:00,71.1,67.0,30.03,NE,45,2.2,2.2,87,0.00,,,0.00,VWS V14.01,2013-08-05 06:23:00,
2013-08-05 02:24:00,71.1,67.0,30.03,NE,45,1.6,1.6,87,0.00,,CLR,0.00,VWS V14.01,2013-08-05 06:24:00,
2013-08-05 02:25:00,71.3,66.9,30.03,ENE,68,2.0,2.0,86,0.00,,,0.00,VWS V14.01,2013-08-05 06:25:00,
2013-08-05 02:26:00,71.3,66.9,30.03,ENE,68,2.2,2.2,86,0.00,,,0.00,VWS V14.01,2013-08-05 06:26:00,
2013-08-05 02:27:00,71.3,66.9,30.03,NE,45,0.0,0.0,86,0.00,,,0.00,VWS V14.01,2013-08-05 06:27:00,
2013-08-05 02:28:00,71.3,67.2,30.03,NE,45,0.9,0.9,87,0.00,,,0.00,VWS V14.01,2013-08-05 06:28:00,
2013-08-05 02:29:00,71.3,66.9,30.03,NE,45,0.0,0.0,86,0.00,,CLR,0.00,VWS V14.01,2013-08-05 06:29:00,
2013-08-05 02:30:00,71.3,67.2,30.03,NE,45,1.3,1.3,87,0.00,,,0.00,VWS V14.01,2013-08-05 06:30:00,
2013-08-05 02:31:00,71.3,66.9,30.03,NNE,22,0.0,0.0,86,0.00,,,0.00,VWS V14.01,2013-08-05 06:31:00,
2013-08-05 02:32:00,71.3,66.9,30.03,NE,45,0.0,0.0,86,0.00,,,0.00,VWS V14.01,2013-08-05 06:32:00,
2013-08-05 02:33:00,71.3,66.9,30.03,NE,45,0.0,0.0,86,0.00,,,0.00,VWS V14.01,2013-08-05 06:33:00,
2013-08-05 02:34:00,71.3,66.9,30.03,NE,45,0.0,0.0,86,0.00,,CLR,0.00,VWS V14.01,2013-08-05 06:34:00,
2013-08-05 02:35:00,71.3,66.9,30.03,NE,45,0.0,0.0,86,0.00,,,0.00,VWS V14.01,2013-08-05 06:35:00,
2013-08-05 02:36:00,71.3,66.9,30.03,NE,45,0.0,0.0,86,0.00,,,0.00,VWS V14.01,2013-08-05 06:36:00,
2013-08-05 02:37:00,71.3,66.9,30.03,NE,45,0.0,0.0,86,0.00,,,0.00,VWS V14.01,2013-08-05 06:37:00,
2013-08-05 02:38:00,71.3,67.2,30.03,NE,45,0.0,0.0,87,0.00,,,0.00,VWS V14.01,2013-08-05 06:38:00,
2013-08-05 02:39:00,71.3,66.9,30.03,NE,45,0.0,0.0,86,0.00,,CLR,0.00,VWS V14.01,2013-08-05 06:39:00,
2013-08-05 02:40:00,71.3,66.9,30.03,NE,45,2.0,2.0,86,0.00,,,0.00,VWS V14.01,2013-08-05 06:40:00,
2013-08-05 02:41:00,71.3,66.9,30.03,NNE,22,1.6,1.6,86,0.00,,,0.00,VWS V14.01,2013-08-05 06:41:00,
2013-08-05 02:42:00,71.3,66.9,30.03,NNE,22,1.1,1.1,86,0.00,,,0.00,VWS V14.01,2013-08-05 06:42:00,
2013-08-05 02:43:00,71.3,66.9,30.03,NNE,22,1.3,1.3,86,0.00,,,0.00,VWS V14.01,2013-08-05 06:43:00,
2013-08-05 02:44:00,71.3,66.9,30.03,NE,45,1.3,1.3,86,0.00,,CLR,0.00,VWS V14.01,2013-08-05 06:44:00,
2013-08-05 02:45:00,71.3,66.9,30.03,NE,45,1.3,1.3,86,0.00,,,0.00,VWS V14.01,2013-08-05 06:45:00,
2013-08-05 02:46:00,71.3,66.9,30.03,NE,45,1.1,1.1,86,0.00,,,0.00,VWS V14.01,2013-08-05 06:46:00,
2013-08-05 02:47:00,71.3,66.9,30.03,NE,45,1.6,1.6,86,0.00,,,0.00,VWS V14.01,2013-08-05 06:47:00,
2013-08-05 02:48:00,71.1,67.0,30.03,NE,45,1.3,1.3,87,0.00,,,0.00,VWS V14.01,2013-08-05 06:48:00,
2013-08-05 02:49:00,71.1,67.0,30.03,ENE,68,2.0,2.0,87,0.00,,CLR,0.00,VWS V14.01,2013-08-05 06:49:00,
2013-08-05 02:50:00,71.3,67.2,30.03,NE,45,1.6,1.6,87,0.00,,,0.00,VWS V14.01,2013-08-05 06:50:00,
2013-08-05 02:51:00,71.1,67.0,30.03,ENE,68,1.1,1.1,87,0.00,,,0.00,VWS V14.01,2013-08-05 06:51:00,
2013-08-05 02:52:00,71.1,67.4,30.03,ENE,68,0.0,0.0,88,0.00,,,0.00,VWS V14.01,2013-08-05 06:52:00,
2013-08-05 02:53:00,70.9,67.2,30.03,NE,45,0.0,0.0,88,0.00,,,0.00,VWS V14.01,2013-08-05 06:53:00,
2013-08-05 02:54:00,70.9,67.2,30.03,NE,45,0.0,0.0,88,0.00,,CLR,0.00,VWS V14.01,2013-08-05 06:54:00,
2013-08-05 02:55:00,70.9,67.2,30.00,NE,45,0.0,0.0,88,0.00,,,0.00,VWS V14.01,2013-08-05 06:55:00,
2013-08-05 02:56:00,70.9,66.9,30.00,NE,45,0.0,0.0,87,0.00,,,0.00,VWS V14.01,2013-08-05 06:56:00,
2013-08-05 02:57:00,70.9,66.9,30.00,NE,45,0.0,0.0,87,0.00,,,0.00,VWS V14.01,2013-08-05 06:57:00,
2013-08-05 02:58:00,70.7,66.7,30.00,NE,45,0.0,0.0,87,0.00,,,0.00,VWS V14.01,2013-08-05 06:58:00,
2013-08-05 02:59:00,70.7,67.0,30.00,NE,45,0.0,0.0,88,0.00,,CLR,0.00,VWS V14.01,2013-08-05 06:59:00,
2013-08-05 03:00:00,70.7,67.0,30.00,NE,45,0.0,0.0,88,0.00,,,0.00,VWS V14.01,2013-08-05 07:00:00,
2013-08-05 03:01:00,70.6,66.8,30.00,NE,45,0.0,0.0,88,0.00,,,0.00,VWS V14.01,2013-08-05 07:01:00,
2013-08-05 03:02:00,70.6,66.8,30.00,NE,45,0.0,0.0,88,0.00,,,0.00,VWS V14.01,2013-08-05 07:02:00,
2013-08-05 03:03:00,70.6,66.8,30.00,NE,45,0.0,0.0,88,0.00,,,0.00,VWS V14.01,2013-08-05 07:03:00,
2013-08-05 03:04:00,70.6,66.8,30.00,NE,45,0.0,0.0,88,0.00,,CLR,0.00,VWS V14.01,2013-08-05 07:04:00,
2013-08-05 03:05:00,70.4,66.7,30.00,NE,45,0.0,0.0,88,0.00,,,0.00,VWS V14.01,2013-08-05 07:05:00,
2013-08-05 03:06:00,70.4,66.7,30.00,NE,45,0.0,0.0,88,0.00,,,0.00,VWS V14.01,2013-08-05 07:06:00,
2013-08-05 03:07:00,70.4,67.0,30.00,NE,45,0.0,0.0,89,0.00,,,0.00,VWS V14.01,2013-08-05 07:07:00,
2013-08-05 03:08:00,70.2,66.8,30.00,NE,45,0.0,0.0,89,0.00,,,0.00,VWS V14.01,2013-08-05 07:08:00,
2013-08-05 03:09:00,70.2,67.1,30.00,NE,45,0.0,0.0,90,0.00,,CLR,0.00,VWS V14.01,2013-08-05 07:09:00,
2013-08-05 03:10:00,70.2,67.1,30.03,NE,45,0.0,0.0,90,0.00,,,0.00,VWS V14.01,2013-08-05 07:10:00,
2013-08-05 03:11:00,70.2,67.4,30.03,NE,45,0.9,0.9,91,0.00,,,0.00,VWS V14.01,2013-08-05 07:11:00,
2013-08-05 03:12:00,70.4,67.6,30.03,NE,45,1.1,1.1,91,0.00,,,0.00,VWS V14.01,2013-08-05 07:12:00,
2013-08-05 03:13:00,70.4,67.6,30.03,NE,45,0.9,0.9,91,0.00,,,0.00,VWS V14.01,2013-08-05 07:13:00,
2013-08-05 03:14:00,70.6,67.8,30.03,NE,45,2.0,2.0,91,0.00,,CLR,0.00,VWS V14.01,2013-08-05 07:14:00,
2013-08-05 03:15:00,70.6,67.5,30.03,NE,45,1.3,1.3,90,0.00,,,0.00,VWS V14.01,2013-08-05 07:15:00,
2013-08-05 03:16:00,70.7,67.7,30.03,NE,45,1.3,1.3,90,0.00,,,0.00,VWS V14.01,2013-08-05 07:16:00,
2013-08-05 03:17:00,70.6,67.8,30.03,NE,45,1.6,1.6,91,0.00,,,0.00,VWS V14.01,2013-08-05 07:17:00,
2013-08-05 03:18:00,70.6,67.8,30.03,NE,45,1.1,1.1,91,0.00,,,0.00,VWS V14.01,2013-08-05 07:18:00,
2013-08-05 03:19:00,70.6,67.8,30.03,NE,45,0.9,0.9,91,0.00,,CLR,0.00,VWS V14.01,2013-08-05 07:19:00,
2013-08-05 03:20:00,70.6,67.8,30.03,NE,45,0.0,0.0,91,0.00,,,0.00,VWS V14.01,2013-08-05 07:20:00,
2013-08-05 03:21:00,70.4,67.6,30.03,NE,45,0.0,0.0,91,0.00,,,0.00,VWS V14.01,2013-08-05 07:21:00,
2013-08-05 03:22:00,70.4,67.6,30.03,NE,45,0.0,0.0,91,0.00,,,0.00,VWS V14.01,2013-08-05 07:22:00,
2013-08-05 03:23:00,70.4,67.6,30.03,NNE,22,0.9,0.9,91,0.00,,,0.00,VWS V14.01,2013-08-05 07:23:00,
2013-08-05 03:24:00,70.6,67.8,30.03,NNE,22,0.0,0.0,91,0.00,,CLR,0.00,VWS V14.01,2013-08-05 07:24:00,
2013-08-05 03:25:00,70.6,67.8,30.03,NNE,22,1.1,1.1,91,0.00,,,0.00,VWS V14.01,2013-08-05 07:25:00,
2013-08-05 03:26:00,70.6,67.8,30.03,NNE,22,0.0,0.0,91,0.00,,,0.00,VWS V14.01,2013-08-05 07:26:00,
2013-08-05 03:27:00,70.6,67.8,30.03,NNE,22,0.0,0.0,91,0.00,,,0.00,VWS V14.01,2013-08-05 07:27:00,
2013-08-05 03:28:00,70.6,67.8,30.03,NNE,22,0.0,0.0,91,0.00,,,0.00,VWS V14.01,2013-08-05 07:28:00,
2013-08-05 03:29:00,70.6,67.8,30.03,NNE,22,0.9,0.9,91,0.00,,CLR,0.00,VWS V14.01,2013-08-05 07:29:00,
2013-08-05 03:30:00,70.6,67.8,30.03,NE,45,1.1,1.1,91,0.00,,,0.00,VWS V14.01,2013-08-05 07:30:00,
2013-08-05 03:31:00,70.6,67.8,30.03,NE,45,1.6,1.6,91,0.00,,,0.00,VWS V14.01,2013-08-05 07:31:00,
2013-08-05 03:32:00,70.6,67.8,30.03,NE,45,2.0,2.0,91,0.00,,,0.00,VWS V14.01,2013-08-05 07:32:00,
2013-08-05 03:33:00,70.6,67.8,30.03,ENE,68,1.3,1.3,91,0.00,,,0.00,VWS V14.01,2013-08-05 07:33:00,
2013-08-05 03:34:00,70.6,67.8,30.03,ENE,68,0.0,0.0,91,0.00,,CLR,0.00,VWS V14.01,2013-08-05 07:34:00,
2013-08-05 03:35:00,70.6,67.8,30.03,ENE,68,0.0,0.0,91,0.00,,,0.00,VWS V14.01,2013-08-05 07:35:00,
2013-08-05 03:36:00,70.6,67.8,30.03,NE,45,1.1,1.1,91,0.00,,,0.00,VWS V14.01,2013-08-05 07:36:00,
2013-08-05 03:37:00,70.6,67.8,30.03,NE,45,0.0,0.0,91,0.00,,,0.00,VWS V14.01,2013-08-05 07:37:00,
2013-08-05 03:38:00,70.6,67.8,30.03,ENE,68,1.6,1.6,91,0.00,,,0.00,VWS V14.01,2013-08-05 07:38:00,
2013-08-05 03:39:00,70.7,67.7,30.03,ENE,68,0.0,0.0,90,0.00,,,0.00,VWS V14.01,2013-08-05 07:39:00,
2013-08-05 03:40:00,70.7,67.7,30.03,ENE,68,0.0,0.0,90,0.00,,SCT070,0.00,VWS V14.01,2013-08-05 07:40:00,
2013-08-05 03:41:00,70.6,67.8,30.03,ENE,68,0.0,0.0,91,0.00,,,0.00,VWS V14.01,2013-08-05 07:41:00,
2013-08-05 03:42:00,70.6,67.8,30.03,NE,45,1.3,1.3,91,0.00,,,0.00,VWS V14.01,2013-08-05 07:42:00,
2013-08-05 03:43:00,70.7,67.7,30.03,NE,45,0.9,0.9,90,0.00,,,0.00,VWS V14.01,2013-08-05 07:43:00,
2013-08-05 03:44:00,70.7,67.7,30.03,ENE,68,1.3,1.3,90,0.00,,,0.00,VWS V14.01,2013-08-05 07:44:00,
2013-08-05 03:45:00,70.7,67.7,30.03,ENE,68,1.3,1.3,90,0.00,,SCT070,0.00,VWS V14.01,2013-08-05 07:45:00,
2013-08-05 03:46:00,70.7,67.7,30.03,NE,45,1.3,1.3,90,0.00,,,0.00,VWS V14.01,2013-08-05 07:46:00,
2013-08-05 03:47:00,70.7,67.7,30.03,ENE,68,1.3,1.3,90,0.00,,,0.00,VWS V14.01,2013-08-05 07:47:00,
2013-08-05 03:48:00,70.7,67.7,30.03,ENE,68,2.2,2.2,90,0.00,,,0.00,VWS V14.01,2013-08-05 07:48:00,
2013-08-05 03:49:00,70.7,67.7,30.03,ENE,68,2.0,2.0,90,0.00,,,0.00,VWS V14.01,2013-08-05 07:49:00,
2013-08-05 03:50:00,70.7,67.7,30.03,ENE,68,2.2,2.2,90,0.00,,SCT070,0.00,VWS V14.01,2013-08-05 07:50:00,
2013-08-05 03:51:00,70.7,67.7,30.03,ENE,68,2.0,2.0,90,0.00,,,0.00,VWS V14.01,2013-08-05 07:51:00,
2013-08-05 03:52:00,70.7,67.7,30.03,ENE,68,1.1,1.1,90,0.00,,,0.00,VWS V14.01,2013-08-05 07:52:00,
2013-08-05 03:53:00,70.7,67.7,30.03,NE,45,1.1,1.1,90,0.00,,,0.00,VWS V14.01,2013-08-05 07:53:00,
2013-08-05 03:54:00,70.7,67.7,30.03,NE,45,0.0,0.0,90,0.00,,,0.00,VWS V14.01,2013-08-05 07:54:00,
2013-08-05 03:55:00,70.7,67.7,30.03,NE,45,0.0,0.0,90,0.00,,SCT070,0.00,VWS V14.01,2013-08-05 07:55:00,
2013-08-05 03:56:00,70.7,67.7,30.03,NE,45,0.0,0.0,90,0.00,,,0.00,VWS V14.01,2013-08-05 07:56:00,
2013-08-05 03:57:00,70.6,67.5,30.03,NE,45,0.0,0.0,90,0.00,,,0.00,VWS V14.01,2013-08-05 07:57:00,
2013-08-05 03:58:00,70.6,67.2,30.03,NE,45,0.0,0.0,89,0.00,,,0.00,VWS V14.01,2013-08-05 07:58:00,
2013-08-05 03:59:00,70.6,67.2,30.03,NE,45,0.0,0.0,89,0.00,,,0.00,VWS V14.01,2013-08-05 07:59:00,
2013-08-05 04:00:00,70.6,67.2,30.03,NE,45,0.0,0.0,89,0.00,,SCT070,0.00,VWS V14.01,2013-08-05 08:00:00,
2013-08-05 04:01:00,70.6,67.2,30.03,NE,45,0.0,0.0,89,0.00,,,0.00,VWS V14.01,2013-08-05 08:01:00,
2013-08-05 04:02:00,70.4,67.0,30.03,NE,45,0.0,0.0,89,0.00,,,0.00,VWS V14.01,2013-08-05 08:02:00,
2013-08-05 04:03:00,70.4,67.0,30.03,NE,45,0.0,0.0,89,0.00,,,0.00,VWS V14.01,2013-08-05 08:03:00,
2013-08-05 04:04:00,70.4,67.0,30.03,NE,45,0.0,0.0,89,0.00,,,0.00,VWS V14.01,2013-08-05 08:04:00,
2013-08-05 04:05:00,70.4,67.0,30.03,NE,45,0.0,0.0,89,0.00,,SCT070,0.00,VWS V14.01,2013-08-05 08:05:00,
2013-08-05 04:06:00,70.4,67.0,30.03,NE,45,0.0,0.0,89,0.00,,,0.00,VWS V14.01,2013-08-05 08:06:00,
2013-08-05 04:07:00,70.4,67.0,30.03,NE,45,0.0,0.0,89,0.00,,,0.00,VWS V14.01,2013-08-05 08:07:00,
2013-08-05 04:08:00,70.4,67.3,30.03,NE,45,0.0,0.0,90,0.00,,,0.00,VWS V14.01,2013-08-05 08:08:00,
2013-08-05 04:09:00,70.2,67.1,30.03,NE,45,0.0,0.0,90,0.00,,,0.00,VWS V14.01,2013-08-05 08:09:00,
2013-08-05 04:10:00,70.2,67.1,30.03,ENE,68,0.9,0.9,90,0.00,,SCT070,0.00,VWS V14.01,2013-08-05 08:10:00,
2013-08-05 04:11:00,70.2,67.1,30.03,ENE,68,0.0,0.0,90,0.00,,,0.00,VWS V14.01,2013-08-05 08:11:00,
2013-08-05 04:12:00,70.2,67.1,30.03,ENE,68,0.0,0.0,90,0.00,,,0.00,VWS V14.01,2013-08-05 08:12:00,
2013-08-05 04:13:00,70.2,67.1,30.03,East,90,0.0,0.0,90,0.00,,,0.00,VWS V14.01,2013-08-05 08:13:00,
2013-08-05 04:14:00,70.2,67.1,30.03,East,90,0.0,0.0,90,0.00,,,0.00,VWS V14.01,2013-08-05 08:14:00,
2013-08-05 04:15:00,70.2,67.1,30.03,East,90,0.0,0.0,90,0.00,,SCT070,0.00,VWS V14.01,2013-08-05 08:15:00,
2013-08-05 04:16:00,70.4,67.3,30.03,East,90,0.0,0.0,90,0.00,,,0.00,VWS V14.01,2013-08-05 08:16:00,
2013-08-05 04:17:00,70.4,67.3,30.03,East,90,0.0,0.0,90,0.00,,,0.00,VWS V14.01,2013-08-05 08:17:00,
2013-08-05 04:18:00,70.4,67.3,30.03,East,90,0.0,0.0,90,0.00,,,0.00,VWS V14.01,2013-08-05 08:18:00,
2013-08-05 04:19:00,70.4,67.3,30.03,East,90,0.0,0.0,90,0.00,,,0.00,VWS V14.01,2013-08-05 08:19:00,
2013-08-05 04:20:00,70.4,67.3,30.03,East,90,0.0,0.0,90,0.00,,SCT070,0.00,VWS V14.01,2013-08-05 08:20:00,
2013-08-05 04:21:00,70.4,67.3,30.03,East,90,0.0,0.0,90,0.00,,,0.00,VWS V14.01,2013-08-05 08:21:00,
2013-08-05 04:22:00,70.4,67.3,30.03,East,90,0.0,0.0,90,0.00,,,0.00,VWS V14.01,2013-08-05 08:22:00,
2013-08-05 04:23:00,70.4,67.3,30.03,ESE,112,0.0,0.0,90,0.00,,,0.00,VWS V14.01,2013-08-05 08:23:00,
2013-08-05 04:24:00,70.4,67.3,30.03,ESE,112,1.3,1.3,90,0.00,,,0.00,VWS V14.01,2013-08-05 08:24:00,
2013-08-05 04:25:00,70.4,67.6,30.03,ESE,112,0.9,0.9,91,0.00,,SCT070,0.00,VWS V14.01,2013-08-05 08:25:00,
2013-08-05 04:26:00,70.4,67.6,30.03,ESE,112,0.0,0.0,91,0.00,,,0.00,VWS V14.01,2013-08-05 08:26:00,
2013-08-05 04:27:00,70.2,67.1,30.03,ESE,112,0.0,0.0,90,0.00,,,0.00,VWS V14.01,2013-08-05 08:27:00,
2013-08-05 04:28:00,70.2,67.1,30.03,ESE,112,0.0,0.0,90,0.00,,,0.00,VWS V14.01,2013-08-05 08:28:00,
2013-08-05 04:29:00,70.2,67.1,30.03,ESE,112,0.0,0.0,90,0.00,,,0.00,VWS V14.01,2013-08-05 08:29:00,
2013-08-05 04:30:00,70.2,67.1,30.03,ESE,112,0.0,0.0,90,0.00,,SCT070,0.00,VWS V14.01,2013-08-05 08:30:00,
2013-08-05 04:31:00,70.2,67.1,30.03,ESE,112,0.0,0.0,90,0.00,,,0.00,VWS V14.01,2013-08-05 08:31:00,
2013-08-05 04:32:00,70.0,67.3,30.03,ESE,112,0.0,0.0,91,0.00,,,0.00,VWS V14.01,2013-08-05 08:32:00,
2013-08-05 04:33:00,70.0,67.3,30.03,ESE,112,0.0,0.0,91,0.00,,,0.00,VWS V14.01,2013-08-05 08:33:00,
2013-08-05 04:34:00,70.0,67.3,30.03,ESE,112,0.0,0.0,91,0.00,,,0.00,VWS V14.01,2013-08-05 08:34:00,
2013-08-05 04:35:00,69.8,67.1,30.03,ESE,112,0.0,0.0,91,0.00,,,0.00,VWS V14.01,2013-08-05 08:35:00,
2013-08-05 04:36:00,69.8,67.1,30.03,ESE,112,0.0,0.0,91,0.00,,CLR,0.00,VWS V14.01,2013-08-05 08:36:00,
2013-08-05 04:37:00,69.8,67.1,30.03,ESE,112,0.0,0.0,91,0.00,,,0.00,VWS V14.01,2013-08-05 08:37:00,
2013-08-05 04:38:00,69.8,67.1,30.03,ESE,112,0.0,0.0,91,0.00,,,0.00,VWS V14.01,2013-08-05 08:38:00,
2013-08-05 04:39:00,69.8,67.1,30.03,ESE,112,0.0,0.0,91,0.00,,,0.00,VWS V14.01,2013-08-05 08:39:00,
2013-08-05 04:40:00,69.8,67.1,30.03,ESE,112,0.0,0.0,91,0.00,,,0.00,VWS V14.01,2013-08-05 08:40:00,
2013-08-05 04:41:00,70.0,67.9,30.03,ENE,68,2.5,2.5,93,0.00,,,0.00,VWS V14.01,2013-08-05 08:41:00,
2013-08-05 04:42:00,70.0,67.9,30.03,ENE,68,2.0,2.0,93,0.00,,CLR,0.00,VWS V14.01,2013-08-05 08:42:00,
2013-08-05 04:43:00,70.0,67.9,30.03,ENE,68,1.3,1.3,93,0.00,,,0.00,VWS V14.01,2013-08-05 08:43:00,
2013-08-05 04:44:00,70.0,68.2,30.03,ENE,68,0.0,0.0,94,0.00,,,0.00,VWS V14.01,2013-08-05 08:44:00,
2013-08-05 04:45:00,70.0,68.2,30.03,ENE,68,0.0,0.0,94,0.00,,,0.00,VWS V14.01,2013-08-05 08:45:00,
2013-08-05 04:46:00,70.0,68.2,30.03,ENE,68,0.0,0.0,94,0.00,,,0.00,VWS V14.01,2013-08-05 08:46:00,
2013-08-05 04:47:00,70.0,68.2,30.03,ENE,68,0.0,0.0,94,0.00,,CLR,0.00,VWS V14.01,2013-08-05 08:47:00,
2013-08-05 04:48:00,70.0,68.2,30.03,ENE,68,0.0,0.0,94,0.00,,,0.00,VWS V14.01,2013-08-05 08:48:00,
2013-08-05 04:49:00,70.0,68.2,30.03,ENE,68,0.0,0.0,94,0.00,,,0.00,VWS V14.01,2013-08-05 08:49:00,
2013-08-05 04:50:00,70.0,68.2,30.03,ENE,68,1.1,1.1,94,0.00,,,0.00,VWS V14.01,2013-08-05 08:50:00,
2013-08-05 04:51:00,70.0,68.2,30.03,ENE,68,0.0,0.0,94,0.00,,,0.00,VWS V14.01,2013-08-05 08:51:00,
2013-08-05 04:52:00,70.0,68.2,30.03,NE,45,0.0,0.0,94,0.00,,CLR,0.00,VWS V14.01,2013-08-05 08:52:00,
2013-08-05 04:53:00,70.0,68.2,30.03,NE,45,0.0,0.0,94,0.00,,,0.00,VWS V14.01,2013-08-05 08:53:00,
2013-08-05 04:54:00,70.0,68.5,30.03,NE,45,0.0,0.0,95,0.00,,,0.00,VWS V14.01,2013-08-05 08:54:00,
2013-08-05 04:55:00,70.0,68.5,30.06,NE,45,0.0,0.0,95,0.00,,,0.00,VWS V14.01,2013-08-05 08:55:00,
2013-08-05 04:56:00,70.0,68.5,30.06,NE,45,0.0,0.0,95,0.00,,,0.00,VWS V14.01,2013-08-05 08:56:00,
2013-08-05 04:57:00,70.0,68.5,30.06,NE,45,0.0,0.0,95,0.00,,CLR,0.00,VWS V14.01,2013-08-05 08:57:00,
2013-08-05 04:58:00,70.0,68.5,30.06,NE,45,0.0,0.0,95,0.00,,,0.00,VWS V14.01,2013-08-05 08:58:00,
2013-08-05 04:59:00,70.0,68.5,30.06,NE,45,0.0,0.0,95,0.00,,,0.00,VWS V14.01,2013-08-05 08:59:00,
2013-08-05 05:00:00,70.2,68.4,30.06,NE,45,0.0,0.0,94,0.00,,,0.00,VWS V14.01,2013-08-05 09:00:00,
2013-08-05 05:01:00,70.2,68.4,30.06,NE,45,1.6,1.6,94,0.00,,,0.00,VWS V14.01,2013-08-05 09:01:00,
2013-08-05 05:02:00,70.2,68.7,30.06,NE,45,1.1,1.1,95,0.00,,CLR,0.00,VWS V14.01,2013-08-05 09:02:00,
2013-08-05 05:03:00,70.2,68.7,30.06,NE,45,0.0,0.0,95,0.00,,,0.00,VWS V14.01,2013-08-05 09:03:00,
2013-08-05 05:04:00,70.0,68.5,30.06,NE,45,0.0,0.0,95,0.00,,,0.00,VWS V14.01,2013-08-05 09:04:00,
2013-08-05 05:05:00,70.2,68.7,30.06,NE,45,0.0,0.0,95,0.00,,,0.00,VWS V14.01,2013-08-05 09:05:00,
2013-08-05 05:06:00,70.2,68.7,30.06,NE,45,0.0,0.0,95,0.00,,,0.00,VWS V14.01,2013-08-05 09:06:00,
2013-08-05 05:07:00,70.0,68.5,30.06,NE,45,0.0,0.0,95,0.00,,CLR,0.00,VWS V14.01,2013-08-05 09:07:00,
2013-08-05 05:08:00,70.0,68.5,30.06,NE,45,0.0,0.0,95,0.00,,,0.00,VWS V14.01,2013-08-05 09:08:00,
2013-08-05 05:09:00,70.0,68.5,30.06,NE,45,0.0,0.0,95,0.00,,,0.00,VWS V14.01,2013-08-05 09:09:00,
2013-08-05 05:10:00,70.0,68.5,30.03,NE,45,0.0,0.0,95,0.00,,,0.00,VWS V14.01,2013-08-05 09:10:00,
2013-08-05 05:11:00,69.8,68.3,30.03,NE,45,0.0,0.0,95,0.00,,,0.00,VWS V14.01,2013-08-05 09:11:00,
2013-08-05 05:12:00,69.8,68.0,30.03,NE,45,0.0,0.0,94,0.00,,CLR,0.00,VWS V14.01,2013-08-05 09:12:00,
2013-08-05 05:13:00,69.8,68.0,30.03,NE,45,0.0,0.0,94,0.00,,,0.00,VWS V14.01,2013-08-05 09:13:00,
2013-08-05 05:14:00,69.8,68.0,30.03,NE,45,0.0,0.0,94,0.00,,,0.00,VWS V14.01,2013-08-05 09:14:00,
2013-08-05 05:15:00,69.8,68.0,30.03,NE,45,0.0,0.0,94,0.00,,,0.00,VWS V14.01,2013-08-05 09:15:00,
2013-08-05 05:16:00,69.8,68.0,30.03,NE,45,0.0,0.0,94,0.00,,,0.00,VWS V14.01,2013-08-05 09:16:00,
2013-08-05 05:17:00,69.8,68.3,30.03,NE,45,0.0,0.0,95,0.00,,CLR,0.00,VWS V14.01,2013-08-05 09:17:00,
2013-08-05 05:18:00,69.8,68.3,30.03,NE,45,0.0,0.0,95,0.00,,,0.00,VWS V14.01,2013-08-05 09:18:00,
2013-08-05 05:19:00,69.8,68.7,30.03,NE,45,0.0,0.0,96,0.00,,,0.00,VWS V14.01,2013-08-05 09:19:00,
2013-08-05 05:20:00,69.8,68.7,30.03,NE,45,0.0,0.0,96,0.00,,,0.00,VWS V14.01,2013-08-05 09:20:00,
2013-08-05 05:21:00,69.8,68.7,30.03,NE,45,0.0,0.0,96,0.00,,,0.00,VWS V14.01,2013-08-05 09:21:00,
2013-08-05 05:22:00,69.8,68.7,30.03,NE,45,0.0,0.0,96,0.00,,CLR,0.00,VWS V14.01,2013-08-05 09:22:00,
2013-08-05 05:23:00,69.8,68.7,30.03,NE,45,0.0,0.0,96,0.00,,,0.00,VWS V14.01,2013-08-05 09:23:00,
2013-08-05 05:24:00,69.8,68.7,30.03,NE,45,0.0,0.0,96,0.00,,,0.00,VWS V14.01,2013-08-05 09:24:00,
2013-08-05 05:25:00,69.8,68.7,30.06,NE,45,0.0,0.0,96,0.00,,,0.00,VWS V14.01,2013-08-05 09:25:00,
2013-08-05 05:26:00,69.8,68.7,30.06,NE,45,0.0,0.0,96,0.00,,,0.00,VWS V14.01,2013-08-05 09:26:00,
2013-08-05 05:27:00,69.8,68.7,30.06,NE,45,0.0,0.0,96,0.00,,CLR,0.00,VWS V14.01,2013-08-05 09:27:00,
2013-08-05 05:28:00,69.8,68.7,30.06,NE,45,0.0,0.0,96,0.00,,,0.00,VWS V14.01,2013-08-05 09:28:00,
2013-08-05 05:29:00,69.8,68.3,30.06,NE,45,0.0,0.0,95,0.00,,,0.00,VWS V14.01,2013-08-05 09:29:00,
2013-08-05 05:30:00,69.8,68.3,30.06,NE,45,0.0,0.0,95,0.00,,,0.00,VWS V14.01,2013-08-05 09:30:00,
2013-08-05 05:31:00,69.8,68.3,30.06,NE,45,0.0,0.0,95,0.00,,,0.00,VWS V14.01,2013-08-05 09:31:00,
2013-08-05 05:32:00,69.8,68.7,30.06,NE,45,0.0,0.0,96,0.00,,CLR,0.00,VWS V14.01,2013-08-05 09:32:00,
2013-08-05 05:33:00,69.8,68.7,30.06,NE,45,0.0,0.0,96,0.00,,,0.00,VWS V14.01,2013-08-05 09:33:00,
2013-08-05 05:34:00,69.8,68.7,30.06,NE,45,0.0,0.0,96,0.00,,,0.00,VWS V14.01,2013-08-05 09:34:00,
2013-08-05 05:35:00,69.7,68.5,30.06,NE,45,0.0,0.0,96,0.00,,,0.00,VWS V14.01,2013-08-05 09:35:00,
2013-08-05 05:36:00,69.7,68.5,30.06,NE,45,0.0,0.0,96,0.00,,,0.00,VWS V14.01,2013-08-05 09:36:00,
2013-08-05 05:37:00,69.7,68.5,30.06,NE,45,0.0,0.0,96,0.00,,CLR,0.00,VWS V14.01,2013-08-05 09:37:00,
2013-08-05 05:38:00,69.7,68.5,30.06,NE,45,0.0,0.0,96,0.00,,,0.00,VWS V14.01,2013-08-05 09:38:00,
2013-08-05 05:39:00,69.7,68.5,30.06,NE,45,0.0,0.0,96,0.00,,,0.00,VWS V14.01,2013-08-05 09:39:00,
2013-08-05 05:40:00,69.7,68.8,30.03,NE,45,0.0,0.0,97,0.00,,,0.00,VWS V14.01,2013-08-05 09:40:00,
2013-08-05 05:41:00,69.7,68.8,30.03,NE,45,0.0,0.0,97,0.00,,,0.00,VWS V14.01,2013-08-05 09:41:00,
2013-08-05 05:42:00,69.7,68.8,30.03,NE,45,0.0,0.0,97,0.00,,CLR,0.00,VWS V14.01,2013-08-05 09:42:00,
2013-08-05 05:43:00,69.3,68.1,30.03,NE,45,0.0,0.0,96,0.00,,,0.00,VWS V14.01,2013-08-05 09:43:00,
2013-08-05 05:44:00,69.3,68.1,30.03,NE,45,0.0,0.0,96,0.00,,,0.00,VWS V14.01,2013-08-05 09:44:00,
2013-08-05 05:45:00,69.5,68.6,30.03,NE,45,0.0,0.0,97,0.00,,,0.00,VWS V14.01,2013-08-05 09:45:00,
2013-08-05 05:46:00,69.5,68.9,30.03,NNE,22,0.0,0.0,98,0.00,,,0.00,VWS V14.01,2013-08-05 09:46:00,
2013-08-05 05:47:00,69.7,69.4,30.03,NE,45,1.6,1.6,99,0.00,,CLR,0.00,VWS V14.01,2013-08-05 09:47:00,
2013-08-05 05:48:00,69.7,69.4,30.03,NNE,22,1.1,1.1,99,0.00,,,0.00,VWS V14.01,2013-08-05 09:48:00,
2013-08-05 05:49:00,69.7,69.4,30.03,NNE,22,1.6,1.6,99,0.00,,,0.00,VWS V14.01,2013-08-05 09:49:00,
2013-08-05 05:50:00,69.7,69.4,30.03,NNE,22,1.6,1.6,99,0.00,,,0.00,VWS V14.01,2013-08-05 09:50:00,
2013-08-05 05:51:00,69.7,69.4,30.03,NNE,22,1.3,1.3,99,0.00,,,0.00,VWS V14.01,2013-08-05 09:51:00,
2013-08-05 05:52:00,69.7,69.4,30.03,North,0,1.1,1.1,99,0.00,,CLR,0.00,VWS V14.01,2013-08-05 09:52:00,
2013-08-05 05:53:00,69.7,69.4,30.03,North,0,0.0,0.0,99,0.00,,,0.00,VWS V14.01,2013-08-05 09:53:00,
2013-08-05 05:54:00,69.5,69.2,30.03,North,0,0.0,0.0,99,0.00,,,0.00,VWS V14.01,2013-08-05 09:54:00,
2013-08-05 05:55:00,69.5,69.2,30.03,North,0,0.0,0.0,99,0.00,,,0.00,VWS V14.01,2013-08-05 09:55:00,
2013-08-05 05:56:00,69.5,69.2,30.03,North,0,0.0,0.0,99,0.00,,,0.00,VWS V14.01,2013-08-05 09:56:00,
2013-08-05 05:57:00,69.5,69.2,30.03,North,0,0.0,0.0,99,0.00,,,0.00,VWS V14.01,2013-08-05 09:57:00,
2013-08-05 05:58:00,69.5,69.2,30.03,North,0,0.0,0.0,99,0.00,,CLR,0.00,VWS V14.01,2013-08-05 09:58:00,
2013-08-05 05:59:00,69.5,69.2,30.03,North,0,0.0,0.0,99,0.00,,,0.00,VWS V14.01,2013-08-05 09:59:00,
2013-08-05 06:00:00,69.5,69.2,30.03,North,0,0.0,0.0,99,0.00,,,0.00,VWS V14.01,2013-08-05 10:00:00,
2013-08-05 06:01:00,69.5,69.2,30.03,North,0,0.0,0.0,99,0.00,,,0.00,VWS V14.01,2013-08-05 10:01:00,
2013-08-05 06:02:00,69.5,68.9,30.03,North,0,0.0,0.0,98,0.00,,CLR,0.00,VWS V14.01,2013-08-05 10:02:00,
2013-08-05 06:03:00,69.5,68.9,30.03,North,0,0.0,0.0,98,0.00,,,0.00,VWS V14.01,2013-08-05 10:03:00,
2013-08-05 06:04:00,69.5,68.9,30.03,North,0,0.0,0.0,98,0.00,,,0.00,VWS V14.01,2013-08-05 10:04:00,
2013-08-05 06:05:00,69.3,68.7,30.03,North,0,0.0,0.0,98,0.00,,,0.00,VWS V14.01,2013-08-05 10:05:00,
2013-08-05 06:06:00,69.3,68.7,30.03,North,0,0.0,0.0,98,0.00,,,0.00,VWS V14.01,2013-08-05 10:06:00,
2013-08-05 06:07:00,69.3,68.7,30.03,North,0,0.0,0.0,98,0.00,,,0.00,VWS V14.01,2013-08-05 10:07:00,
2013-08-05 06:08:00,69.3,68.7,30.03,North,0,0.0,0.0,98,0.00,,CLR,0.00,VWS V14.01,2013-08-05 10:08:00,
2013-08-05 06:09:00,69.3,68.7,30.03,North,0,0.0,0.0,98,0.00,,,0.00,VWS V14.01,2013-08-05 10:09:00,
2013-08-05 06:10:00,69.3,68.7,30.03,North,0,0.0,0.0,98,0.00,,,0.00,VWS V14.01,2013-08-05 10:10:00,
2013-08-05 06:11:00,69.3,68.7,30.03,North,0,0.0,0.0,98,0.00,,,0.00,VWS V14.01,2013-08-05 10:11:00,
2013-08-05 06:12:00,69.3,68.7,30.03,North,0,0.0,0.0,98,0.00,,,0.00,VWS V14.01,2013-08-05 10:12:00,
2013-08-05 06:13:00,69.3,69.0,30.03,North,0,0.0,0.0,99,0.00,,CLR,0.00,VWS V14.01,2013-08-05 10:13:00,
2013-08-05 06:14:00,69.3,69.0,30.03,North,0,0.0,0.0,99,0.00,,,0.00,VWS V14.01,2013-08-05 10:14:00,
2013-08-05 06:15:00,69.5,69.5,30.03,NE,45,1.3,1.3,100,0.00,,,0.00,VWS V14.01,2013-08-05 10:15:00,
2013-08-05 06:16:00,69.5,69.5,30.03,NE,45,1.6,1.6,100,0.00,,,0.00,VWS V14.01,2013-08-05 10:16:00,
2013-08-05 06:17:00,69.3,69.3,30.03,NE,45,1.6,1.6,100,0.00,,,0.00,VWS V14.01,2013-08-05 10:17:00,
2013-08-05 06:18:00,69.3,69.3,30.03,NE,45,1.3,1.3,100,0.00,,CLR,0.00,VWS V14.01,2013-08-05 10:18:00,
2013-08-05 06:19:00,69.3,69.3,30.03,NE,45,1.6,1.6,100,0.00,,,0.00,VWS V14.01,2013-08-05 10:19:00,
2013-08-05 06:20:00,69.3,69.3,30.03,NE,45,1.6,1.6,100,0.00,,,0.00,VWS V14.01,2013-08-05 10:20:00,
2013-08-05 06:21:00,69.3,69.3,30.03,NE,45,2.7,2.7,100,0.00,,,0.00,VWS V14.01,2013-08-05 10:21:00,
2013-08-05 06:22:00,69.3,69.3,30.03,NE,45,1.6,1.6,100,0.00,,,0.00,VWS V14.01,2013-08-05 10:22:00,
2013-08-05 06:23:00,69.1,69.1,30.03,NE,45,1.3,1.3,100,0.00,,CLR,0.00,VWS V14.01,2013-08-05 10:23:00,
2013-08-05 06:24:00,69.1,69.1,30.03,NE,45,1.1,1.1,100,0.00,,,0.00,VWS V14.01,2013-08-05 10:24:00,
2013-08-05 06:25:00,69.1,69.1,30.00,NE,45,0.0,0.0,100,0.00,,,0.00,VWS V14.01,2013-08-05 10:25:00,
2013-08-05 06:26:00,69.1,69.1,30.00,NE,45,0.0,0.0,100,0.00,,,0.00,VWS V14.01,2013-08-05 10:26:00,
2013-08-05 06:27:00,69.1,69.1,30.00,NE,45,0.0,0.0,100,0.00,,,0.00,VWS V14.01,2013-08-05 10:27:00,
2013-08-05 06:28:00,69.1,69.1,30.00,NE,45,0.9,0.9,100,0.00,,CLR,0.00,VWS V14.01,2013-08-05 10:28:00,
2013-08-05 06:29:00,69.3,69.3,30.00,NE,45,1.3,1.3,100,0.00,,,0.00,VWS V14.01,2013-08-05 10:29:00,
2013-08-05 06:30:00,69.3,69.3,30.00,NE,45,0.0,0.0,100,0.00,,,0.00,VWS V14.01,2013-08-05 10:30:00,
2013-08-05 06:31:00,69.3,69.3,30.00,NE,45,0.9,0.9,100,0.00,,,0.00,VWS V14.01,2013-08-05 10:31:00,
2013-08-05 06:32:00,69.3,69.3,30.00,NE,45,1.1,1.1,100,0.00,,,0.00,VWS V14.01,2013-08-05 10:32:00,
2013-08-05 06:33:00,69.3,69.3,30.00,NE,45,0.0,0.0,100,0.00,,,0.00,VWS V14.01,2013-08-05 10:33:00,
2013-08-05 06:34:00,69.3,69.3,30.00,NE,45,0.0,0.0,100,0.00,,CLR,0.00,VWS V14.01,2013-08-05 10:34:00,
2013-08-05 06:35:00,69.5,69.5,30.00,NNE,22,1.1,1.1,100,0.00,,,0.00,VWS V14.01,2013-08-05 10:35:00,
2013-08-05 06:36:00,69.5,69.5,30.00,NE,45,1.3,1.3,100,0.00,,,0.00,VWS V14.01,2013-08-05 10:36:00,
2013-08-05 06:37:00,69.5,69.5,30.00,NNE,22,1.6,1.6,100,0.00,,,0.00,VWS V14.01,2013-08-05 10:37:00,
2013-08-05 06:38:00,69.7,69.7,30.00,NNE,22,0.0,0.0,100,0.00,,,0.00,VWS V14.01,2013-08-05 10:38:00,
2013-08-05 06:39:00,69.8,69.8,30.00,NNE,22,1.1,1.1,100,0.00,,CLR,0.00,VWS V14.01,2013-08-05 10:39:00,
2013-08-05 06:40:00,69.8,69.8,30.03,NNE,22,2.2,2.2,100,0.00,,,0.00,VWS V14.01,2013-08-05 10:40:00,
2013-08-05 06:41:00,69.8,69.8,30.03,NE,45,2.7,2.7,100,0.00,,,0.00,VWS V14.01,2013-08-05 10:41:00,
2013-08-05 06:42:00,69.8,69.8,30.03,NE,45,2.2,2.2,100,0.00,,,0.00,VWS V14.01,2013-08-05 10:42:00,
2013-08-05 06:43:00,69.8,69.8,30.03,NE,45,2.0,2.0,100,0.00,,,0.00,VWS V14.01,2013-08-05 10:43:00,
2013-08-05 06:44:00,69.7,69.7,30.03,NE,45,2.7,2.7,100,0.00,,CLR,0.00,VWS V14.01,2013-08-05 10:44:00,
2013-08-05 06:45:00,69.7,69.7,30.03,NNE,22,3.1,3.1,100,0.00,,,0.00,VWS V14.01,2013-08-05 10:45:00,
2013-08-05 06:46:00,69.7,69.7,30.03,NE,45,3.1,3.1,100,0.00,,,0.00,VWS V14.01,2013-08-05 10:46:00,
2013-08-05 06:47:00,69.7,69.7,30.03,NNE,22,2.0,2.0,100,0.00,,,0.00,VWS V14.01,2013-08-05 10:47:00,
2013-08-05 06:48:00,69.7,69.7,30.03,NE,45,2.7,2.7,100,0.00,,,0.00,VWS V14.01,2013-08-05 10:48:00,
2013-08-05 06:49:00,69.7,69.7,30.03,NNE,22,1.6,1.6,100,0.00,,CLR,0.00,VWS V14.01,2013-08-05 10:49:00,
2013-08-05 06:50:00,69.7,69.7,30.03,NNE,22,0.0,0.0,100,0.00,,,0.00,VWS V14.01,2013-08-05 10:50:00,
2013-08-05 06:51:00,69.7,69.7,30.03,NE,45,2.7,2.7,100,0.00,,,0.00,VWS V14.01,2013-08-05 10:51:00,
2013-08-05 06:52:00,69.7,69.7,30.03,NE,45,2.5,2.5,100,0.00,,,0.00,VWS V14.01,2013-08-05 10:52:00,
2013-08-05 06:53:00,69.7,69.7,30.03,NE,45,2.0,2.0,100,0.00,,,0.00,VWS V14.01,2013-08-05 10:53:00,
2013-08-05 06:54:00,69.7,69.7,30.03,NE,45,0.9,0.9,100,0.00,,CLR,0.00,VWS V14.01,2013-08-05 10:54:00,
2013-08-05 06:55:00,69.8,69.8,30.03,NNE,22,2.7,2.7,100,0.00,,,0.00,VWS V14.01,2013-08-05 10:55:00,
2013-08-05 06:56:00,69.8,69.8,30.03,NE,45,2.5,2.5,100,0.00,,,0.00,VWS V14.01,2013-08-05 10:56:00,
2013-08-05 06:57:00,69.8,69.8,30.03,NNE,22,3.1,3.1,100,0.00,,,0.00,VWS V14.01,2013-08-05 10:57:00,
2013-08-05 06:58:00,69.8,69.8,30.03,NE,45,2.9,2.9,100,0.00,,,0.00,VWS V14.01,2013-08-05 10:58:00,
2013-08-05 06:59:00,69.8,69.8,30.03,NNE,22,2.7,2.7,100,0.00,,CLR,0.00,VWS V14.01,2013-08-05 10:59:00,
2013-08-05 07:00:00,69.8,69.8,30.03,NE,45,3.4,3.4,100,0.00,,,0.00,VWS V14.01,2013-08-05 11:00:00,
2013-08-05 07:01:00,70.0,70.0,30.03,NE,45,3.6,3.6,100,0.00,,,0.00,VWS V14.01,2013-08-05 11:01:00,
2013-08-05 07:02:00,70.0,70.0,30.03,NE,45,2.2,2.2,100,0.00,,,0.00,VWS V14.01,2013-08-05 11:02:00,
2013-08-05 07:03:00,70.0,70.0,30.03,NE,45,1.3,1.3,100,0.00,,,0.00,VWS V14.01,2013-08-05 11:03:00,
2013-08-05 07:04:00,70.2,70.2,30.03,NE,45,1.1,1.1,100,0.00,,CLR,0.00,VWS V14.01,2013-08-05 11:04:00,
2013-08-05 07:05:00,70.2,70.2,30.03,NE,45,1.1,1.1,100,0.00,,,0.00,VWS V14.01,2013-08-05 11:05:00,
2013-08-05 07:06:00,70.2,70.2,30.03,NE,45,1.1,1.1,100,0.00,,,0.00,VWS V14.01,2013-08-05 11:06:00,
2013-08-05 07:07:00,70.2,70.2,30.03,NE,45,0.9,0.9,100,0.00,,,0.00,VWS V14.01,2013-08-05 11:07:00,
2013-08-05 07:08:00,70.2,70.2,30.03,NE,45,2.2,2.2,100,0.00,,,0.00,VWS V14.01,2013-08-05 11:08:00,
2013-08-05 07:09:00,70.2,70.2,30.03,NE,45,2.0,2.0,100,0.00,,CLR,0.00,VWS V14.01,2013-08-05 11:09:00,
2013-08-05 07:10:00,70.2,70.2,30.06,NNE,22,1.6,1.6,100,0.00,,,0.00,VWS V14.01,2013-08-05 11:10:00,
2013-08-05 07:11:00,70.2,70.2,30.06,NNE,22,3.4,3.4,100,0.00,,,0.00,VWS V14.01,2013-08-05 11:11:00,
2013-08-05 07:12:00,70.2,70.2,30.06,NE,45,2.7,2.7,100,0.00,,,0.00,VWS V14.01,2013-08-05 11:12:00,
2013-08-05 07:13:00,70.2,70.2,30.06,NE,45,2.7,2.7,100,0.00,,,0.00,VWS V14.01,2013-08-05 11:13:00,
2013-08-05 07:14:00,70.2,70.2,30.06,NE,45,2.9,2.9,100,0.00,,CLR,0.00,VWS V14.01,2013-08-05 11:14:00,
2013-08-05 07:15:00,70.2,70.2,30.06,NE,45,2.7,2.7,100,0.00,,,0.00,VWS V14.01,2013-08-05 11:15:00,
2013-08-05 07:16:00,70.4,70.1,30.06,NNE,22,2.2,2.2,99,0.00,,,0.00,VWS V14.01,2013-08-05 11:16:00,
2013-08-05 07:17:00,70.4,70.4,30.06,NE,45,2.5,2.5,100,0.00,,,0.00,VWS V14.01,2013-08-05 11:17:00,
2013-08-05 07:18:00,70.4,70.1,30.06,NE,45,2.0,2.0,99,0.00,,,0.00,VWS V14.01,2013-08-05 11:18:00,
2013-08-05 07:19:00,70.4,69.8,30.06,NE,45,2.7,2.7,98,0.00,,CLR,0.00,VWS V14.01,2013-08-05 11:19:00,
2013-08-05 07:20:00,70.4,69.8,30.06,NNE,22,3.4,3.4,98,0.00,,,0.00,VWS V14.01,2013-08-05 11:20:00,
2013-08-05 07:21:00,70.6,70.0,30.06,NE,45,3.6,3.6,98,0.00,,,0.00,VWS V14.01,2013-08-05 11:21:00,
2013-08-05 07:22:00,70.6,70.0,30.06,NNE,22,3.6,3.6,98,0.00,,,0.00,VWS V14.01,2013-08-05 11:22:00,
2013-08-05 07:23:00,70.6,69.7,30.06,NE,45,3.1,3.1,97,0.00,,,0.00,VWS V14.01,2013-08-05 11:23:00,
2013-08-05 07:24:00,70.6,69.7,30.06,NNE,22,3.4,3.4,97,0.00,,CLR,0.00,VWS V14.01,2013-08-05 11:24:00,
2013-08-05 07:25:00,70.6,69.7,30.06,NE,45,4.3,4.3,97,0.00,,,0.00,VWS V14.01,2013-08-05 11:25:00,
2013-08-05 07:26:00,70.7,69.8,30.06,NE,45,2.9,2.9,97,0.00,,,0.00,VWS V14.01,2013-08-05 11:26:00,
2013-08-05 07:27:00,70.7,69.8,30.06,NE,45,3.4,3.4,97,0.00,,,0.00,VWS V14.01,2013-08-05 11:27:00,
2013-08-05 07:28:00,70.7,69.6,30.06,NE,45,3.8,3.8,96,0.00,,,0.00,VWS V14.01,2013-08-05 11:28:00,
2013-08-05 07:29:00,70.7,69.6,30.06,NE,45,2.9,2.9,96,0.00,,CLR,0.00,VWS V14.01,2013-08-05 11:29:00,
2013-08-05 07:30:00,70.7,69.8,30.06,North,0,3.4,3.4,97,0.00,,,0.00,VWS V14.01,2013-08-05 11:30:00,
2013-08-05 07:31:00,70.9,69.7,30.06,NNE,22,2.9,2.9,96,0.00,,,0.00,VWS V14.01,2013-08-05 11:31:00,
2013-08-05 07:32:00,70.9,70.0,30.06,NNE,22,2.0,2.0,97,0.00,,,0.00,VWS V14.01,2013-08-05 11:32:00,
2013-08-05 07:33:00,70.9,70.0,30.06,NE,45,3.6,3.6,97,0.00,,,0.00,VWS V14.01,2013-08-05 11:33:00,
2013-08-05 07:34:00,70.9,69.4,30.06,NNE,22,3.1,3.1,95,0.00,,CLR,0.00,VWS V14.01,2013-08-05 11:34:00,
2013-08-05 07:35:00,70.9,69.4,30.06,NE,45,3.1,3.1,95,0.00,,,0.00,VWS V14.01,2013-08-05 11:35:00,
2013-08-05 07:36:00,70.9,69.7,30.06,NNE,22,3.6,3.6,96,0.00,,,0.00,VWS V14.01,2013-08-05 11:36:00,
2013-08-05 07:37:00,70.9,69.7,30.06,NNE,22,3.1,3.1,96,0.00,,,0.00,VWS V14.01,2013-08-05 11:37:00,
2013-08-05 07:38:00,70.9,69.4,30.06,NE,45,3.4,3.4,95,0.00,,,0.00,VWS V14.01,2013-08-05 11:38:00,
2013-08-05 07:39:00,70.9,70.0,30.06,NE,45,3.6,3.6,97,0.00,,,0.00,VWS V14.01,2013-08-05 11:39:00,
2013-08-05 07:40:00,70.9,69.7,30.09,NE,45,2.5,2.5,96,0.00,,CLR,0.00,VWS V14.01,2013-08-05 11:40:00,
2013-08-05 07:41:00,70.9,69.7,30.09,NE,45,2.5,2.5,96,0.00,,,0.00,VWS V14.01,2013-08-05 11:41:00,
2013-08-05 07:42:00,71.1,70.2,30.09,NNE,22,2.7,2.7,97,0.00,,,0.00,VWS V14.01,2013-08-05 11:42:00,
2013-08-05 07:43:00,71.1,70.2,30.09,ENE,68,2.5,2.5,97,0.00,,,0.00,VWS V14.01,2013-08-05 11:43:00,
2013-08-05 07:44:00,71.1,69.9,30.09,NE,45,3.1,3.1,96,0.00,,,0.00,VWS V14.01,2013-08-05 11:44:00,
2013-08-05 07:45:00,70.9,69.1,30.09,NE,45,3.4,3.4,94,0.00,,CLR,0.00,VWS V14.01,2013-08-05 11:45:00,
2013-08-05 07:46:00,70.9,69.4,30.09,NE,45,3.6,3.6,95,0.00,,,0.00,VWS V14.01,2013-08-05 11:46:00,
2013-08-05 07:47:00,70.9,69.1,30.09,NE,45,2.0,2.0,94,0.00,,,0.00,VWS V14.01,2013-08-05 11:47:00,
2013-08-05 07:48:00,70.9,69.4,30.09,NNE,22,2.5,2.5,95,0.00,,,0.00,VWS V14.01,2013-08-05 11:48:00,
2013-08-05 07:49:00,71.3,70.1,30.09,NE,45,2.5,2.5,96,0.00,,,0.00,VWS V14.01,2013-08-05 11:49:00,
2013-08-05 07:50:00,71.1,69.6,30.09,NE,45,1.3,1.3,95,0.00,,CLR,0.00,VWS V14.01,2013-08-05 11:50:00,
2013-08-05 07:51:00,71.5,70.3,30.09,NNE,22,1.1,1.1,96,0.00,,,0.00,VWS V14.01,2013-08-05 11:51:00,
2013-08-05 07:52:00,71.5,70.0,30.09,NNE,22,2.2,2.2,95,0.00,,,0.00,VWS V14.01,2013-08-05 11:52:00,
2013-08-05 07:53:00,71.5,69.7,30.09,NE,45,2.0,2.0,94,0.00,,,0.00,VWS V14.01,2013-08-05 11:53:00,
2013-08-05 07:54:00,71.5,69.7,30.09,NE,45,2.2,2.2,94,0.00,,,0.00,VWS V14.01,2013-08-05 11:54:00,
2013-08-05 07:55:00,71.3,68.8,30.09,NE,45,2.7,2.7,92,0.00,,CLR,0.00,VWS V14.01,2013-08-05 11:55:00,
2013-08-05 07:56:00,71.6,70.1,30.09,NNE,22,3.1,3.1,95,0.00,,,0.00,VWS V14.01,2013-08-05 11:56:00,
2013-08-05 07:57:00,71.6,69.2,30.09,NE,45,3.4,3.4,92,0.00,,,0.00,VWS V14.01,2013-08-05 11:57:00,
2013-08-05 07:58:00,71.6,69.5,30.09,NE,45,3.4,3.4,93,0.00,,,0.00,VWS V14.01,2013-08-05 11:58:00,
2013-08-05 07:59:00,71.5,69.0,30.09,NE,45,3.8,3.8,92,0.00,,,0.00,VWS V14.01,2013-08-05 11:59:00,
2013-08-05 08:00:00,71.5,69.3,30.09,NNE,22,2.7,2.7,93,0.00,,CLR,0.00,VWS V14.01,2013-08-05 12:00:00,
2013-08-05 08:01:00,71.5,69.0,30.09,NNE,22,2.5,2.5,92,0.00,,,0.00,VWS V14.01,2013-08-05 12:01:00,
2013-08-05 08:02:00,71.5,68.7,30.09,NNE,22,2.5,2.5,91,0.00,,,0.00,VWS V14.01,2013-08-05 12:02:00,
2013-08-05 08:03:00,71.5,68.4,30.09,NNE,22,3.1,3.1,90,0.00,,,0.00,VWS V14.01,2013-08-05 12:03:00,
2013-08-05 08:04:00,72.0,70.5,30.09,NE,45,2.2,2.2,95,0.00,,,0.00,VWS V14.01,2013-08-05 12:04:00,
2013-08-05 08:05:00,71.8,70.0,30.09,NNE,22,2.5,2.5,94,0.00,,,0.00,VWS V14.01,2013-08-05 12:05:00,
2013-08-05 08:06:00,71.8,69.4,30.09,NE,45,2.5,2.5,92,0.00,,CLR,0.00,VWS V14.01,2013-08-05 12:06:00,
2013-08-05 08:07:00,72.0,69.6,30.09,NNE,22,2.0,2.0,92,0.00,,,0.00,VWS V14.01,2013-08-05 12:07:00,
2013-08-05 08:08:00,72.0,69.6,30.09,NNE,22,1.6,1.6,92,0.00,,,0.00,VWS V14.01,2013-08-05 12:08:00,
2013-08-05 08:09:00,72.0,69.2,30.09,NNE,22,2.9,2.9,91,0.00,,,0.00,VWS V14.01,2013-08-05 12:09:00,
2013-08-05 08:10:00,72.0,69.2,30.09,NNE,22,2.7,2.7,91,0.00,,,0.00,VWS V14.01,2013-08-05 12:10:00,
2013-08-05 08:11:00,72.0,68.9,30.09,North,0,2.9,2.9,90,0.00,,CLR,0.00,VWS V14.01,2013-08-05 12:11:00,
2013-08-05 08:12:00,72.0,68.9,30.09,North,0,3.1,3.1,90,0.00,,,0.00,VWS V14.01,2013-08-05 12:12:00,
2013-08-05 08:13:00,72.2,69.4,30.09,North,0,1.1,1.1,91,0.00,,,0.00,VWS V14.01,2013-08-05 12:13:00,
2013-08-05 08:14:00,72.2,69.4,30.09,NNW,338,4.0,4.0,91,0.00,,,0.00,VWS V14.01,2013-08-05 12:14:00,
2013-08-05 08:15:00,72.2,69.1,30.09,NNE,22,2.5,2.5,90,0.00,,,0.00,VWS V14.01,2013-08-05 12:15:00,
2013-08-05 08:16:00,72.4,69.6,30.09,NNE,22,1.1,1.1,91,0.00,,CLR,0.00,VWS V14.01,2013-08-05 12:16:00,
2013-08-05 08:17:00,72.4,69.6,30.09,North,0,2.9,2.9,91,0.00,,,0.00,VWS V14.01,2013-08-05 12:17:00,
2013-08-05 08:18:00,72.2,68.4,30.09,NE,45,2.9,2.9,88,0.00,,,0.00,VWS V14.01,2013-08-05 12:18:00,
2013-08-05 08:19:00,72.2,68.8,30.09,NE,45,3.6,3.6,89,0.00,,,0.00,VWS V14.01,2013-08-05 12:19:00,
2013-08-05 08:20:00,72.2,68.8,30.09,NE,45,3.6,3.6,89,0.00,,,0.00,VWS V14.01,2013-08-05 12:20:00,
2013-08-05 08:21:00,72.2,68.8,30.09,NE,45,2.7,2.7,89,0.00,,CLR,0.00,VWS V14.01,2013-08-05 12:21:00,
2013-08-05 08:22:00,72.2,68.8,30.09,NNE,22,2.9,2.9,89,0.00,,,0.00,VWS V14.01,2013-08-05 12:22:00,
2013-08-05 08:23:00,72.4,68.6,30.09,NNE,22,2.7,2.7,88,0.00,,,0.00,VWS V14.01,2013-08-05 12:23:00,
2013-08-05 08:24:00,72.4,68.6,30.09,NNE,22,2.7,2.7,88,0.00,,,0.00,VWS V14.01,2013-08-05 12:24:00,
2013-08-05 08:25:00,72.5,69.1,30.09,North,0,0.0,0.0,89,0.00,,,0.00,VWS V14.01,2013-08-05 12:25:00,
2013-08-05 08:26:00,72.7,69.6,30.09,NNE,22,2.0,2.0,90,0.00,,CLR,0.00,VWS V14.01,2013-08-05 12:26:00,
2013-08-05 08:27:00,72.7,69.3,30.09,NE,45,2.7,2.7,89,0.00,,,0.00,VWS V14.01,2013-08-05 12:27:00,
2013-08-05 08:28:00,72.7,69.3,30.09,NE,45,0.0,0.0,89,0.00,,,0.00,VWS V14.01,2013-08-05 12:28:00,
2013-08-05 08:29:00,73.1,70.0,30.09,NE,45,1.1,1.1,90,0.00,,,0.00,VWS V14.01,2013-08-05 12:29:00,
2013-08-05 08:30:00,72.9,68.5,30.09,NNE,22,3.1,3.1,86,0.00,,,0.00,VWS V14.01,2013-08-05 12:30:00,
2013-08-05 08:31:00,73.1,68.0,30.09,NE,45,4.0,4.0,84,0.00,,,0.00,VWS V14.01,2013-08-05 12:31:00,
2013-08-05 08:32:00,72.9,67.8,30.09,NE,45,3.4,3.4,84,0.00,,CLR,0.00,VWS V14.01,2013-08-05 12:32:00,
2013-08-05 08:33:00,73.1,68.3,30.09,ENE,68,2.7,2.7,85,0.00,,,0.00,VWS V14.01,2013-08-05 12:33:00,
2013-08-05 08:34:00,73.1,68.3,30.09,ENE,68,2.5,2.5,85,0.00,,,0.00,VWS V14.01,2013-08-05 12:34:00,
2013-08-05 08:35:00,73.3,69.2,30.09,NNE,22,2.2,2.2,87,0.00,,,0.00,VWS V14.01,2013-08-05 12:35:00,
2013-08-05 08:36:00,73.3,68.5,30.09,NE,45,2.5,2.5,85,0.00,,,0.00,VWS V14.01,2013-08-05 12:36:00,
2013-08-05 08:37:00,73.3,68.5,30.09,NE,45,3.6,3.6,85,0.00,,CLR,0.00,VWS V14.01,2013-08-05 12:37:00,
2013-08-05 08:38:00,73.3,68.5,30.09,NNE,22,3.1,3.1,85,0.00,,,0.00,VWS V14.01,2013-08-05 12:38:00,
2013-08-05 08:39:00,73.3,67.4,30.09,NE,45,2.7,2.7,82,0.00,,,0.00,VWS V14.01,2013-08-05 12:39:00,
2013-08-05 08:40:00,73.3,67.4,30.09,NNE,22,3.1,3.1,82,0.00,,,0.00,VWS V14.01,2013-08-05 12:40:00,
2013-08-05 08:41:00,73.3,67.4,30.09,NE,45,2.5,2.5,82,0.00,,,0.00,VWS V14.01,2013-08-05 12:41:00,
2013-08-05 08:42:00,73.4,67.3,30.09,NE,45,1.1,1.1,81,0.00,,CLR,0.00,VWS V14.01,2013-08-05 12:42:00,
2013-08-05 08:43:00,73.6,67.4,30.09,ENE,68,2.0,2.0,81,0.00,,,0.00,VWS V14.01,2013-08-05 12:43:00,
2013-08-05 08:44:00,73.6,67.8,30.09,ENE,68,3.4,3.4,82,0.00,,,0.00,VWS V14.01,2013-08-05 12:44:00,
2013-08-05 08:45:00,73.4,66.5,30.09,ESE,112,1.3,1.3,79,0.00,,,0.00,VWS V14.01,2013-08-05 12:45:00,
2013-08-05 08:46:00,73.6,68.1,30.09,ESE,112,3.6,3.6,83,0.00,,,0.00,VWS V14.01,2013-08-05 12:46:00,
2013-08-05 08:47:00,73.6,67.1,30.09,ESE,112,1.6,1.6,80,0.00,,CLR,0.00,VWS V14.01,2013-08-05 12:47:00,
2013-08-05 08:48:00,73.6,67.8,30.09,ENE,68,3.1,3.1,82,0.00,,,0.00,VWS V14.01,2013-08-05 12:48:00,
2013-08-05 08:49:00,73.6,67.1,30.09,NE,45,1.6,1.6,80,0.00,,,0.00,VWS V14.01,2013-08-05 12:49:00,
2013-08-05 08:50:00,73.8,67.2,30.09,NE,45,0.0,0.0,80,0.00,,,0.00,VWS V14.01,2013-08-05 12:50:00,
2013-08-05 08:51:00,74.0,67.4,30.09,North,0,1.6,1.6,80,0.00,,,0.00,VWS V14.01,2013-08-05 12:51:00,
2013-08-05 08:52:00,74.0,67.8,30.09,NNE,22,1.6,1.6,81,0.00,,CLR,0.00,VWS V14.01,2013-08-05 12:52:00,
2013-08-05 08:53:00,74.2,68.3,30.09,NE,45,3.8,3.8,82,0.00,,,0.00,VWS V14.01,2013-08-05 12:53:00,
2013-08-05 08:54:00,74.2,68.0,30.09,NNE,22,2.9,2.9,81,0.00,,,0.00,VWS V14.01,2013-08-05 12:54:00,
2013-08-05 08:55:00,74.0,66.7,30.06,NNE,22,2.5,2.5,78,0.00,,,0.00,VWS V14.01,2013-08-05 12:55:00,
2013-08-05 08:56:00,74.2,68.0,30.06,NNE,22,0.9,0.9,81,0.00,,,0.00,VWS V14.01,2013-08-05 12:56:00,
2013-08-05 08:57:00,74.3,67.8,30.06,NE,45,1.1,1.1,80,0.00,,CLR,0.00,VWS V14.01,2013-08-05 12:57:00,
2013-08-05 08:58:00,74.3,67.4,30.06,ENE,68,1.6,1.6,79,0.00,,,0.00,VWS V14.01,2013-08-05 12:58:00,
2013-08-05 08:59:00,74.3,66.7,30.06,NE,45,2.5,2.5,77,0.00,,,0.00,VWS V14.01,2013-08-05 12:59:00,
2013-08-05 09:00:00,74.2,66.5,30.06,ENE,68,0.0,0.0,77,0.00,,,0.00,VWS V14.01,2013-08-05 13:00:00,
2013-08-05 09:01:00,74.5,67.9,30.06,ENE,68,1.6,1.6,80,0.00,,,0.00,VWS V14.01,2013-08-05 13:01:00,
2013-08-05 09:02:00,74.7,69.2,30.06,East,90,2.2,2.2,83,0.00,,CLR,0.00,VWS V14.01,2013-08-05 13:02:00,
2013-08-05 09:03:00,74.7,68.1,30.06,NNE,22,1.3,1.3,80,0.00,,,0.00,VWS V14.01,2013-08-05 13:03:00,
2013-08-05 09:04:00,74.9,67.6,30.06,NE,45,4.3,4.3,78,0.00,,,0.00,VWS V14.01,2013-08-05 13:04:00,
2013-08-05 09:05:00,74.9,67.6,30.06,ENE,68,2.7,2.7,78,0.00,,,0.00,VWS V14.01,2013-08-05 13:05:00,
2013-08-05 09:06:00,74.7,66.6,30.06,NE,45,3.1,3.1,76,0.00,,,0.00,VWS V14.01,2013-08-05 13:06:00,
2013-08-05 09:07:00,74.9,68.3,30.06,ENE,68,2.7,2.7,80,0.00,,CLR,0.00,VWS V14.01,2013-08-05 13:07:00,
2013-08-05 09:08:00,74.9,68.3,30.06,NE,45,3.4,3.4,80,0.00,,,0.00,VWS V14.01,2013-08-05 13:08:00,
2013-08-05 09:09:00,74.9,67.2,30.06,NE,45,2.0,2.0,77,0.00,,,0.00,VWS V14.01,2013-08-05 13:09:00,
2013-08-05 09:10:00,74.9,67.2,30.09,East,90,2.7,2.7,77,0.00,,,0.00,VWS V14.01,2013-08-05 13:10:00,
2013-08-05 09:11:00,75.1,68.5,30.09,East,90,3.6,3.6,80,0.00,,,0.00,VWS V14.01,2013-08-05 13:11:00,
2013-08-05 09:12:00,74.9,66.8,30.09,ENE,68,3.4,3.4,76,0.00,,,0.00,VWS V14.01,2013-08-05 13:12:00,
2013-08-05 09:13:00,74.7,65.5,30.09,East,90,2.9,2.9,73,0.00,,CLR,0.00,VWS V14.01,2013-08-05 13:13:00,
2013-08-05 09:14:00,74.7,65.5,30.09,ESE,112,3.4,3.4,73,0.00,,,0.00,VWS V14.01,2013-08-05 13:14:00,
2013-08-05 09:15:00,74.7,65.5,30.09,ESE,112,1.6,1.6,73,0.00,,,0.00,VWS V14.01,2013-08-05 13:15:00,
2013-08-05 09:16:00,74.7,65.5,30.09,SE,135,2.0,2.0,73,0.00,,,0.00,VWS V14.01,2013-08-05 13:16:00,
2013-08-05 09:17:00,75.4,68.1,30.09,ENE,68,1.1,1.1,78,0.00,,,0.00,VWS V14.01,2013-08-05 13:17:00,
2013-08-05 09:18:00,75.4,67.7,30.09,ENE,68,3.8,3.8,77,0.00,,CLR,0.00,VWS V14.01,2013-08-05 13:18:00,
2013-08-05 09:19:00,75.2,67.5,30.09,ENE,68,3.8,3.8,77,0.00,,,0.00,VWS V14.01,2013-08-05 13:19:00,
2013-08-05 09:20:00,75.4,67.3,30.09,ENE,68,4.3,4.3,76,0.00,,,0.00,VWS V14.01,2013-08-05 13:20:00,
2013-08-05 09:21:00,75.2,67.2,30.09,NE,45,2.5,2.5,76,0.00,,,0.00,VWS V14.01,2013-08-05 13:21:00,
2013-08-05 09:22:00,75.4,67.7,30.09,East,90,1.3,1.3,77,0.00,,,0.00,VWS V14.01,2013-08-05 13:22:00,
2013-08-05 09:23:00,75.6,67.5,30.09,ESE,112,2.7,2.7,76,0.00,,CLR,0.00,VWS V14.01,2013-08-05 13:23:00,
2013-08-05 09:24:00,75.6,66.7,30.09,ESE,112,0.0,0.0,74,0.00,,,0.00,VWS V14.01,2013-08-05 13:24:00,
2013-08-05 09:25:00,75.8,68.1,30.09,East,90,2.9,2.9,77,0.00,,,0.00,VWS V14.01,2013-08-05 13:25:00,
2013-08-05 09:26:00,76.0,67.1,30.09,East,90,3.4,3.4,74,0.00,,,0.00,VWS V14.01,2013-08-05 13:26:00,
2013-08-05 09:27:00,76.0,67.5,30.09,ESE,112,2.0,2.0,75,0.00,,,0.00,VWS V14.01,2013-08-05 13:27:00,
2013-08-05 09:28:00,75.8,66.5,30.09,ENE,68,3.1,3.1,73,0.00,,,0.00,VWS V14.01,2013-08-05 13:28:00,
2013-08-05 09:29:00,75.8,66.5,30.09,ENE,68,3.1,3.1,73,0.00,,CLR,0.00,VWS V14.01,2013-08-05 13:29:00,
2013-08-05 09:30:00,75.8,66.1,30.09,East,90,5.4,5.4,72,0.00,,,0.00,VWS V14.01,2013-08-05 13:30:00,
2013-08-05 09:31:00,75.8,66.5,30.09,SSE,158,1.6,1.6,73,0.00,,,0.00,VWS V14.01,2013-08-05 13:31:00,
2013-08-05 09:32:00,76.0,66.7,30.09,East,90,1.3,1.3,73,0.00,,,0.00,VWS V14.01,2013-08-05 13:32:00,
2013-08-05 09:33:00,75.8,66.1,30.09,ESE,112,3.6,3.6,72,0.00,,CLR,0.00,VWS V14.01,2013-08-05 13:33:00,
2013-08-05 09:34:00,75.8,66.1,30.09,ESE,112,3.8,3.8,72,0.00,,,0.00,VWS V14.01,2013-08-05 13:34:00,
2013-08-05 09:35:00,75.8,65.3,30.09,SE,135,2.0,2.0,70,0.00,,,0.00,VWS V14.01,2013-08-05 13:35:00,
2013-08-05 09:36:00,75.8,65.7,30.09,ENE,68,3.4,3.4,71,0.00,,,0.00,VWS V14.01,2013-08-05 13:36:00,
2013-08-05 09:37:00,75.6,65.1,30.09,East,90,3.8,3.8,70,0.00,,,0.00,VWS V14.01,2013-08-05 13:37:00,
2013-08-05 09:38:00,75.8,65.7,30.09,ESE,112,1.6,1.6,71,0.00,,SCT085,0.00,VWS V14.01,2013-08-05 13:38:00,
2013-08-05 09:39:00,75.8,65.7,30.09,ENE,68,0.0,0.0,71,0.00,,,0.00,VWS V14.01,2013-08-05 13:39:00,
2013-08-05 09:40:00,76.0,65.5,30.09,East,90,2.9,2.9,70,0.00,,,0.00,VWS V14.01,2013-08-05 13:40:00,
2013-08-05 09:41:00,76.0,65.9,30.09,East,90,4.0,4.0,71,0.00,,,0.00,VWS V14.01,2013-08-05 13:41:00,
2013-08-05 09:42:00,76.1,66.9,30.09,ENE,68,3.6,3.6,73,0.00,,,0.00,VWS V14.01,2013-08-05 13:42:00,
2013-08-05 09:43:00,76.1,66.9,30.09,ESE,112,2.2,2.2,73,0.00,,,0.00,VWS V14.01,2013-08-05 13:43:00,
2013-08-05 09:44:00,76.3,65.8,30.09,ESE,112,4.3,4.3,70,0.00,,SCT085,0.00,VWS V14.01,2013-08-05 13:44:00,
2013-08-05 09:45:00,76.5,67.6,30.09,SE,135,2.7,2.7,74,0.00,,,0.00,VWS V14.01,2013-08-05 13:45:00,
2013-08-05 09:46:00,76.5,66.8,30.09,SSE,158,2.7,2.7,72,0.00,,,0.00,VWS V14.01,2013-08-05 13:46:00,
2013-08-05 09:47:00,76.7,66.6,30.09,SE,135,4.9,4.9,71,0.00,,,0.00,VWS V14.01,2013-08-05 13:47:00,
2013-08-05 09:48:00,76.5,66.0,30.09,SSE,158,3.1,3.1,70,0.00,,,0.00,VWS V14.01,2013-08-05 13:48:00,
2013-08-05 09:49:00,76.7,66.2,30.09,SE,135,4.3,4.3,70,0.00,,SCT085,0.00,VWS V14.01,2013-08-05 13:49:00,
2013-08-05 09:50:00,76.5,66.0,30.09,East,90,4.0,4.0,70,0.00,,,0.00,VWS V14.01,2013-08-05 13:50:00,
2013-08-05 09:51:00,76.5,65.6,30.09,SE,135,3.6,3.6,69,0.00,,,0.00,VWS V14.01,2013-08-05 13:51:00,
2013-08-05 09:52:00,76.5,65.6,30.09,ESE,112,3.8,3.8,69,0.00,,,0.00,VWS V14.01,2013-08-05 13:52:00,
2013-08-05 09:53:00,76.5,65.6,30.09,East,90,3.6,3.6,69,0.00,,,0.00,VWS V14.01,2013-08-05 13:53:00,
2013-08-05 09:54:00,76.3,65.4,30.09,East,90,3.8,3.8,69,0.00,,,0.00,VWS V14.01,2013-08-05 13:54:00,
2013-08-05 09:55:00,76.5,65.6,30.09,East,90,4.0,4.0,69,0.00,,SCT085,0.00,VWS V14.01,2013-08-05 13:55:00,
2013-08-05 09:56:00,76.9,67.6,30.09,ESE,112,3.8,3.8,73,0.00,,,0.00,VWS V14.01,2013-08-05 13:56:00,
2013-08-05 09:57:00,76.9,66.3,30.09,ESE,112,3.1,3.1,70,0.00,,,0.00,VWS V14.01,2013-08-05 13:57:00,
2013-08-05 09:58:00,76.7,65.8,30.09,ESE,112,4.3,4.3,69,0.00,,,0.00,VWS V14.01,2013-08-05 13:58:00,
2013-08-05 09:59:00,76.7,65.3,30.09,ESE,112,5.4,5.4,68,0.00,,,0.00,VWS V14.01,2013-08-05 13:59:00,
2013-08-05 10:00:00,76.7,65.3,30.09,East,90,3.8,3.8,68,0.00,,SCT085,0.00,VWS V14.01,2013-08-05 14:00:00,
2013-08-05 10:01:00,76.9,66.8,30.09,ESE,112,4.9,4.9,71,0.00,,,0.00,VWS V14.01,2013-08-05 14:01:00,
2013-08-05 10:02:00,76.7,65.8,30.09,ESE,112,4.0,4.0,69,0.00,,,0.00,VWS V14.01,2013-08-05 14:02:00,
2013-08-05 10:03:00,76.7,65.3,30.09,East,90,3.1,3.1,68,0.00,,,0.00,VWS V14.01,2013-08-05 14:03:00,
2013-08-05 10:04:00,76.7,65.3,30.09,ESE,112,2.7,2.7,68,0.00,,,0.00,VWS V14.01,2013-08-05 14:04:00,
2013-08-05 10:05:00,77.0,66.5,30.09,East,90,3.1,3.1,70,0.00,,SCT085,0.00,VWS V14.01,2013-08-05 14:05:00,
2013-08-05 10:06:00,77.0,66.5,30.09,East,90,3.8,3.8,70,0.00,,,0.00,VWS V14.01,2013-08-05 14:06:00,
2013-08-05 10:07:00,77.2,66.3,30.09,SE,135,4.0,4.0,69,0.00,,,0.00,VWS V14.01,2013-08-05 14:07:00,
2013-08-05 10:08:00,77.2,66.3,30.09,ESE,112,2.0,2.0,69,0.00,,,0.00,VWS V14.01,2013-08-05 14:08:00,
2013-08-05 10:09:00,77.4,66.9,30.09,SSE,158,3.8,3.8,70,0.00,,,0.00,VWS V14.01,2013-08-05 14:09:00,
2013-08-05 10:10:00,77.2,63.7,30.12,East,90,3.1,3.1,63,0.00,,SCT085,0.00,VWS V14.01,2013-08-05 14:10:00,
2013-08-05 10:11:00,77.2,63.7,30.12,East,90,3.8,3.8,63,0.00,,,0.00,VWS V14.01,2013-08-05 14:11:00,
2013-08-05 10:12:00,77.4,64.7,30.12,East,90,2.5,2.5,65,0.00,,,0.00,VWS V14.01,2013-08-05 14:12:00,
2013-08-05 10:13:00,77.6,65.3,30.12,East,90,0.0,0.0,66,0.00,,,0.00,VWS V14.01,2013-08-05 14:13:00,
2013-08-05 10:14:00,77.8,65.1,30.12,SE,135,4.7,4.7,65,0.00,,SCT085,0.00,VWS V14.01,2013-08-05 14:14:00,
2013-08-05 10:15:00,77.8,65.1,30.12,SE,135,3.1,3.1,65,0.00,,,0.00,VWS V14.01,2013-08-05 14:15:00,
2013-08-05 10:16:00,77.8,66.4,30.12,ESE,112,3.4,3.4,68,0.00,,,0.00,VWS V14.01,2013-08-05 14:16:00,
2013-08-05 10:17:00,77.8,66.4,30.12,ESE,112,4.0,4.0,68,0.00,,,0.00,VWS V14.01,2013-08-05 14:17:00,
2013-08-05 10:18:00,77.8,65.5,30.12,ESE,112,1.6,1.6,66,0.00,,,0.00,VWS V14.01,2013-08-05 14:18:00,
2013-08-05 10:19:00,77.9,66.5,30.12,ESE,112,1.6,1.6,68,0.00,,,0.00,VWS V14.01,2013-08-05 14:19:00,
2013-08-05 10:20:00,77.9,64.8,30.12,East,90,2.5,2.5,64,0.00,,SCT085,0.00,VWS V14.01,2013-08-05 14:20:00,
2013-08-05 10:21:00,78.1,65.8,30.12,SE,135,1.1,1.1,66,0.00,,,0.00,VWS V14.01,2013-08-05 14:21:00,
2013-08-05 10:22:00,78.1,66.3,30.12,SE,135,1.6,1.6,67,0.00,,,0.00,VWS V14.01,2013-08-05 14:22:00,
2013-08-05 10:23:00,78.1,66.3,30.12,East,90,3.1,3.1,67,0.00,,,0.00,VWS V14.01,2013-08-05 14:23:00,
2013-08-05 10:24:00,78.1,66.7,30.12,ESE,112,4.9,4.9,68,0.00,,,0.00,VWS V14.01,2013-08-05 14:24:00,
2013-08-05 10:25:00,78.1,66.7,30.09,SSE,158,4.9,4.9,68,0.00,,SCT085,0.00,VWS V14.01,2013-08-05 14:25:00,
2013-08-05 10:26:00,78.3,67.3,30.09,SE,135,4.3,4.3,69,0.00,,,0.00,VWS V14.01,2013-08-05 14:26:00,
2013-08-05 10:27:00,78.3,66.9,30.09,SE,135,2.5,2.5,68,0.00,,,0.00,VWS V14.01,2013-08-05 14:27:00,
2013-08-05 10:28:00,78.5,67.1,30.09,ESE,112,3.6,3.6,68,0.00,,,0.00,VWS V14.01,2013-08-05 14:28:00,
2013-08-05 10:29:00,78.7,67.6,30.09,ESE,112,2.0,2.0,69,0.00,,,0.00,VWS V14.01,2013-08-05 14:29:00,
2013-08-05 10:30:00,78.7,67.2,30.09,East,90,3.8,3.8,68,0.00,,SCT085,0.00,VWS V14.01,2013-08-05 14:30:00,
2013-08-05 10:31:00,78.7,65.9,30.09,East,90,2.9,2.9,65,0.00,,,0.00,VWS V14.01,2013-08-05 14:31:00,
2013-08-05 10:32:00,78.7,68.1,30.09,SE,135,5.8,5.8,70,0.00,,,0.00,VWS V14.01,2013-08-05 14:32:00,
2013-08-05 10:33:00,78.5,66.6,30.09,ESE,112,4.0,4.0,67,0.00,,,0.00,VWS V14.01,2013-08-05 14:33:00,
2013-08-05 10:34:00,78.5,66.6,30.09,SE,135,2.5,2.5,67,0.00,,,0.00,VWS V14.01,2013-08-05 14:34:00,
2013-08-05 10:35:00,78.7,66.4,30.09,SSE,158,5.6,5.6,66,0.00,,FEW070,0.00,VWS V14.01,2013-08-05 14:35:00,
2013-08-05 10:36:00,78.7,65.5,30.09,South,180,3.8,3.8,64,0.00,,,0.00,VWS V14.01,2013-08-05 14:36:00,
2013-08-05 10:37:00,78.5,63.0,30.09,SE,135,2.7,2.7,59,0.00,,,0.00,VWS V14.01,2013-08-05 14:37:00,
2013-08-05 10:38:00,78.5,63.9,30.09,ESE,112,3.8,3.8,61,0.00,,,0.00,VWS V14.01,2013-08-05 14:38:00,
2013-08-05 10:39:00,78.7,64.1,30.09,SSE,158,1.3,1.3,61,0.00,,,0.00,VWS V14.01,2013-08-05 14:39:00,
2013-08-05 10:40:00,78.8,64.7,30.06,SE,135,5.6,5.6,62,0.00,,FEW070,0.00,VWS V14.01,2013-08-05 14:40:00,
2013-08-05 10:41:00,78.8,63.8,30.06,SSE,158,4.9,4.9,60,0.00,,,0.00,VWS V14.01,2013-08-05 14:41:00,
2013-08-05 10:42:00,78.8,63.8,30.06,South,180,2.0,2.0,60,0.00,,,0.00,VWS V14.01,2013-08-05 14:42:00,
2013-08-05 10:43:00,79.0,65.4,30.06,ESE,112,4.0,4.0,63,0.00,,,0.00,VWS V14.01,2013-08-05 14:43:00,
2013-08-05 10:44:00,79.0,65.4,30.06,East,90,5.4,5.4,63,0.00,,,0.00,VWS V14.01,2013-08-05 14:44:00,
2013-08-05 10:45:00,79.0,64.4,30.06,ESE,112,5.6,5.6,61,0.00,,,0.00,VWS V14.01,2013-08-05 14:45:00,
2013-08-05 10:46:00,79.0,64.4,30.06,SE,135,4.9,4.9,61,0.00,,FEW070,0.00,VWS V14.01,2013-08-05 14:46:00,
2013-08-05 10:47:00,79.0,64.4,30.06,SSW,202,2.5,2.5,61,0.00,,,0.00,VWS V14.01,2013-08-05 14:47:00,
2013-08-05 10:48:00,79.2,65.5,30.06,SE,135,3.6,3.6,63,0.00,,,0.00,VWS V14.01,2013-08-05 14:48:00,
2013-08-05 10:49:00,79.2,64.1,30.06,SE,135,6.3,6.3,60,0.00,,,0.00,VWS V14.01,2013-08-05 14:49:00,
2013-08-05 10:50:00,79.4,65.7,30.06,SSE,158,5.8,5.8,63,0.00,,,0.00,VWS V14.01,2013-08-05 14:50:00,
2013-08-05 10:51:00,79.2,64.1,30.06,SSE,158,3.8,3.8,60,0.00,,FEW070,0.00,VWS V14.01,2013-08-05 14:51:00,
2013-08-05 10:52:00,79.2,64.6,30.06,SE,135,2.7,2.7,61,0.00,,,0.00,VWS V14.01,2013-08-05 14:52:00,
2013-08-05 10:53:00,79.2,64.6,30.06,SE,135,4.0,4.0,61,0.00,,,0.00,VWS V14.01,2013-08-05 14:53:00,
2013-08-05 10:54:00,79.4,65.7,30.06,ESE,112,3.4,3.4,63,0.00,,,0.00,VWS V14.01,2013-08-05 14:54:00,
2013-08-05 10:55:00,79.4,63.8,30.06,SSE,158,4.7,4.7,59,0.00,,,0.00,VWS V14.01,2013-08-05 14:55:00,
2013-08-05 10:56:00,79.4,63.3,30.06,SE,135,7.8,7.8,58,0.00,,FEW070,0.00,VWS V14.01,2013-08-05 14:56:00,
2013-08-05 10:57:00,79.4,63.3,30.06,SSE,158,2.0,2.0,58,0.00,,,0.00,VWS V14.01,2013-08-05 14:57:00,
2013-08-05 10:58:00,79.4,64.3,30.06,SSW,202,2.9,2.9,60,0.00,,,0.00,VWS V14.01,2013-08-05 14:58:00,
2013-08-05 10:59:00,79.4,64.3,30.06,SSE,158,3.6,3.6,60,0.00,,,0.00,VWS V14.01,2013-08-05 14:59:00,
2013-08-05 11:00:00,79.4,63.3,30.06,SW,225,5.8,5.8,58,0.00,,,0.00,VWS V14.01,2013-08-05 15:00:00,
2013-08-05 11:01:00,79.2,63.2,30.06,SSW,202,4.0,4.0,58,0.00,,FEW070,0.00,VWS V14.01,2013-08-05 15:01:00,
2013-08-05 11:02:00,79.2,63.7,30.06,SSW,202,4.7,4.7,59,0.00,,,0.00,VWS V14.01,2013-08-05 15:02:00,
2013-08-05 11:03:00,79.2,64.1,30.06,SW,225,4.0,4.0,60,0.00,,,0.00,VWS V14.01,2013-08-05 15:03:00,
2013-08-05 11:04:00,79.2,64.1,30.06,South,180,2.5,2.5,60,0.00,,,0.00,VWS V14.01,2013-08-05 15:04:00,
2013-08-05 11:05:00,79.2,64.6,30.06,South,180,1.1,1.1,61,0.00,,,0.00,VWS V14.01,2013-08-05 15:05:00,
2013-08-05 11:06:00,79.2,64.6,30.06,SE,135,2.5,2.5,61,0.00,,,0.00,VWS V14.01,2013-08-05 15:06:00,
2013-08-05 11:07:00,79.2,64.6,30.06,SSE,158,2.2,2.2,61,0.00,,FEW070,0.00,VWS V14.01,2013-08-05 15:07:00,
2013-08-05 11:08:00,79.4,64.8,30.06,SE,135,2.7,2.7,61,0.00,,,0.00,VWS V14.01,2013-08-05 15:08:00,
2013-08-05 11:09:00,79.4,64.8,30.06,South,180,4.0,4.0,61,0.00,,,0.00,VWS V14.01,2013-08-05 15:09:00,
2013-08-05 11:10:00,79.4,64.3,30.09,SSE,158,2.9,2.9,60,0.00,,,0.00,VWS V14.01,2013-08-05 15:10:00,
2013-08-05 11:11:00,79.6,64.5,30.09,SSW,202,1.1,1.1,60,0.00,,,0.00,VWS V14.01,2013-08-05 15:11:00,
2013-08-05 11:12:00,79.6,64.5,30.09,SSW,202,3.4,3.4,60,0.00,,FEW070,0.00,VWS V14.01,2013-08-05 15:12:00,
2013-08-05 11:13:00,79.6,64.5,30.09,SE,135,3.6,3.6,60,0.00,,,0.00,VWS V14.01,2013-08-05 15:13:00,
2013-08-05 11:14:00,79.6,64.0,30.09,ESE,112,5.4,5.4,59,0.00,,,0.00,VWS V14.01,2013-08-05 15:14:00,
2013-08-05 11:15:00,79.6,64.0,30.09,West,270,0.0,0.0,59,0.00,,,0.00,VWS V14.01,2013-08-05 15:15:00,
2013-08-05 11:16:00,79.6,64.0,30.09,SSW,202,3.4,3.4,59,0.00,,,0.00,VWS V14.01,2013-08-05 15:16:00,
2013-08-05 11:17:00,79.9,65.3,30.09,SSW,202,5.6,5.6,61,0.00,,FEW070,0.00,VWS V14.01,2013-08-05 15:17:00,
2013-08-05 11:18:00,79.9,64.8,30.09,SSE,158,4.0,4.0,60,0.00,,,0.00,VWS V14.01,2013-08-05 15:18:00,
2013-08-05 11:19:00,80.1,65.9,30.09,South,180,3.8,3.8,62,0.00,,,0.00,VWS V14.01,2013-08-05 15:19:00,
2013-08-05 11:20:00,80.3,65.6,30.09,SSW,202,7.6,7.6,61,0.00,,,0.00,VWS V14.01,2013-08-05 15:20:00,
2013-08-05 11:21:00,80.3,64.2,30.09,ESE,112,5.6,5.6,58,0.00,,,0.00,VWS V14.01,2013-08-05 15:21:00,
2013-08-05 11:22:00,80.1,64.5,30.09,SSW,202,3.8,3.8,59,0.00,,,0.00,VWS V14.01,2013-08-05 15:22:00,
2013-08-05 11:23:00,80.1,64.5,30.09,SE,135,3.1,3.1,59,0.00,,FEW070,0.00,VWS V14.01,2013-08-05 15:23:00,
2013-08-05 11:24:00,79.7,63.7,30.09,SSE,158,3.6,3.6,58,0.00,,,0.00,VWS V14.01,2013-08-05 15:24:00,
2013-08-05 11:25:00,79.9,64.3,30.09,SSE,158,4.0,4.0,59,0.00,,,0.00,VWS V14.01,2013-08-05 15:25:00,
2013-08-05 11:26:00,79.7,64.2,30.09,SSE,158,6.3,6.3,59,0.00,,,0.00,VWS V14.01,2013-08-05 15:26:00,
2013-08-05 11:27:00,79.9,66.2,30.09,ESE,112,4.5,4.5,63,0.00,,,0.00,VWS V14.01,2013-08-05 15:27:00,
2013-08-05 11:28:00,79.7,64.2,30.09,ESE,112,6.5,6.5,59,0.00,,FEW070,0.00,VWS V14.01,2013-08-05 15:28:00,
2013-08-05 11:29:00,79.4,63.8,30.09,ESE,112,4.7,4.7,59,0.00,,,0.00,VWS V14.01,2013-08-05 15:29:00,
2013-08-05 11:30:00,79.4,63.8,30.09,SSE,158,4.0,4.0,59,0.00,,,0.00,VWS V14.01,2013-08-05 15:30:00,
2013-08-05 11:31:00,79.6,64.5,30.09,SW,225,2.7,2.7,60,0.00,,,0.00,VWS V14.01,2013-08-05 15:31:00,
2013-08-05 11:32:00,79.7,65.1,30.09,SE,135,2.0,2.0,61,0.00,,,0.00,VWS V14.01,2013-08-05 15:32:00,
2013-08-05 11:33:00,79.7,65.1,30.09,SE,135,2.2,2.2,61,0.00,,FEW070,0.00,VWS V14.01,2013-08-05 15:33:00,
2013-08-05 11:34:00,79.7,65.6,30.09,SE,135,6.9,6.9,62,0.00,,,0.00,VWS V14.01,2013-08-05 15:34:00,
2013-08-05 11:35:00,79.6,64.5,30.09,ESE,112,3.6,3.6,60,0.00,,,0.00,VWS V14.01,2013-08-05 15:35:00,
2013-08-05 11:36:00,79.4,63.8,30.09,SE,135,5.8,5.8,59,0.00,,,0.00,VWS V14.01,2013-08-05 15:36:00,
2013-08-05 11:37:00,79.6,64.9,30.09,SSW,202,3.8,3.8,61,0.00,,,0.00,VWS V14.01,2013-08-05 15:37:00,
2013-08-05 11:38:00,79.6,64.9,30.09,SE,135,1.6,1.6,61,0.00,,CLR,0.00,VWS V14.01,2013-08-05 15:38:00,
2013-08-05 11:39:00,79.7,65.6,30.09,SSW,202,4.3,4.3,62,0.00,,,0.00,VWS V14.01,2013-08-05 15:39:00,
2013-08-05 11:40:00,79.7,65.1,30.09,WSW,248,3.8,3.8,61,0.00,,,0.00,VWS V14.01,2013-08-05 15:40:00,
2013-08-05 11:41:00,79.7,64.2,30.09,SSE,158,4.3,4.3,59,0.00,,,0.00,VWS V14.01,2013-08-05 15:41:00,
2013-08-05 11:42:00,79.7,64.6,30.09,SSW,202,4.3,4.3,60,0.00,,,0.00,VWS V14.01,2013-08-05 15:42:00,
2013-08-05 11:43:00,79.7,64.6,30.09,SE,135,4.9,4.9,60,0.00,,CLR,0.00,VWS V14.01,2013-08-05 15:43:00,
2013-08-05 11:44:00,79.9,65.8,30.09,SE,135,5.6,5.6,62,0.00,,,0.00,VWS V14.01,2013-08-05 15:44:00,
2013-08-05 11:45:00,79.7,63.7,30.09,ESE,112,4.0,4.0,58,0.00,,,0.00,VWS V14.01,2013-08-05 15:45:00,
2013-08-05 11:46:00,79.7,64.6,30.09,ESE,112,3.8,3.8,60,0.00,,,0.00,VWS V14.01,2013-08-05 15:46:00,
2013-08-05 11:47:00,79.7,64.2,30.09,SSW,202,3.6,3.6,59,0.00,,,0.00,VWS V14.01,2013-08-05 15:47:00,
2013-08-05 11:48:00,79.7,63.7,30.09,SE,135,4.3,4.3,58,0.00,,,0.00,VWS V14.01,2013-08-05 15:48:00,
2013-08-05 11:49:00,79.7,62.7,30.09,SW,225,4.7,4.7,56,0.00,,CLR,0.00,VWS V14.01,2013-08-05 15:49:00,
2013-08-05 11:50:00,79.9,63.8,30.09,SSW,202,1.1,1.1,58,0.00,,,0.00,VWS V14.01,2013-08-05 15:50:00,
2013-08-05 11:51:00,79.9,63.8,30.09,SSW,202,6.3,6.3,58,0.00,,,0.00,VWS V14.01,2013-08-05 15:51:00,
2013-08-05 11:52:00,79.9,63.8,30.09,South,180,6.5,6.5,58,0.00,,,0.00,VWS V14.01,2013-08-05 15:52:00,
2013-08-05 11:53:00,79.9,62.8,30.09,SSW,202,6.0,6.0,56,0.00,,,0.00,VWS V14.01,2013-08-05 15:53:00,
2013-08-05 11:54:00,79.9,63.8,30.09,SSE,158,2.9,2.9,58,0.00,,CLR,0.00,VWS V14.01,2013-08-05 15:54:00,
2013-08-05 11:55:00,79.9,63.3,30.09,ESE,112,3.4,3.4,57,0.00,,,0.00,VWS V14.01,2013-08-05 15:55:00,
2013-08-05 11:56:00,80.1,64.5,30.09,ESE,112,3.1,3.1,59,0.00,,,0.00,VWS V14.01,2013-08-05 15:56:00,
2013-08-05 11:57:00,80.1,64.5,30.09,SE,135,2.7,2.7,59,0.00,,,0.00,VWS V14.01,2013-08-05 15:57:00,
2013-08-05 11:58:00,80.1,64.0,30.09,SSE,158,2.9,2.9,58,0.00,,,0.00,VWS V14.01,2013-08-05 15:58:00,
2013-08-05 11:59:00,80.1,64.0,30.09,SSW,202,2.7,2.7,58,0.00,,CLR,0.00,VWS V14.01,2013-08-05 15:59:00,
2013-08-05 12:00:00,79.9,61.8,30.09,SSW,202,3.4,3.4,54,0.00,,,0.00,VWS V14.01,2013-08-05 16:00:00,
2013-08-05 12:01:00,80.1,64.0,30.09,SSE,158,5.8,5.8,58,0.00,,,0.00,VWS V14.01,2013-08-05 16:01:00,
2013-08-05 12:02:00,80.3,64.2,30.09,WSW,248,8.1,8.1,58,0.00,,,0.00,VWS V14.01,2013-08-05 16:02:00,
2013-08-05 12:03:00,80.3,64.7,30.09,SSW,202,4.0,4.0,59,0.00,,,0.00,VWS V14.01,2013-08-05 16:03:00,
2013-08-05 12:04:00,80.5,64.3,30.09,SSW,202,2.2,2.2,58,0.00,,CLR,0.00,VWS V14.01,2013-08-05 16:04:00,
2013-08-05 12:05:00,80.5,64.3,30.09,SSW,202,3.8,3.8,58,0.00,,,0.00,VWS V14.01,2013-08-05 16:05:00,
2013-08-05 12:06:00,80.6,64.5,30.09,SSW,202,6.0,6.0,58,0.00,,,0.00,VWS V14.01,2013-08-05 16:06:00,
2013-08-05 12:07:00,80.6,64.5,30.09,SSE,158,5.6,5.6,58,0.00,,,0.00,VWS V14.01,2013-08-05 16:07:00,
2013-08-05 12:08:00,80.8,64.7,30.09,SE,135,3.6,3.6,58,0.00,,,0.00,VWS V14.01,2013-08-05 16:08:00,
2013-08-05 12:09:00,81.0,65.3,30.09,SE,135,5.4,5.4,59,0.00,,CLR,0.00,VWS V14.01,2013-08-05 16:09:00,
2013-08-05 12:10:00,80.8,64.2,30.09,East,90,5.6,5.6,57,0.00,,,0.00,VWS V14.01,2013-08-05 16:10:00,
2013-08-05 12:11:00,80.8,64.7,30.09,ESE,112,4.5,4.5,58,0.00,,,0.00,VWS V14.01,2013-08-05 16:11:00,
2013-08-05 12:12:00,80.8,62.6,30.09,ESE,112,3.8,3.8,54,0.00,,,0.00,VWS V14.01,2013-08-05 16:12:00,
2013-08-05 12:13:00,80.8,64.2,30.09,SE,135,2.7,2.7,57,0.00,,,0.00,VWS V14.01,2013-08-05 16:13:00,
2013-08-05 12:14:00,80.8,65.2,30.09,SSE,158,6.5,6.5,59,0.00,,,0.00,VWS V14.01,2013-08-05 16:14:00,
2013-08-05 12:15:00,80.8,65.2,30.09,SSW,202,4.7,4.7,59,0.00,,CLR,0.00,VWS V14.01,2013-08-05 16:15:00,
2013-08-05 12:16:00,80.6,64.5,30.09,ESE,112,4.9,4.9,58,0.00,,,0.00,VWS V14.01,2013-08-05 16:16:00,
2013-08-05 12:17:00,80.6,64.5,30.09,ESE,112,5.6,5.6,58,0.00,,,0.00,VWS V14.01,2013-08-05 16:17:00,
2013-08-05 12:18:00,80.5,64.3,30.09,SE,135,6.9,6.9,58,0.00,,,0.00,VWS V14.01,2013-08-05 16:18:00,
2013-08-05 12:19:00,80.6,65.0,30.09,ESE,112,4.3,4.3,59,0.00,,,0.00,VWS V14.01,2013-08-05 16:19:00,
2013-08-05 12:20:00,80.6,64.5,30.09,SE,135,3.8,3.8,58,0.00,,CLR,0.00,VWS V14.01,2013-08-05 16:20:00,
2013-08-05 12:21:00,80.6,66.0,30.09,SE,135,5.8,5.8,61,0.00,,,0.00,VWS V14.01,2013-08-05 16:21:00,
2013-08-05 12:22:00,80.8,65.2,30.09,SSE,158,2.9,2.9,59,0.00,,,0.00,VWS V14.01,2013-08-05 16:22:00,
2013-08-05 12:23:00,80.8,65.2,30.09,SSW,202,3.8,3.8,59,0.00,,,0.00,VWS V14.01,2013-08-05 16:23:00,
2013-08-05 12:24:00,81.0,64.3,30.09,WSW,248,2.0,2.0,57,0.00,,CLR,0.00,VWS V14.01,2013-08-05 16:24:00,
2013-08-05 12:25:00,81.0,64.3,30.09,WSW,248,2.2,2.2,57,0.00,,,0.00,VWS V14.01,2013-08-05 16:25:00,
2013-08-05 12:26:00,81.0,64.8,30.09,South,180,4.9,4.9,58,0.00,,,0.00,VWS V14.01,2013-08-05 16:26:00,
2013-08-05 12:27:00,81.0,64.3,30.09,SSE,158,4.9,4.9,57,0.00,,,0.00,VWS V14.01,2013-08-05 16:27:00,
2013-08-05 12:28:00,81.0,64.3,30.09,SSE,158,4.0,4.0,57,0.00,,,0.00,VWS V14.01,2013-08-05 16:28:00,
2013-08-05 12:29:00,81.2,63.0,30.09,SSW,202,7.8,7.8,54,0.00,,,0.00,VWS V14.01,2013-08-05 16:29:00,
2013-08-05 12:30:00,81.2,63.0,30.09,SW,225,4.3,4.3,54,0.00,,CLR,0.00,VWS V14.01,2013-08-05 16:30:00,
2013-08-05 12:31:00,81.2,64.5,30.09,SSW,202,4.9,4.9,57,0.00,,,0.00,VWS V14.01,2013-08-05 16:31:00,
2013-08-05 12:32:00,81.2,63.5,30.09,South,180,8.1,8.1,55,0.00,,,0.00,VWS V14.01,2013-08-05 16:32:00,
2013-08-05 12:33:00,81.0,62.8,30.09,SSW,202,7.8,7.8,54,0.00,,,0.00,VWS V14.01,2013-08-05 16:33:00,
2013-08-05 12:34:00,81.0,63.3,30.09,South,180,3.6,3.6,55,0.00,,,0.00,VWS V14.01,2013-08-05 16:34:00,
2013-08-05 12:35:00,81.0,64.3,30.09,SSW,202,3.8,3.8,57,0.00,,CLR,0.00,VWS V14.01,2013-08-05 16:35:00,
2013-08-05 12:36:00,81.2,65.0,30.09,SE,135,6.3,6.3,58,0.00,,,0.00,VWS V14.01,2013-08-05 16:36:00,
2013-08-05 12:37:00,81.2,64.5,30.09,SE,135,6.5,6.5,57,0.00,,,0.00,VWS V14.01,2013-08-05 16:37:00,
2013-08-05 12:38:00,81.4,64.7,30.09,ESE,112,3.6,3.6,57,0.00,,,0.00,VWS V14.01,2013-08-05 16:38:00,
2013-08-05 12:39:00,81.2,63.5,30.09,SSE,158,4.5,4.5,55,0.00,,,0.00,VWS V14.01,2013-08-05 16:39:00,
2013-08-05 12:40:00,81.2,63.5,30.09,SSW,202,2.7,2.7,55,0.00,,BKN070,0.00,VWS V14.01,2013-08-05 16:40:00,
2013-08-05 12:41:00,81.4,63.7,30.09,SE,135,4.3,4.3,55,0.00,,,0.00,VWS V14.01,2013-08-05 16:41:00,
2013-08-05 12:42:00,81.2,61.3,30.09,SW,225,3.1,3.1,51,0.00,,,0.00,VWS V14.01,2013-08-05 16:42:00,
2013-08-05 12:43:00,81.4,63.1,30.09,SSE,158,3.4,3.4,54,0.00,,,0.00,VWS V14.01,2013-08-05 16:43:00,
2013-08-05 12:44:00,81.2,60.8,30.09,South,180,8.7,8.7,50,0.00,,,0.00,VWS V14.01,2013-08-05 16:44:00,
2013-08-05 12:45:00,81.2,60.8,30.09,South,180,4.3,4.3,50,0.00,,BKN070,0.00,VWS V14.01,2013-08-05 16:45:00,
2013-08-05 12:46:00,81.4,61.5,30.09,South,180,3.1,3.1,51,0.00,,,0.00,VWS V14.01,2013-08-05 16:46:00,
2013-08-05 12:47:00,81.4,61.5,30.09,SSE,158,6.0,6.0,51,0.00,,,0.00,VWS V14.01,2013-08-05 16:47:00,
2013-08-05 12:48:00,81.4,61.5,30.09,SSE,158,7.2,7.2,51,0.00,,,0.00,VWS V14.01,2013-08-05 16:48:00,
2013-08-05 12:49:00,81.4,61.5,30.09,SSW,202,4.3,4.3,51,0.00,,,0.00,VWS V14.01,2013-08-05 16:49:00,
2013-08-05 12:50:00,81.2,57.8,30.09,SSE,158,3.4,3.4,45,0.00,,BKN070,0.00,VWS V14.01,2013-08-05 16:50:00,
2013-08-05 12:51:00,81.4,61.5,30.09,SSE,158,1.6,1.6,51,0.00,,,0.00,VWS V14.01,2013-08-05 16:51:00,
2013-08-05 12:52:00,81.4,60.4,30.09,SSW,202,6.0,6.0,49,0.00,,,0.00,VWS V14.01,2013-08-05 16:52:00,
2013-08-05 12:53:00,81.4,62.1,30.09,SE,135,3.6,3.6,52,0.00,,,0.00,VWS V14.01,2013-08-05 16:53:00,
2013-08-05 12:54:00,81.4,62.1,30.09,SE,135,2.9,2.9,52,0.00,,,0.00,VWS V14.01,2013-08-05 16:54:00,
2013-08-05 12:55:00,81.4,61.0,30.09,SW,225,2.5,2.5,50,0.00,,BKN070,0.00,VWS V14.01,2013-08-05 16:55:00,
2013-08-05 12:56:00,81.4,61.0,30.09,South,180,2.2,2.2,50,0.00,,,0.00,VWS V14.01,2013-08-05 16:56:00,
2013-08-05 12:57:00,81.4,61.0,30.09,SSW,202,0.0,0.0,50,0.00,,,0.00,VWS V14.01,2013-08-05 16:57:00,
2013-08-05 12:58:00,81.5,62.2,30.09,SE,135,7.4,7.4,52,0.00,,,0.00,VWS V14.01,2013-08-05 16:58:00,
2013-08-05 12:59:00,81.7,61.8,30.09,SSW,202,2.9,2.9,51,0.00,,,0.00,VWS V14.01,2013-08-05 16:59:00,
2013-08-05 13:00:00,81.5,61.7,30.09,SSW,202,5.6,5.6,51,0.00,,BKN070,0.00,VWS V14.01,2013-08-05 17:00:00,
2013-08-05 13:01:00,81.5,62.8,30.09,SSW,202,3.8,3.8,53,0.00,,,0.00,VWS V14.01,2013-08-05 17:01:00,
2013-08-05 13:02:00,81.5,62.8,30.09,SW,225,3.4,3.4,53,0.00,,,0.00,VWS V14.01,2013-08-05 17:02:00,
2013-08-05 13:03:00,81.5,64.3,30.09,South,180,3.8,3.8,56,0.00,,,0.00,VWS V14.01,2013-08-05 17:03:00,
2013-08-05 13:04:00,81.5,63.3,30.09,SSW,202,2.9,2.9,54,0.00,,,0.00,VWS V14.01,2013-08-05 17:04:00,
2013-08-05 13:05:00,81.5,63.3,30.09,SSE,158,1.3,1.3,54,0.00,,BKN070,0.00,VWS V14.01,2013-08-05 17:05:00,
2013-08-05 13:06:00,81.7,64.0,30.09,East,90,1.1,1.1,55,0.00,,,0.00,VWS V14.01,2013-08-05 17:06:00,
2013-08-05 13:07:00,82.1,66.8,30.09,South,180,6.0,6.0,60,0.00,,,0.00,VWS V14.01,2013-08-05 17:07:00,
2013-08-05 13:08:00,81.9,63.6,30.09,SSE,158,4.3,4.3,54,0.00,,,0.00,VWS V14.01,2013-08-05 17:08:00,
2013-08-05 13:09:00,81.9,62.0,30.09,ESE,112,4.0,4.0,51,0.00,,,0.00,VWS V14.01,2013-08-05 17:09:00,
2013-08-05 13:10:00,81.7,61.8,30.09,South,180,0.0,0.0,51,0.00,,BKN070,0.00,VWS V14.01,2013-08-05 17:10:00,
2013-08-05 13:11:00,81.9,62.6,30.09,South,180,1.3,1.3,52,0.00,,,0.00,VWS V14.01,2013-08-05 17:11:00,
2013-08-05 13:12:00,81.9,60.9,30.09,WSW,248,2.7,2.7,49,0.00,,,0.00,VWS V14.01,2013-08-05 17:12:00,
2013-08-05 13:13:00,81.9,60.9,30.09,SW,225,2.5,2.5,49,0.00,,,0.00,VWS V14.01,2013-08-05 17:13:00,
2013-08-05 13:14:00,82.1,65.3,30.09,ESE,112,3.6,3.6,57,0.00,,,0.00,VWS V14.01,2013-08-05 17:14:00,
2013-08-05 13:15:00,82.1,65.3,30.09,SE,135,8.7,8.7,57,0.00,,,0.00,VWS V14.01,2013-08-05 17:15:00,
2013-08-05 13:16:00,82.1,65.3,30.09,SE,135,2.7,2.7,57,0.00,,BKN070,0.00,VWS V14.01,2013-08-05 17:16:00,
2013-08-05 13:17:00,82.3,68.4,30.09,SE,135,5.6,5.6,63,0.00,,,0.00,VWS V14.01,2013-08-05 17:17:00,
2013-08-05 13:18:00,82.1,65.3,30.09,SSE,158,5.6,5.6,57,0.00,,,0.00,VWS V14.01,2013-08-05 17:18:00,
2013-08-05 13:19:00,82.1,63.3,30.09,SE,135,3.6,3.6,53,0.00,,,0.00,VWS V14.01,2013-08-05 17:19:00,
2013-08-05 13:20:00,81.9,62.0,30.09,SE,135,7.8,7.8,51,0.00,,,0.00,VWS V14.01,2013-08-05 17:20:00,
2013-08-05 13:21:00,81.7,65.5,30.09,SSE,158,9.0,9.0,58,0.00,,,0.00,VWS V14.01,2013-08-05 17:21:00,
2013-08-05 13:22:00,81.7,65.5,30.09,SE,135,5.8,5.8,58,0.00,,BKN070,0.00,VWS V14.01,2013-08-05 17:22:00,
2013-08-05 13:23:00,82.1,65.3,30.09,SE,135,3.8,3.8,57,0.00,,,0.00,VWS V14.01,2013-08-05 17:23:00,
2013-08-05 13:24:00,82.1,66.3,30.09,ESE,112,3.4,3.4,59,0.00,,,0.00,VWS V14.01,2013-08-05 17:24:00,
2013-08-05 13:25:00,82.4,66.2,30.09,ESE,112,6.5,6.5,58,0.00,,,0.00,VWS V14.01,2013-08-05 17:25:00,
2013-08-05 13:26:00,82.1,61.6,30.09,ESE,112,5.4,5.4,50,0.00,,,0.00,VWS V14.01,2013-08-05 17:26:00,
2013-08-05 13:27:00,82.1,66.3,30.09,SE,135,7.2,7.2,59,0.00,,BKN070,0.00,VWS V14.01,2013-08-05 17:27:00,
2013-08-05 13:28:00,81.9,65.7,30.09,SE,135,4.7,4.7,58,0.00,,,0.00,VWS V14.01,2013-08-05 17:28:00,
2013-08-05 13:29:00,81.7,60.7,30.09,ESE,112,2.0,2.0,49,0.00,,,0.00,VWS V14.01,2013-08-05 17:29:00,
2013-08-05 13:30:00,81.5,63.8,30.09,SSE,158,3.6,3.6,55,0.00,,,0.00,VWS V14.01,2013-08-05 17:30:00,
2013-08-05 13:31:00,81.5,62.8,30.09,SSE,158,2.0,2.0,53,0.00,,,0.00,VWS V14.01,2013-08-05 17:31:00,
2013-08-05 13:32:00,81.7,62.9,30.09,East,90,1.1,1.1,53,0.00,,BKN070,0.00,VWS V14.01,2013-08-05 17:32:00,
2013-08-05 13:33:00,81.5,60.0,30.09,ESE,112,3.8,3.8,48,0.00,,,0.00,VWS V14.01,2013-08-05 17:33:00,
2013-08-05 13:34:00,81.5,62.2,30.09,SSW,202,4.3,4.3,52,0.00,,,0.00,VWS V14.01,2013-08-05 17:34:00,
2013-08-05 13:35:00,81.7,60.7,30.09,SW,225,4.7,4.7,49,0.00,,,0.00,VWS V14.01,2013-08-05 17:35:00,
2013-08-05 13:36:00,81.7,59.5,30.09,SSE,158,1.6,1.6,47,0.00,,,0.00,VWS V14.01,2013-08-05 17:36:00,
2013-08-05 13:37:00,81.9,63.1,30.09,SSE,158,3.8,3.8,53,0.00,,SCT070,0.00,VWS V14.01,2013-08-05 17:37:00,
2013-08-05 13:38:00,81.9,62.6,30.09,SE,135,4.0,4.0,52,0.00,,,0.00,VWS V14.01,2013-08-05 17:38:00,
2013-08-05 13:39:00,81.9,62.6,30.09,SSW,202,4.0,4.0,52,0.00,,,0.00,VWS V14.01,2013-08-05 17:39:00,
2013-08-05 13:40:00,81.9,62.6,30.06,SSW,202,4.0,4.0,52,0.00,,,0.00,VWS V14.01,2013-08-05 17:40:00,
2013-08-05 13:41:00,82.1,60.5,30.06,South,180,7.8,7.8,48,0.00,,,0.00,VWS V14.01,2013-08-05 17:41:00,
2013-08-05 13:42:00,81.9,60.9,30.06,WNW,292,4.7,4.7,49,0.00,,SCT070,0.00,VWS V14.01,2013-08-05 17:42:00,
2013-08-05 13:43:00,82.1,60.5,30.06,SSW,202,4.0,4.0,48,0.00,,,0.00,VWS V14.01,2013-08-05 17:43:00,
2013-08-05 13:44:00,82.1,60.5,30.06,South,180,4.0,4.0,48,0.00,,,0.00,VWS V14.01,2013-08-05 17:44:00,
2013-08-05 13:45:00,82.3,61.2,30.06,SSW,202,2.5,2.5,49,0.00,,,0.00,VWS V14.01,2013-08-05 17:45:00,
2013-08-05 13:46:00,82.3,61.2,30.06,WSW,248,4.0,4.0,49,0.00,,,0.00,VWS V14.01,2013-08-05 17:46:00,
2013-08-05 13:47:00,82.3,61.2,30.06,SSE,158,2.9,2.9,49,0.00,,SCT070,0.00,VWS V14.01,2013-08-05 17:47:00,
2013-08-05 13:48:00,82.3,61.2,30.06,East,90,4.0,4.0,49,0.00,,,0.00,VWS V14.01,2013-08-05 17:48:00,
2013-08-05 13:49:00,82.3,60.0,30.06,ENE,68,3.8,3.8,47,0.00,,,0.00,VWS V14.01,2013-08-05 17:49:00,
2013-08-05 13:50:00,82.1,61.0,30.06,South,180,5.4,5.4,49,0.00,,,0.00,VWS V14.01,2013-08-05 17:50:00,
2013-08-05 13:51:00,82.3,62.3,30.06,South,180,6.3,6.3,51,0.00,,,0.00,VWS V14.01,2013-08-05 17:51:00,
2013-08-05 13:52:00,82.3,60.6,30.06,ESE,112,4.3,4.3,48,0.00,,,0.00,VWS V14.01,2013-08-05 17:52:00,
2013-08-05 13:53:00,82.3,60.6,30.06,South,180,10.1,10.1,48,0.00,,SCT070,0.00,VWS V14.01,2013-08-05 17:53:00,
2013-08-05 13:54:00,82.3,62.3,30.06,SE,135,6.0,6.0,51,0.00,,,0.00,VWS V14.01,2013-08-05 17:54:00,
2013-08-05 13:55:00,82.3,62.3,30.06,SE,135,6.5,6.5,51,0.00,,,0.00,VWS V14.01,2013-08-05 17:55:00,
2013-08-05 13:56:00,82.3,61.8,30.06,SSE,158,2.5,2.5,50,0.00,,,0.00,VWS V14.01,2013-08-05 17:56:00,
2013-08-05 13:57:00,82.3,61.8,30.06,ESE,112,2.9,2.9,50,0.00,,SCT070,0.00,VWS V14.01,2013-08-05 17:57:00,
2013-08-05 13:58:00,82.3,61.8,30.06,SE,135,3.4,3.4,50,0.00,,,0.00,VWS V14.01,2013-08-05 17:58:00,
2013-08-05 13:59:00,82.3,63.4,30.06,South,180,2.5,2.5,53,0.00,,,0.00,VWS V14.01,2013-08-05 17:59:00,
2013-08-05 14:00:00,82.4,60.8,30.06,SSE,158,2.2,2.2,48,0.00,,,0.00,VWS V14.01,2013-08-05 18:00:00,
2013-08-05 14:01:00,82.4,65.2,30.06,SE,135,2.9,2.9,56,0.00,,,0.00,VWS V14.01,2013-08-05 18:01:00,
2013-08-05 14:02:00,82.4,61.4,30.06,SSW,202,4.9,4.9,49,0.00,,,0.00,VWS V14.01,2013-08-05 18:02:00,
2013-08-05 14:03:00,82.4,61.4,30.06,SSE,158,4.3,4.3,49,0.00,,SCT070,0.00,VWS V14.01,2013-08-05 18:03:00,
2013-08-05 14:04:00,82.4,60.8,30.06,SSE,158,4.0,4.0,48,0.00,,,0.00,VWS V14.01,2013-08-05 18:04:00,
2013-08-05 14:05:00,82.4,60.8,30.06,SE,135,3.1,3.1,48,0.00,,,0.00,VWS V14.01,2013-08-05 18:05:00,
2013-08-05 14:06:00,82.4,55.7,30.06,SSE,158,4.9,4.9,40,0.00,,,0.00,VWS V14.01,2013-08-05 18:06:00,
2013-08-05 14:07:00,82.4,55.7,30.06,SSE,158,4.3,4.3,40,0.00,,,0.00,VWS V14.01,2013-08-05 18:07:00,
2013-08-05 14:08:00,82.4,55.7,30.06,SSE,158,4.7,4.7,40,0.00,,SCT070,0.00,VWS V14.01,2013-08-05 18:08:00,
2013-08-05 14:09:00,82.4,61.4,30.06,SSE,158,3.8,3.8,49,0.00,,,0.00,VWS V14.01,2013-08-05 18:09:00,
2013-08-05 14:10:00,82.4,60.2,30.06,ESE,112,4.3,4.3,47,0.00,,,0.00,VWS V14.01,2013-08-05 18:10:00,
2013-08-05 14:11:00,82.4,60.2,30.06,SSE,158,2.5,2.5,47,0.00,,,0.00,VWS V14.01,2013-08-05 18:11:00,
2013-08-05 14:12:00,82.4,60.8,30.06,SSE,158,2.9,2.9,48,0.00,,,0.00,VWS V14.01,2013-08-05 18:12:00,
2013-08-05 14:13:00,82.4,60.8,30.06,SSE,158,4.3,4.3,48,0.00,,SCT070,0.00,VWS V14.01,2013-08-05 18:13:00,
2013-08-05 14:14:00,82.3,60.6,30.06,SSE,158,3.6,3.6,48,0.00,,,0.00,VWS V14.01,2013-08-05 18:14:00,
2013-08-05 14:15:00,82.4,60.8,30.06,SSE,158,3.8,3.8,48,0.00,,,0.00,VWS V14.01,2013-08-05 18:15:00,
2013-08-05 14:16:00,82.4,60.8,30.06,ESE,112,6.7,6.7,48,0.00,,,0.00,VWS V14.01,2013-08-05 18:16:00,
2013-08-05 14:17:00,82.3,56.9,30.06,ESE,112,6.0,6.0,42,0.00,,,0.00,VWS V14.01,2013-08-05 18:17:00,
2013-08-05 14:18:00,82.4,63.6,30.06,East,90,6.5,6.5,53,0.00,,SCT070,0.00,VWS V14.01,2013-08-05 18:18:00,
2013-08-05 14:19:00,82.3,62.9,30.06,East,90,6.0,6.0,52,0.00,,,0.00,VWS V14.01,2013-08-05 18:19:00,
2013-08-05 14:20:00,82.3,58.8,30.06,ESE,112,4.9,4.9,45,0.00,,,0.00,VWS V14.01,2013-08-05 18:20:00,
2013-08-05 14:21:00,82.4,62.5,30.06,ESE,112,5.8,5.8,51,0.00,,,0.00,VWS V14.01,2013-08-05 18:21:00,
2013-08-05 14:22:00,82.4,61.4,30.06,SE,135,4.3,4.3,49,0.00,,,0.00,VWS V14.01,2013-08-05 18:22:00,
2013-08-05 14:23:00,82.4,62.5,30.06,ESE,112,4.0,4.0,51,0.00,,SCT070,0.00,VWS V14.01,2013-08-05 18:23:00,
2013-08-05 14:24:00,82.6,62.1,30.06,SE,135,4.3,4.3,50,0.00,,,0.00,VWS V14.01,2013-08-05 18:24:00,
2013-08-05 14:25:00,82.6,62.1,30.03,SSE,158,5.6,5.6,50,0.00,,,0.00,VWS V14.01,2013-08-05 18:25:00,
2013-08-05 14:26:00,82.4,59.0,30.03,SSE,158,6.3,6.3,45,0.00,,,0.00,VWS V14.01,2013-08-05 18:26:00,
2013-08-05 14:27:00,82.4,60.2,30.03,South,180,6.3,6.3,47,0.00,,,0.00,VWS V14.01,2013-08-05 18:27:00,
2013-08-05 14:28:00,82.4,60.2,30.03,SSE,158,8.7,8.7,47,0.00,,SCT070,0.00,VWS V14.01,2013-08-05 18:28:00,
2013-08-05 14:29:00,82.4,60.2,30.03,SSE,158,6.5,6.5,47,0.00,,,0.00,VWS V14.01,2013-08-05 18:29:00,
2013-08-05 14:30:00,82.6,61.0,30.03,SSW,202,4.9,4.9,48,0.00,,,0.00,VWS V14.01,2013-08-05 18:30:00,
2013-08-05 14:31:00,82.6,61.0,30.03,SSW,202,1.6,1.6,48,0.00,,,0.00,VWS V14.01,2013-08-05 18:31:00,
2013-08-05 14:32:00,82.6,53.7,30.03,SE,135,0.9,0.9,37,0.00,,,0.00,VWS V14.01,2013-08-05 18:32:00,
2013-08-05 14:33:00,82.6,55.9,30.03,SSW,202,3.4,3.4,40,0.00,,SCT070,0.00,VWS V14.01,2013-08-05 18:33:00,
2013-08-05 14:34:00,82.6,59.2,30.03,SSE,158,2.0,2.0,45,0.00,,,0.00,VWS V14.01,2013-08-05 18:34:00,
2013-08-05 14:35:00,82.8,61.1,30.03,WSW,248,2.0,2.0,48,0.00,,,0.00,VWS V14.01,2013-08-05 18:35:00,
2013-08-05 14:36:00,82.8,57.4,30.03,SSW,202,2.9,2.9,42,0.00,,,0.00,VWS V14.01,2013-08-05 18:36:00,
2013-08-05 14:37:00,83.0,65.7,30.03,SSE,158,1.1,1.1,56,0.00,,,0.00,VWS V14.01,2013-08-05 18:37:00,
2013-08-05 14:38:00,83.0,61.9,30.03,ESE,112,2.7,2.7,49,0.00,,,0.00,VWS V14.01,2013-08-05 18:38:00,
2013-08-05 14:39:00,83.0,61.9,30.03,SSE,158,7.6,7.6,49,0.00,,BKN048,0.00,VWS V14.01,2013-08-05 18:39:00,
2013-08-05 14:40:00,83.0,60.7,30.03,SSW,202,5.6,5.6,47,0.00,,,0.00,VWS V14.01,2013-08-05 18:40:00,
2013-08-05 14:41:00,83.0,60.7,30.03,SW,225,8.5,8.5,47,0.00,,,0.00,VWS V14.01,2013-08-05 18:41:00,
2013-08-05 14:42:00,83.0,63.0,30.03,SSE,158,8.1,8.1,51,0.00,,,0.00,VWS V14.01,2013-08-05 18:42:00,
2013-08-05 14:43:00,83.0,61.3,30.03,SSW,202,4.3,4.3,48,0.00,,,0.00,VWS V14.01,2013-08-05 18:43:00,
2013-08-05 14:44:00,83.0,61.3,30.03,SSW,202,5.6,5.6,48,0.00,,BKN048,0.00,VWS V14.01,2013-08-05 18:44:00,
2013-08-05 14:45:00,83.0,57.5,30.03,SW,225,3.4,3.4,42,0.00,,,0.00,VWS V14.01,2013-08-05 18:45:00,
2013-08-05 14:46:00,82.8,58.7,30.03,SSW,202,2.2,2.2,44,0.00,,,0.00,VWS V14.01,2013-08-05 18:46:00,
2013-08-05 14:47:00,83.0,62.4,30.03,SSW,202,3.8,3.8,50,0.00,,,0.00,VWS V14.01,2013-08-05 18:47:00,
2013-08-05 14:48:00,83.0,60.7,30.03,SSE,158,2.7,2.7,47,0.00,,,0.00,VWS V14.01,2013-08-05 18:48:00,
2013-08-05 14:49:00,83.0,60.7,30.03,South,180,4.7,4.7,47,0.00,,BKN048,0.00,VWS V14.01,2013-08-05 18:49:00,
2013-08-05 14:50:00,83.0,60.7,30.03,SSW,202,2.2,2.2,47,0.00,,,0.00,VWS V14.01,2013-08-05 18:50:00,
2013-08-05 14:51:00,83.2,61.5,30.03,South,180,3.1,3.1,48,0.00,,,0.00,VWS V14.01,2013-08-05 18:51:00,
2013-08-05 14:52:00,83.2,61.5,30.03,South,180,6.3,6.3,48,0.00,,,0.00,VWS V14.01,2013-08-05 18:52:00,
2013-08-05 14:53:00,83.2,60.9,30.03,SE,135,5.4,5.4,47,0.00,,,0.00,VWS V14.01,2013-08-05 18:53:00,
2013-08-05 14:54:00,83.0,61.3,30.03,SE,135,6.3,6.3,48,0.00,,BKN048,0.00,VWS V14.01,2013-08-05 18:54:00,
2013-08-05 14:55:00,83.2,61.5,30.03,SSW,202,3.1,3.1,48,0.00,,,0.00,VWS V14.01,2013-08-05 18:55:00,
2013-08-05 14:56:00,83.2,61.5,30.03,South,180,3.4,3.4,48,0.00,,,0.00,VWS V14.01,2013-08-05 18:56:00,
2013-08-05 14:57:00,83.2,61.5,30.03,SSE,158,3.8,3.8,48,0.00,,,0.00,VWS V14.01,2013-08-05 18:57:00,
2013-08-05 14:58:00,83.2,65.8,30.03,ESE,112,6.7,6.7,56,0.00,,,0.00,VWS V14.01,2013-08-05 18:58:00,
2013-08-05 14:59:00,83.2,61.5,30.03,ESE,112,4.3,4.3,48,0.00,,BKN048,0.00,VWS V14.01,2013-08-05 18:59:00,
2013-08-05 15:00:00,83.2,63.7,30.03,ESE,112,4.3,4.3,52,0.00,,,0.00,VWS V14.01,2013-08-05 19:00:00,
2013-08-05 15:01:00,83.2,66.4,30.03,SSE,158,5.6,5.6,57,0.00,,,0.00,VWS V14.01,2013-08-05 19:01:00,
2013-08-05 15:02:00,83.3,63.3,30.03,SE,135,3.1,3.1,51,0.00,,,0.00,VWS V14.01,2013-08-05 19:02:00,
2013-08-05 15:03:00,83.2,62.0,30.03,SE,135,5.4,5.4,49,0.00,,,0.00,VWS V14.01,2013-08-05 19:03:00,
2013-08-05 15:04:00,83.2,62.0,30.03,SE,135,0.0,0.0,49,0.00,,BKN048,0.00,VWS V14.01,2013-08-05 19:04:00,
2013-08-05 15:05:00,83.3,64.4,30.03,SSE,158,1.3,1.3,53,0.00,,,0.00,VWS V14.01,2013-08-05 19:05:00,
2013-08-05 15:06:00,83.3,63.3,30.03,SE,135,5.4,5.4,51,0.00,,,0.00,VWS V14.01,2013-08-05 19:06:00,
2013-08-05 15:07:00,83.2,62.6,30.03,SSE,158,3.1,3.1,50,0.00,,,0.00,VWS V14.01,2013-08-05 19:07:00,
2013-08-05 15:08:00,83.2,62.0,30.03,SSE,158,3.1,3.1,49,0.00,,,0.00,VWS V14.01,2013-08-05 19:08:00,
2013-08-05 15:09:00,83.2,62.0,30.03,ESE,112,2.7,2.7,49,0.00,,BKN048,0.00,VWS V14.01,2013-08-05 19:09:00,
2013-08-05 15:10:00,83.0,54.0,30.03,ESE,112,3.4,3.4,37,0.00,,,0.00,VWS V14.01,2013-08-05 19:10:00,
2013-08-05 15:11:00,83.0,61.3,30.03,ESE,112,4.7,4.7,48,0.00,,,0.00,VWS V14.01,2013-08-05 19:11:00,
2013-08-05 15:12:00,83.0,63.6,30.03,WSW,248,5.6,5.6,52,0.00,,,0.00,VWS V14.01,2013-08-05 19:12:00,
2013-08-05 15:13:00,83.2,66.4,30.03,South,180,4.9,4.9,57,0.00,,,0.00,VWS V14.01,2013-08-05 19:13:00,
2013-08-05 15:14:00,83.2,62.6,30.03,South,180,5.4,5.4,50,0.00,,BKN048,0.00,VWS V14.01,2013-08-05 19:14:00,
2013-08-05 15:15:00,83.3,62.8,30.03,SSW,202,3.4,3.4,50,0.00,,,0.00,VWS V14.01,2013-08-05 19:15:00,
2013-08-05 15:16:00,83.3,62.2,30.03,SSE,158,6.0,6.0,49,0.00,,,0.00,VWS V14.01,2013-08-05 19:16:00,
2013-08-05 15:17:00,83.3,65.0,30.03,SE,135,6.3,6.3,54,0.00,,,0.00,VWS V14.01,2013-08-05 19:17:00,
2013-08-05 15:18:00,83.0,61.3,30.03,SSE,158,5.4,5.4,48,0.00,,,0.00,VWS V14.01,2013-08-05 19:18:00,
2013-08-05 15:19:00,82.8,61.7,30.03,South,180,6.0,6.0,49,0.00,,BKN048,0.00,VWS V14.01,2013-08-05 19:19:00,
2013-08-05 15:20:00,83.0,61.9,30.03,SE,135,4.3,4.3,49,0.00,,,0.00,VWS V14.01,2013-08-05 19:20:00,
2013-08-05 15:21:00,83.0,61.3,30.03,SE,135,3.8,3.8,48,0.00,,,0.00,VWS V14.01,2013-08-05 19:21:00,
2013-08-05 15:22:00,83.0,61.3,30.03,SSE,158,5.8,5.8,48,0.00,,,0.00,VWS V14.01,2013-08-05 19:22:00,
2013-08-05 15:23:00,83.0,60.7,30.03,SSE,158,6.3,6.3,47,0.00,,,0.00,VWS V14.01,2013-08-05 19:23:00,
2013-08-05 15:24:00,83.0,60.7,30.03,SSE,158,5.8,5.8,47,0.00,,BKN048,0.00,VWS V14.01,2013-08-05 19:24:00,
2013-08-05 15:25:00,82.8,60.5,30.03,SW,225,5.4,5.4,47,0.00,,,0.00,VWS V14.01,2013-08-05 19:25:00,
2013-08-05 15:26:00,82.8,58.7,30.03,SW,225,4.0,4.0,44,0.00,,,0.00,VWS V14.01,2013-08-05 19:26:00,
2013-08-05 15:27:00,82.8,58.7,30.03,SSW,202,4.0,4.0,44,0.00,,,0.00,VWS V14.01,2013-08-05 19:27:00,
2013-08-05 15:28:00,82.8,60.5,30.03,SE,135,4.5,4.5,47,0.00,,,0.00,VWS V14.01,2013-08-05 19:28:00,
2013-08-05 15:29:00,82.8,61.7,30.03,SSE,158,3.6,3.6,49,0.00,,BKN048,0.00,VWS V14.01,2013-08-05 19:29:00,
2013-08-05 15:30:00,82.8,61.7,30.03,SE,135,2.9,2.9,49,0.00,,,0.00,VWS V14.01,2013-08-05 19:30:00,
2013-08-05 15:31:00,82.8,61.7,30.03,SSW,202,2.0,2.0,49,0.00,,,0.00,VWS V14.01,2013-08-05 19:31:00,
2013-08-05 15:32:00,83.0,61.3,30.03,ESE,112,2.9,2.9,48,0.00,,,0.00,VWS V14.01,2013-08-05 19:32:00,
2013-08-05 15:33:00,83.0,60.7,30.03,ESE,112,3.1,3.1,47,0.00,,,0.00,VWS V14.01,2013-08-05 19:33:00,
2013-08-05 15:34:00,83.2,64.3,30.03,SE,135,6.5,6.5,53,0.00,,BKN048,0.00,VWS V14.01,2013-08-05 19:34:00,
2013-08-05 15:35:00,83.0,60.7,30.03,SE,135,3.6,3.6,47,0.00,,,0.00,VWS V14.01,2013-08-05 19:35:00,
2013-08-05 15:36:00,83.2,64.8,30.03,SE,135,5.6,5.6,54,0.00,,,0.00,VWS V14.01,2013-08-05 19:36:00,
2013-08-05 15:37:00,83.2,62.6,30.03,SE,135,4.3,4.3,50,0.00,,,0.00,VWS V14.01,2013-08-05 19:37:00,
2013-08-05 15:38:00,83.3,63.9,30.03,SSE,158,5.8,5.8,52,0.00,,,0.00,VWS V14.01,2013-08-05 19:38:00,
2013-08-05 15:39:00,83.3,54.4,30.03,SE,135,6.0,6.0,37,0.00,,,0.00,VWS V14.01,2013-08-05 19:39:00,
2013-08-05 15:40:00,83.3,54.4,30.03,SSE,158,5.6,5.6,37,0.00,,FEW080,0.00,VWS V14.01,2013-08-05 19:40:00,
2013-08-05 15:41:00,83.2,57.7,30.03,SE,135,6.0,6.0,42,0.00,,,0.00,VWS V14.01,2013-08-05 19:41:00,
2013-08-05 15:42:00,83.0,54.0,30.03,SSE,158,3.4,3.4,37,0.00,,,0.00,VWS V14.01,2013-08-05 19:42:00,
2013-08-05 15:43:00,83.0,57.5,30.03,SE,135,4.3,4.3,42,0.00,,,0.00,VWS V14.01,2013-08-05 19:43:00,
2013-08-05 15:44:00,83.0,58.8,30.03,SE,135,3.1,3.1,44,0.00,,,0.00,VWS V14.01,2013-08-05 19:44:00,
2013-08-05 15:45:00,83.0,54.0,30.03,SSE,158,2.0,2.0,37,0.00,,FEW080,0.00,VWS V14.01,2013-08-05 19:45:00,
2013-08-05 15:46:00,83.2,60.9,30.03,SE,135,1.3,1.3,47,0.00,,,0.00,VWS V14.01,2013-08-05 19:46:00,
2013-08-05 15:47:00,83.3,61.6,30.03,SSE,158,0.0,0.0,48,0.00,,,0.00,VWS V14.01,2013-08-05 19:47:00,
2013-08-05 15:48:00,83.5,61.8,30.03,SE,135,3.1,3.1,48,0.00,,,0.00,VWS V14.01,2013-08-05 19:48:00,
2013-08-05 15:49:00,83.7,63.1,30.03,WNW,292,3.6,3.6,50,0.00,,,0.00,VWS V14.01,2013-08-05 19:49:00,
2013-08-05 15:50:00,83.7,52.4,30.03,SSW,202,2.2,2.2,34,0.00,,FEW080,0.00,VWS V14.01,2013-08-05 19:50:00,
2013-08-05 15:51:00,83.9,61.5,30.03,West,270,4.0,4.0,47,0.00,,,0.00,VWS V14.01,2013-08-05 19:51:00,
2013-08-05 15:52:00,83.9,61.5,30.03,WSW,248,6.3,6.3,47,0.00,,,0.00,VWS V14.01,2013-08-05 19:52:00,
2013-08-05 15:53:00,83.7,52.4,30.03,SW,225,5.4,5.4,34,0.00,,,0.00,VWS V14.01,2013-08-05 19:53:00,
2013-08-05 15:54:00,83.7,61.3,30.03,SW,225,6.3,6.3,47,0.00,,,0.00,VWS V14.01,2013-08-05 19:54:00,
2013-08-05 15:55:00,83.7,54.7,30.03,SW,225,3.8,3.8,37,0.00,,FEW080,0.00,VWS V14.01,2013-08-05 19:55:00,
2013-08-05 15:56:00,83.9,61.5,30.03,SSE,158,2.5,2.5,47,0.00,,,0.00,VWS V14.01,2013-08-05 19:56:00,
2013-08-05 15:57:00,83.9,61.5,30.03,ESE,112,6.0,6.0,47,0.00,,,0.00,VWS V14.01,2013-08-05 19:57:00,
2013-08-05 15:58:00,83.9,58.4,30.03,SE,135,3.8,3.8,42,0.00,,,0.00,VWS V14.01,2013-08-05 19:58:00,
2013-08-05 15:59:00,83.7,50.7,30.03,SSE,158,4.9,4.9,32,0.00,,,0.00,VWS V14.01,2013-08-05 19:59:00,
2013-08-05 16:00:00,83.7,54.7,30.03,SE,135,2.2,2.2,37,0.00,,FEW080,0.00,VWS V14.01,2013-08-05 20:00:00,
2013-08-05 16:01:00,83.9,61.5,30.03,SE,135,2.7,2.7,47,0.00,,,0.00,VWS V14.01,2013-08-05 20:01:00,
2013-08-05 16:02:00,83.7,59.5,30.03,South,180,2.7,2.7,44,0.00,,,0.00,VWS V14.01,2013-08-05 20:02:00,
2013-08-05 16:03:00,83.7,59.5,30.03,SSW,202,5.8,5.8,44,0.00,,,0.00,VWS V14.01,2013-08-05 20:03:00,
2013-08-05 16:04:00,83.5,58.0,30.03,SSW,202,3.1,3.1,42,0.00,,,0.00,VWS V14.01,2013-08-05 20:04:00,
2013-08-05 16:05:00,83.5,59.3,30.03,South,180,3.6,3.6,44,0.00,,FEW080,0.00,VWS V14.01,2013-08-05 20:05:00,
2013-08-05 16:06:00,83.5,52.2,30.03,South,180,4.9,4.9,34,0.00,,,0.00,VWS V14.01,2013-08-05 20:06:00,
2013-08-05 16:07:00,83.5,56.0,30.03,SSW,202,2.7,2.7,39,0.00,,,0.00,VWS V14.01,2013-08-05 20:07:00,
2013-08-05 16:08:00,83.5,56.0,30.03,South,180,3.8,3.8,39,0.00,,,0.00,VWS V14.01,2013-08-05 20:08:00,
2013-08-05 16:09:00,83.5,50.6,30.03,SSW,202,3.4,3.4,32,0.00,,,0.00,VWS V14.01,2013-08-05 20:09:00,
2013-08-05 16:10:00,83.5,50.6,30.03,SSW,202,3.8,3.8,32,0.00,,,0.00,VWS V14.01,2013-08-05 20:10:00,
2013-08-05 16:11:00,83.7,48.1,30.03,SSW,202,5.4,5.4,29,0.00,,FEW080,0.00,VWS V14.01,2013-08-05 20:11:00,
2013-08-05 16:12:00,83.7,48.1,30.03,SSW,202,3.8,3.8,29,0.00,,,0.00,VWS V14.01,2013-08-05 20:12:00,
2013-08-05 16:13:00,83.7,48.1,30.03,SSE,158,5.4,5.4,29,0.00,,,0.00,VWS V14.01,2013-08-05 20:13:00,
2013-08-05 16:14:00,83.7,48.1,30.03,SSW,202,4.0,4.0,29,0.00,,,0.00,VWS V14.01,2013-08-05 20:14:00,
2013-08-05 16:15:00,83.7,50.7,30.03,SW,225,2.5,2.5,32,0.00,,,0.00,VWS V14.01,2013-08-05 20:15:00,
2013-08-05 16:16:00,83.7,50.7,30.03,SW,225,5.4,5.4,32,0.00,,,0.00,VWS V14.01,2013-08-05 20:16:00,
2013-08-05 16:17:00,83.7,50.7,30.03,SW,225,3.8,3.8,32,0.00,,FEW080,0.00,VWS V14.01,2013-08-05 20:17:00,
2013-08-05 16:18:00,83.7,50.7,30.03,SE,135,5.8,5.8,32,0.00,,,0.00,VWS V14.01,2013-08-05 20:18:00,
2013-08-05 16:19:00,83.3,50.4,30.03,SE,135,5.4,5.4,32,0.00,,,0.00,VWS V14.01,2013-08-05 20:19:00,
2013-08-05 16:20:00,83.3,55.8,30.03,SE,135,8.1,8.1,39,0.00,,,0.00,VWS V14.01,2013-08-05 20:20:00,
2013-08-05 16:21:00,83.2,61.5,30.03,SSE,158,5.4,5.4,48,0.00,,,0.00,VWS V14.01,2013-08-05 20:21:00,
2013-08-05 16:22:00,83.2,51.9,30.03,ESE,112,4.9,4.9,34,0.00,,,0.00,VWS V14.01,2013-08-05 20:22:00,
2013-08-05 16:23:00,83.2,60.9,30.03,South,180,8.7,8.7,47,0.00,,,0.00,VWS V14.01,2013-08-05 20:23:00,
2013-08-05 16:24:00,83.2,60.9,30.03,SSW,202,5.4,5.4,47,0.00,,,0.00,VWS V14.01,2013-08-05 20:24:00,
2013-08-05 16:25:00,83.2,60.9,30.03,South,180,4.0,4.0,47,0.00,,,0.00,VWS V14.01,2013-08-05 20:25:00,
2013-08-05 16:26:00,83.2,54.2,30.03,SE,135,7.6,7.6,37,0.00,,,0.00,VWS V14.01,2013-08-05 20:26:00,
2013-08-05 16:27:00,83.3,57.9,30.03,SSE,158,4.0,4.0,42,0.00,,,0.00,VWS V14.01,2013-08-05 20:27:00,
2013-08-05 16:28:00,83.2,51.9,30.03,SSW,202,3.4,3.4,34,0.00,,,0.00,VWS V14.01,2013-08-05 20:28:00,
2013-08-05 16:29:00,83.3,59.2,30.03,South,180,3.4,3.4,44,0.00,,,0.00,VWS V14.01,2013-08-05 20:29:00,
2013-08-05 16:30:00,83.3,61.0,30.03,SSE,158,1.6,1.6,47,0.00,,FEW080,0.00,VWS V14.01,2013-08-05 20:30:00,
2013-08-05 16:31:00,83.3,61.0,30.03,SSW,202,2.0,2.0,47,0.00,,,0.00,VWS V14.01,2013-08-05 20:31:00,
2013-08-05 16:32:00,83.5,61.2,30.03,ESE,112,2.5,2.5,47,0.00,,,0.00,VWS V14.01,2013-08-05 20:32:00,
2013-08-05 16:33:00,83.5,61.2,30.03,SSW,202,4.9,4.9,47,0.00,,,0.00,VWS V14.01,2013-08-05 20:33:00,
2013-08-05 16:34:00,83.5,61.8,30.03,SSE,158,6.5,6.5,48,0.00,,,0.00,VWS V14.01,2013-08-05 20:34:00,
2013-08-05 16:35:00,83.5,52.2,30.03,SSE,158,4.9,4.9,34,0.00,,SCT080,0.00,VWS V14.01,2013-08-05 20:35:00,
2013-08-05 16:36:00,83.5,50.6,30.03,SSE,158,4.9,4.9,32,0.00,,,0.00,VWS V14.01,2013-08-05 20:36:00,
2013-08-05 16:37:00,83.5,52.2,30.03,SSE,158,2.7,2.7,34,0.00,,,0.00,VWS V14.01,2013-08-05 20:37:00,
2013-08-05 16:38:00,83.5,56.0,30.03,SSW,202,2.2,2.2,39,0.00,,,0.00,VWS V14.01,2013-08-05 20:38:00,
2013-08-05 16:39:00,83.7,58.2,30.03,South,180,5.6,5.6,42,0.00,,,0.00,VWS V14.01,2013-08-05 20:39:00,
2013-08-05 16:40:00,83.7,48.1,30.03,South,180,6.5,6.5,29,0.00,,,0.00,VWS V14.01,2013-08-05 20:40:00,
2013-08-05 16:41:00,83.7,48.1,30.03,SE,135,4.3,4.3,29,0.00,,SCT080,0.00,VWS V14.01,2013-08-05 20:41:00,
2013-08-05 16:42:00,83.7,50.7,30.03,WSW,248,1.3,1.3,32,0.00,,,0.00,VWS V14.01,2013-08-05 20:42:00,
2013-08-05 16:43:00,83.7,54.7,30.03,SSW,202,2.7,2.7,37,0.00,,,0.00,VWS V14.01,2013-08-05 20:43:00,
2013-08-05 16:44:00,83.7,54.7,30.03,South,180,4.5,4.5,37,0.00,,,0.00,VWS V14.01,2013-08-05 20:44:00,
2013-08-05 16:45:00,83.7,52.4,30.03,SW,225,3.4,3.4,34,0.00,,,0.00,VWS V14.01,2013-08-05 20:45:00,
2013-08-05 16:46:00,83.7,54.7,30.03,South,180,2.5,2.5,37,0.00,,SCT080,0.00,VWS V14.01,2013-08-05 20:46:00,
2013-08-05 16:47:00,83.9,58.4,30.03,SSW,202,4.0,4.0,42,0.00,,,0.00,VWS V14.01,2013-08-05 20:47:00,
2013-08-05 16:48:00,83.9,52.5,30.03,SW,225,4.9,4.9,34,0.00,,,0.00,VWS V14.01,2013-08-05 20:48:00,
2013-08-05 16:49:00,83.9,50.9,30.03,WSW,248,7.6,7.6,32,0.00,,,0.00,VWS V14.01,2013-08-05 20:49:00,
2013-08-05 16:50:00,83.9,54.8,30.03,SW,225,5.4,5.4,37,0.00,,,0.00,VWS V14.01,2013-08-05 20:50:00,
2013-08-05 16:51:00,83.9,52.5,30.03,SW,225,3.6,3.6,34,0.00,,SCT080,0.00,VWS V14.01,2013-08-05 20:51:00,
2013-08-05 16:52:00,83.9,52.5,30.03,SSW,202,5.6,5.6,34,0.00,,,0.00,VWS V14.01,2013-08-05 20:52:00,
2013-08-05 16:53:00,84.1,52.7,30.03,SSE,158,2.9,2.9,34,0.00,,,0.00,VWS V14.01,2013-08-05 20:53:00,
2013-08-05 16:54:00,84.1,56.5,30.03,SW,225,2.5,2.5,39,0.00,,,0.00,VWS V14.01,2013-08-05 20:54:00,
2013-08-05 16:55:00,84.1,58.5,30.03,SW,225,5.4,5.4,42,0.00,,,0.00,VWS V14.01,2013-08-05 20:55:00,
2013-08-05 16:56:00,84.1,52.7,30.03,South,180,3.6,3.6,34,0.00,,SCT080,0.00,VWS V14.01,2013-08-05 20:56:00,
2013-08-05 16:57:00,84.1,52.7,30.03,SSW,202,7.8,7.8,34,0.00,,,0.00,VWS V14.01,2013-08-05 20:57:00,
2013-08-05 16:58:00,83.9,47.3,30.03,SSW,202,6.3,6.3,28,0.00,,,0.00,VWS V14.01,2013-08-05 20:58:00,
2013-08-05 16:59:00,83.9,54.8,30.03,SSW,202,4.5,4.5,37,0.00,,,0.00,VWS V14.01,2013-08-05 20:59:00,
2013-08-05 17:00:00,83.9,52.5,30.03,SSE,158,5.8,5.8,34,0.00,,,0.00,VWS V14.01,2013-08-05 21:00:00,
2013-08-05 17:01:00,83.7,50.7,30.03,SE,135,3.1,3.1,32,0.00,,,0.00,VWS V14.01,2013-08-05 21:01:00,
2013-08-05 17:02:00,83.7,50.7,30.03,SSE,158,6.5,6.5,32,0.00,,SCT080,0.00,VWS V14.01,2013-08-05 21:02:00,
2013-08-05 17:03:00,83.5,47.0,30.03,SSW,202,5.4,5.4,28,0.00,,,0.00,VWS V14.01,2013-08-05 21:03:00,
2013-08-05 17:04:00,83.5,47.0,30.03,SSW,202,3.4,3.4,28,0.00,,,0.00,VWS V14.01,2013-08-05 21:04:00,
2013-08-05 17:05:00,83.5,50.6,30.03,South,180,4.9,4.9,32,0.00,,,0.00,VWS V14.01,2013-08-05 21:05:00,
2013-08-05 17:06:00,83.3,50.4,30.03,SSW,202,4.9,4.9,32,0.00,,,0.00,VWS V14.01,2013-08-05 21:06:00,
2013-08-05 17:07:00,83.3,50.4,30.03,SSW,202,3.4,3.4,32,0.00,,SCT080,0.00,VWS V14.01,2013-08-05 21:07:00,
2013-08-05 17:08:00,83.3,52.1,30.03,SSE,158,6.3,6.3,34,0.00,,,0.00,VWS V14.01,2013-08-05 21:08:00,
2013-08-05 17:09:00,83.3,47.8,30.03,SW,225,2.9,2.9,29,0.00,,,0.00,VWS V14.01,2013-08-05 21:09:00,
2013-08-05 17:10:00,83.3,52.1,30.03,SW,225,3.1,3.1,34,0.00,,,0.00,VWS V14.01,2013-08-05 21:10:00,
2013-08-05 17:11:00,83.2,47.6,30.03,SSE,158,4.0,4.0,29,0.00,,,0.00,VWS V14.01,2013-08-05 21:11:00,
2013-08-05 17:12:00,83.2,50.3,30.03,SSE,158,3.8,3.8,32,0.00,,SCT080,0.00,VWS V14.01,2013-08-05 21:12:00,
2013-08-05 17:13:00,83.2,50.3,30.03,SE,135,3.8,3.8,32,0.00,,,0.00,VWS V14.01,2013-08-05 21:13:00,
2013-08-05 17:14:00,83.2,50.3,30.03,SSE,158,3.8,3.8,32,0.00,,,0.00,VWS V14.01,2013-08-05 21:14:00,
2013-08-05 17:15:00,83.2,54.2,30.03,SSW,202,3.6,3.6,37,0.00,,,0.00,VWS V14.01,2013-08-05 21:15:00,
2013-08-05 17:16:00,83.0,51.8,30.03,SSE,158,3.4,3.4,34,0.00,,,0.00,VWS V14.01,2013-08-05 21:16:00,
2013-08-05 17:17:00,83.0,57.5,30.03,WSW,248,1.6,1.6,42,0.00,,,0.00,VWS V14.01,2013-08-05 21:17:00,
2013-08-05 17:18:00,83.0,57.5,30.03,SSW,202,2.9,2.9,42,0.00,,SCT080,0.00,VWS V14.01,2013-08-05 21:18:00,
2013-08-05 17:19:00,82.8,53.9,30.03,SW,225,2.7,2.7,37,0.00,,,0.00,VWS V14.01,2013-08-05 21:19:00,
2013-08-05 17:20:00,82.8,51.6,30.03,SSE,158,3.8,3.8,34,0.00,,,0.00,VWS V14.01,2013-08-05 21:20:00,
2013-08-05 17:21:00,82.8,53.9,30.03,SSW,202,0.0,0.0,37,0.00,,,0.00,VWS V14.01,2013-08-05 21:21:00,
2013-08-05 17:22:00,82.8,53.9,30.03,SSW,202,3.6,3.6,37,0.00,,,0.00,VWS V14.01,2013-08-05 21:22:00,
2013-08-05 17:23:00,82.6,57.2,30.03,South,180,2.5,2.5,42,0.00,,,0.00,VWS V14.01,2013-08-05 21:23:00,
2013-08-05 17:24:00,82.8,57.4,30.03,SSE,158,2.7,2.7,42,0.00,,,0.00,VWS V14.01,2013-08-05 21:24:00,
2013-08-05 17:25:00,82.8,57.4,30.03,South,180,2.5,2.5,42,0.00,,,0.00,VWS V14.01,2013-08-05 21:25:00,
2013-08-05 17:26:00,82.8,60.5,30.03,SE,135,1.1,1.1,47,0.00,,,0.00,VWS V14.01,2013-08-05 21:26:00,
2013-08-05 17:27:00,82.8,60.5,30.03,SSW,202,2.5,2.5,47,0.00,,SCT080,0.00,VWS V14.01,2013-08-05 21:27:00,
2013-08-05 17:28:00,82.8,60.5,30.03,South,180,3.6,3.6,47,0.00,,,0.00,VWS V14.01,2013-08-05 21:28:00,
2013-08-05 17:29:00,83.0,60.7,30.03,SSW,202,3.6,3.6,47,0.00,,,0.00,VWS V14.01,2013-08-05 21:29:00,
2013-08-05 17:30:00,83.0,60.7,30.03,SSE,158,3.4,3.4,47,0.00,,,0.00,VWS V14.01,2013-08-05 21:30:00,
2013-08-05 17:31:00,83.0,60.7,30.03,SSW,202,3.4,3.4,47,0.00,,,0.00,VWS V14.01,2013-08-05 21:31:00,
2013-08-05 17:32:00,83.0,60.7,30.03,South,180,3.1,3.1,47,0.00,,SCT080,0.00,VWS V14.01,2013-08-05 21:32:00,
2013-08-05 17:33:00,83.0,55.5,30.03,ESE,112,6.0,6.0,39,0.00,,,0.00,VWS V14.01,2013-08-05 21:33:00,
2013-08-05 17:34:00,83.2,60.9,30.03,SSE,158,1.6,1.6,47,0.00,,,0.00,VWS V14.01,2013-08-05 21:34:00,
2013-08-05 17:35:00,83.2,61.5,30.03,SE,135,4.0,4.0,48,0.00,,,0.00,VWS V14.01,2013-08-05 21:35:00,
2013-08-05 17:36:00,83.2,60.9,30.03,South,180,2.9,2.9,47,0.00,,,0.00,VWS V14.01,2013-08-05 21:36:00,
2013-08-05 17:37:00,83.2,60.9,30.03,SSW,202,2.9,2.9,47,0.00,,SCT065,0.00,VWS V14.01,2013-08-05 21:37:00,
2013-08-05 17:38:00,83.2,60.9,30.03,SSW,202,2.7,2.7,47,0.00,,,0.00,VWS V14.01,2013-08-05 21:38:00,
2013-08-05 17:39:00,83.2,60.9,30.03,SW,225,3.6,3.6,47,0.00,,,0.00,VWS V14.01,2013-08-05 21:39:00,
2013-08-05 17:40:00,83.2,60.9,30.03,SSW,202,3.6,3.6,47,0.00,,,0.00,VWS V14.01,2013-08-05 21:40:00,
2013-08-05 17:41:00,83.0,60.7,30.03,SSW,202,2.0,2.0,47,0.00,,,0.00,VWS V14.01,2013-08-05 21:41:00,
2013-08-05 17:42:00,83.0,60.7,30.03,South,180,2.0,2.0,47,0.00,,,0.00,VWS V14.01,2013-08-05 21:42:00,
2013-08-05 17:43:00,83.0,60.7,30.03,SW,225,3.4,3.4,47,0.00,,SCT065,0.00,VWS V14.01,2013-08-05 21:43:00,
2013-08-05 17:44:00,83.0,61.3,30.03,SSW,202,5.8,5.8,48,0.00,,,0.00,VWS V14.01,2013-08-05 21:44:00,
2013-08-05 17:45:00,83.0,61.3,30.03,South,180,2.9,2.9,48,0.00,,,0.00,VWS V14.01,2013-08-05 21:45:00,
2013-08-05 17:46:00,83.2,62.6,30.03,SSW,202,2.5,2.5,50,0.00,,,0.00,VWS V14.01,2013-08-05 21:46:00,
2013-08-05 17:47:00,83.2,61.5,30.03,SSW,202,4.0,4.0,48,0.00,,,0.00,VWS V14.01,2013-08-05 21:47:00,
2013-08-05 17:48:00,83.2,61.5,30.03,SSW,202,3.6,3.6,48,0.00,,SCT065,0.00,VWS V14.01,2013-08-05 21:48:00,
2013-08-05 17:49:00,83.0,61.3,30.03,South,180,2.5,2.5,48,0.00,,,0.00,VWS V14.01,2013-08-05 21:49:00,
2013-08-05 17:50:00,83.0,61.9,30.03,South,180,1.3,1.3,49,0.00,,,0.00,VWS V14.01,2013-08-05 21:50:00,
2013-08-05 17:51:00,82.8,61.1,30.03,SSW,202,1.3,1.3,48,0.00,,,0.00,VWS V14.01,2013-08-05 21:51:00,
2013-08-05 17:52:00,82.8,61.7,30.03,SSE,158,4.0,4.0,49,0.00,,,0.00,VWS V14.01,2013-08-05 21:52:00,
2013-08-05 17:53:00,82.6,61.5,30.03,SSE,158,5.4,5.4,49,0.00,,SCT065,0.00,VWS V14.01,2013-08-05 21:53:00,
2013-08-05 17:54:00,82.4,60.8,30.03,SW,225,2.7,2.7,48,0.00,,,0.00,VWS V14.01,2013-08-05 21:54:00,
2013-08-05 17:55:00,82.4,61.4,30.00,SSE,158,6.5,6.5,49,0.00,,,0.00,VWS V14.01,2013-08-05 21:55:00,
2013-08-05 17:56:00,82.4,61.4,30.00,South,180,2.2,2.2,49,0.00,,,0.00,VWS V14.01,2013-08-05 21:56:00,
2013-08-05 17:57:00,82.4,62.5,30.00,SSW,202,3.4,3.4,51,0.00,,,0.00,VWS V14.01,2013-08-05 21:57:00,
2013-08-05 17:58:00,82.4,62.5,30.00,South,180,3.6,3.6,51,0.00,,SCT065,0.00,VWS V14.01,2013-08-05 21:58:00,
2013-08-05 17:59:00,82.4,62.5,30.00,SSW,202,4.7,4.7,51,0.00,,,0.00,VWS V14.01,2013-08-05 21:59:00,
2013-08-05 18:00:00,82.4,62.5,30.00,SSW,202,5.4,5.4,51,0.00,,,0.00,VWS V14.01,2013-08-05 22:00:00,
2013-08-05 18:01:00,82.4,62.5,30.00,SSW,202,4.0,4.0,51,0.00,,,0.00,VWS V14.01,2013-08-05 22:01:00,
2013-08-05 18:02:00,82.4,63.6,30.00,SW,225,2.9,2.9,53,0.00,,,0.00,VWS V14.01,2013-08-05 22:02:00,
2013-08-05 18:03:00,82.4,64.1,30.00,SSW,202,2.7,2.7,54,0.00,,SCT065,0.00,VWS V14.01,2013-08-05 22:03:00,
2013-08-05 18:04:00,82.3,62.3,30.00,SSW,202,2.5,2.5,51,0.00,,,0.00,VWS V14.01,2013-08-05 22:04:00,
2013-08-05 18:05:00,82.4,62.5,30.00,SSW,202,2.9,2.9,51,0.00,,,0.00,VWS V14.01,2013-08-05 22:05:00,
2013-08-05 18:06:00,82.4,64.7,30.00,SSW,202,2.7,2.7,55,0.00,,,0.00,VWS V14.01,2013-08-05 22:06:00,
2013-08-05 18:07:00,82.4,65.2,30.00,SW,225,2.0,2.0,56,0.00,,,0.00,VWS V14.01,2013-08-05 22:07:00,
2013-08-05 18:08:00,82.4,64.7,30.00,SSW,202,2.7,2.7,55,0.00,,SCT065,0.00,VWS V14.01,2013-08-05 22:08:00,
2013-08-05 18:09:00,82.4,64.7,30.00,South,180,3.1,3.1,55,0.00,,,0.00,VWS V14.01,2013-08-05 22:09:00,
2013-08-05 18:10:00,82.6,64.3,30.00,SW,225,3.4,3.4,54,0.00,,,0.00,VWS V14.01,2013-08-05 22:10:00,
2013-08-05 18:11:00,82.6,64.3,30.00,SW,225,5.4,5.4,54,0.00,,,0.00,VWS V14.01,2013-08-05 22:11:00,
2013-08-05 18:12:00,82.6,64.3,30.00,South,180,1.3,1.3,54,0.00,,,0.00,VWS V14.01,2013-08-05 22:12:00,
2013-08-05 18:13:00,82.6,64.3,30.00,SSE,158,2.7,2.7,54,0.00,,SCT065,0.00,VWS V14.01,2013-08-05 22:13:00,
2013-08-05 18:14:00,82.8,65.0,30.00,SSW,202,2.2,2.2,55,0.00,,,0.00,VWS V14.01,2013-08-05 22:14:00,
2013-08-05 18:15:00,82.8,64.5,30.00,SSW,202,4.3,4.3,54,0.00,,,0.00,VWS V14.01,2013-08-05 22:15:00,
2013-08-05 18:16:00,82.8,63.4,30.00,SSE,158,4.0,4.0,52,0.00,,,0.00,VWS V14.01,2013-08-05 22:16:00,
2013-08-05 18:17:00,82.8,62.3,30.00,SSW,202,3.4,3.4,50,0.00,,,0.00,VWS V14.01,2013-08-05 22:17:00,
2013-08-05 18:18:00,82.8,62.3,30.00,SSW,202,3.8,3.8,50,0.00,,SCT065,0.00,VWS V14.01,2013-08-05 22:18:00,
2013-08-05 18:19:00,82.8,62.3,30.00,SSW,202,3.6,3.6,50,0.00,,,0.00,VWS V14.01,2013-08-05 22:19:00,
2013-08-05 18:20:00,82.8,62.3,30.00,SW,225,2.7,2.7,50,0.00,,,0.00,VWS V14.01,2013-08-05 22:20:00,
2013-08-05 18:21:00,82.8,63.4,30.00,SSW,202,3.1,3.1,52,0.00,,,0.00,VWS V14.01,2013-08-05 22:21:00,
2013-08-05 18:22:00,82.8,63.4,30.00,SSW,202,4.9,4.9,52,0.00,,,0.00,VWS V14.01,2013-08-05 22:22:00,
2013-08-05 18:23:00,82.8,63.4,30.00,SSW,202,6.3,6.3,52,0.00,,SCT065,0.00,VWS V14.01,2013-08-05 22:23:00,
2013-08-05 18:24:00,82.6,62.1,30.00,SSW,202,3.4,3.4,50,0.00,,,0.00,VWS V14.01,2013-08-05 22:24:00,
2013-08-05 18:25:00,82.6,63.2,30.00,SSW,202,5.6,5.6,52,0.00,,,0.00,VWS V14.01,2013-08-05 22:25:00,
2013-08-05 18:26:00,82.6,63.2,30.00,SSW,202,2.7,2.7,52,0.00,,,0.00,VWS V14.01,2013-08-05 22:26:00,
2013-08-05 18:27:00,82.6,63.2,30.00,South,180,3.8,3.8,52,0.00,,,0.00,VWS V14.01,2013-08-05 22:27:00,
2013-08-05 18:28:00,82.6,63.8,30.00,SSW,202,3.4,3.4,53,0.00,,SCT065,0.00,VWS V14.01,2013-08-05 22:28:00,
2013-08-05 18:29:00,82.6,63.8,30.00,SSW,202,4.3,4.3,53,0.00,,,0.00,VWS V14.01,2013-08-05 22:29:00,
2013-08-05 18:30:00,82.6,63.8,30.00,SSW,202,5.4,5.4,53,0.00,,,0.00,VWS V14.01,2013-08-05 22:30:00,
2013-08-05 18:31:00,82.4,63.1,30.00,SW,225,4.0,4.0,52,0.00,,,0.00,VWS V14.01,2013-08-05 22:31:00,
2013-08-05 18:32:00,82.4,63.6,30.00,South,180,4.0,4.0,53,0.00,,,0.00,VWS V14.01,2013-08-05 22:32:00,
2013-08-05 18:33:00,82.4,63.6,30.00,South,180,4.3,4.3,53,0.00,,SCT065,0.00,VWS V14.01,2013-08-05 22:33:00,
2013-08-05 18:34:00,82.4,63.1,30.00,SSE,158,4.0,4.0,52,0.00,,,0.00,VWS V14.01,2013-08-05 22:34:00,
2013-08-05 18:35:00,82.4,63.6,30.00,SSW,202,3.6,3.6,53,0.00,,,0.00,VWS V14.01,2013-08-05 22:35:00,
2013-08-05 18:36:00,82.4,63.6,30.00,SSE,158,4.0,4.0,53,0.00,,,0.00,VWS V14.01,2013-08-05 22:36:00,
2013-08-05 18:37:00,82.4,63.6,30.00,South,180,3.1,3.1,53,0.00,,,0.00,VWS V14.01,2013-08-05 22:37:00,
2013-08-05 18:38:00,82.4,64.7,30.00,SSE,158,4.3,4.3,55,0.00,,CLR,0.00,VWS V14.01,2013-08-05 22:38:00,
2013-08-05 18:39:00,82.4,64.7,30.00,SSE,158,3.4,3.4,55,0.00,,,0.00,VWS V14.01,2013-08-05 22:39:00,
2013-08-05 18:40:00,82.4,64.7,30.00,SE,135,3.4,3.4,55,0.00,,,0.00,VWS V14.01,2013-08-05 22:40:00,
2013-08-05 18:41:00,82.4,64.7,30.00,South,180,1.3,1.3,55,0.00,,,0.00,VWS V14.01,2013-08-05 22:41:00,
2013-08-05 18:42:00,82.4,65.2,30.00,SSE,158,1.1,1.1,56,0.00,,,0.00,VWS V14.01,2013-08-05 22:42:00,
2013-08-05 18:43:00,82.4,66.2,30.00,SSE,158,3.4,3.4,58,0.00,,,0.00,VWS V14.01,2013-08-05 22:43:00,
2013-08-05 18:44:00,82.3,66.0,30.00,SSE,158,5.6,5.6,58,0.00,,CLR,0.00,VWS V14.01,2013-08-05 22:44:00,
2013-08-05 18:45:00,82.3,65.5,30.00,SE,135,3.8,3.8,57,0.00,,,0.00,VWS V14.01,2013-08-05 22:45:00,
2013-08-05 18:46:00,82.1,65.8,30.00,SW,225,4.0,4.0,58,0.00,,,0.00,VWS V14.01,2013-08-05 22:46:00,
2013-08-05 18:47:00,82.1,65.8,30.00,SSE,158,3.4,3.4,58,0.00,,,0.00,VWS V14.01,2013-08-05 22:47:00,
2013-08-05 18:48:00,81.9,65.7,30.00,South,180,0.9,0.9,58,0.00,,,0.00,VWS V14.01,2013-08-05 22:48:00,
2013-08-05 18:49:00,82.1,65.8,30.00,SSW,202,1.1,1.1,58,0.00,,CLR,0.00,VWS V14.01,2013-08-05 22:49:00,
2013-08-05 18:50:00,81.9,65.7,30.00,SSW,202,3.6,3.6,58,0.00,,,0.00,VWS V14.01,2013-08-05 22:50:00,
2013-08-05 18:51:00,81.9,65.7,30.00,SSE,158,1.6,1.6,58,0.00,,,0.00,VWS V14.01,2013-08-05 22:51:00,
2013-08-05 18:52:00,81.9,65.7,30.00,SW,225,0.0,0.0,58,0.00,,,0.00,VWS V14.01,2013-08-05 22:52:00,
2013-08-05 18:53:00,81.9,65.7,30.00,SSE,158,1.3,1.3,58,0.00,,,0.00,VWS V14.01,2013-08-05 22:53:00,
2013-08-05 18:54:00,81.9,65.7,30.00,SW,225,1.6,1.6,58,0.00,,CLR,0.00,VWS V14.01,2013-08-05 22:54:00,
2013-08-05 18:55:00,81.9,65.7,30.00,SSE,158,2.2,2.2,58,0.00,,,0.00,VWS V14.01,2013-08-05 22:55:00,
2013-08-05 18:56:00,81.9,65.7,30.00,SSW,202,1.6,1.6,58,0.00,,,0.00,VWS V14.01,2013-08-05 22:56:00,
2013-08-05 18:57:00,81.9,65.7,30.00,SSW,202,0.0,0.0,58,0.00,,,0.00,VWS V14.01,2013-08-05 22:57:00,
2013-08-05 18:58:00,81.9,65.7,30.00,South,180,2.5,2.5,58,0.00,,,0.00,VWS V14.01,2013-08-05 22:58:00,
2013-08-05 18:59:00,81.9,65.7,30.00,SSE,158,0.0,0.0,58,0.00,,CLR,0.00,VWS V14.01,2013-08-05 22:59:00,
2013-08-05 19:00:00,81.9,65.7,30.00,SSE,158,2.9,2.9,58,0.00,,,0.00,VWS V14.01,2013-08-05 23:00:00,
2013-08-05 19:01:00,81.9,65.7,30.00,SSE,158,3.1,3.1,58,0.00,,,0.00,VWS V14.01,2013-08-05 23:01:00,
2013-08-05 19:02:00,81.9,65.7,30.00,SSE,158,1.6,1.6,58,0.00,,,0.00,VWS V14.01,2013-08-05 23:02:00,
2013-08-05 19:03:00,81.7,66.0,30.00,SE,135,3.1,3.1,59,0.00,,,0.00,VWS V14.01,2013-08-05 23:03:00,
2013-08-05 19:04:00,81.7,66.0,30.00,SSE,158,1.3,1.3,59,0.00,,CLR,0.00,VWS V14.01,2013-08-05 23:04:00,
2013-08-05 19:05:00,81.7,66.0,30.00,South,180,1.6,1.6,59,0.00,,,0.00,VWS V14.01,2013-08-05 23:05:00,
2013-08-05 19:06:00,81.7,66.0,30.00,South,180,0.9,0.9,59,0.00,,,0.00,VWS V14.01,2013-08-05 23:06:00,
2013-08-05 19:07:00,81.7,66.0,30.00,South,180,0.0,0.0,59,0.00,,,0.00,VWS V14.01,2013-08-05 23:07:00,
2013-08-05 19:08:00,81.7,66.0,30.00,SSW,202,1.3,1.3,59,0.00,,,0.00,VWS V14.01,2013-08-05 23:08:00,
2013-08-05 19:09:00,81.7,66.0,30.00,SSW,202,0.0,0.0,59,0.00,,,0.00,VWS V14.01,2013-08-05 23:09:00,
2013-08-05 19:10:00,81.5,65.8,30.00,SSW,202,2.7,2.7,59,0.00,,CLR,0.00,VWS V14.01,2013-08-05 23:10:00,
2013-08-05 19:11:00,81.5,65.8,30.00,South,180,1.1,1.1,59,0.00,,,0.00,VWS V14.01,2013-08-05 23:11:00,
2013-08-05 19:12:00,81.5,65.8,30.00,SSW,202,1.6,1.6,59,0.00,,,0.00,VWS V14.01,2013-08-05 23:12:00,
2013-08-05 19:13:00,81.5,65.8,30.00,SSE,158,1.3,1.3,59,0.00,,,0.00,VWS V14.01,2013-08-05 23:13:00,
2013-08-05 19:14:00,81.4,65.7,30.00,SE,135,2.9,2.9,59,0.00,,,0.00,VWS V14.01,2013-08-05 23:14:00,
2013-08-05 19:15:00,81.4,66.2,30.00,South,180,2.0,2.0,60,0.00,,CLR,0.00,VWS V14.01,2013-08-05 23:15:00,
2013-08-05 19:16:00,81.4,65.7,30.00,SSE,158,1.6,1.6,59,0.00,,,0.00,VWS V14.01,2013-08-05 23:16:00,
2013-08-05 19:17:00,81.2,65.5,30.00,South,180,0.9,0.9,59,0.00,,,0.00,VWS V14.01,2013-08-05 23:17:00,
2013-08-05 19:18:00,81.2,66.0,30.00,South,180,2.7,2.7,60,0.00,,,0.00,VWS V14.01,2013-08-05 23:18:00,
2013-08-05 19:19:00,81.2,66.0,30.00,South,180,0.0,0.0,60,0.00,,,0.00,VWS V14.01,2013-08-05 23:19:00,
2013-08-05 19:20:00,81.0,65.8,30.00,SSW,202,2.5,2.5,60,0.00,,CLR,0.00,VWS V14.01,2013-08-05 23:20:00,
2013-08-05 19:21:00,81.0,65.8,30.00,SSE,158,2.5,2.5,60,0.00,,,0.00,VWS V14.01,2013-08-05 23:21:00,
2013-08-05 19:22:00,81.0,65.8,30.00,SSE,158,0.9,0.9,60,0.00,,,0.00,VWS V14.01,2013-08-05 23:22:00,
2013-08-05 19:23:00,81.0,65.8,30.00,South,180,2.0,2.0,60,0.00,,,0.00,VWS V14.01,2013-08-05 23:23:00,
2013-08-05 19:24:00,81.0,65.8,30.00,South,180,0.9,0.9,60,0.00,,,0.00,VWS V14.01,2013-08-05 23:24:00,
2013-08-05 19:25:00,80.8,65.7,30.00,SSE,158,2.7,2.7,60,0.00,,CLR,0.00,VWS V14.01,2013-08-05 23:25:00,
2013-08-05 19:26:00,80.8,65.7,30.00,SSE,158,1.1,1.1,60,0.00,,,0.00,VWS V14.01,2013-08-05 23:26:00,
2013-08-05 19:27:00,80.8,65.7,30.00,SSW,202,0.9,0.9,60,0.00,,,0.00,VWS V14.01,2013-08-05 23:27:00,
2013-08-05 19:28:00,80.6,65.5,30.00,South,180,1.6,1.6,60,0.00,,,0.00,VWS V14.01,2013-08-05 23:28:00,
2013-08-05 19:29:00,80.6,65.5,30.00,SSE,158,1.3,1.3,60,0.00,,,0.00,VWS V14.01,2013-08-05 23:29:00,
2013-08-05 19:30:00,80.6,65.5,30.00,South,180,1.6,1.6,60,0.00,,CLR,0.00,VWS V14.01,2013-08-05 23:30:00,
2013-08-05 19:31:00,80.6,65.5,30.00,South,180,0.0,0.0,60,0.00,,,0.00,VWS V14.01,2013-08-05 23:31:00,
2013-08-05 19:32:00,80.6,66.0,30.00,SSE,158,1.6,1.6,61,0.00,,,0.00,VWS V14.01,2013-08-05 23:32:00,
2013-08-05 19:33:00,80.5,65.8,30.00,SSE,158,0.0,0.0,61,0.00,,,0.00,VWS V14.01,2013-08-05 23:33:00,
2013-08-05 19:34:00,80.5,65.8,30.00,South,180,2.0,2.0,61,0.00,,,0.00,VWS V14.01,2013-08-05 23:34:00,
2013-08-05 19:35:00,80.3,65.6,30.00,SW,225,0.0,0.0,61,0.00,,,0.00,VWS V14.01,2013-08-05 23:35:00,
2013-08-05 19:36:00,80.3,65.6,30.00,SSE,158,1.3,1.3,61,0.00,,CLR,0.00,VWS V14.01,2013-08-05 23:36:00,
2013-08-05 19:37:00,80.3,65.6,30.00,SSE,158,0.0,0.0,61,0.00,,,0.00,VWS V14.01,2013-08-05 23:37:00,
2013-08-05 19:38:00,80.3,66.1,30.00,SSW,202,1.6,1.6,62,0.00,,,0.00,VWS V14.01,2013-08-05 23:38:00,
2013-08-05 19:39:00,80.3,66.1,30.00,SSE,158,1.3,1.3,62,0.00,,,0.00,VWS V14.01,2013-08-05 23:39:00,
2013-08-05 19:40:00,80.3,66.1,30.00,SSE,158,2.0,2.0,62,0.00,,,0.00,VWS V14.01,2013-08-05 23:40:00,
2013-08-05 19:41:00,80.1,65.9,30.00,South,180,2.0,2.0,62,0.00,,CLR,0.00,VWS V14.01,2013-08-05 23:41:00,
2013-08-05 19:42:00,79.9,65.8,30.00,SSE,158,2.5,2.5,62,0.00,,,0.00,VWS V14.01,2013-08-05 23:42:00,
2013-08-05 19:43:00,79.9,66.2,30.00,ESE,112,1.6,1.6,63,0.00,,,0.00,VWS V14.01,2013-08-05 23:43:00,
2013-08-05 19:44:00,79.7,66.0,30.00,South,180,0.0,0.0,63,0.00,,,0.00,VWS V14.01,2013-08-05 23:44:00,
2013-08-05 19:45:00,79.7,66.5,30.00,ESE,112,2.5,2.5,64,0.00,,,0.00,VWS V14.01,2013-08-05 23:45:00,
2013-08-05 19:46:00,79.7,66.5,30.00,SSW,202,1.3,1.3,64,0.00,,CLR,0.00,VWS V14.01,2013-08-05 23:46:00,
2013-08-05 19:47:00,79.6,65.9,30.00,SSE,158,0.0,0.0,63,0.00,,,0.00,VWS V14.01,2013-08-05 23:47:00,
2013-08-05 19:48:00,79.6,65.9,30.00,South,180,0.0,0.0,63,0.00,,,0.00,VWS V14.01,2013-08-05 23:48:00,
2013-08-05 19:49:00,79.6,65.9,30.00,South,180,1.3,1.3,63,0.00,,,0.00,VWS V14.01,2013-08-05 23:49:00,
2013-08-05 19:50:00,79.4,66.6,30.00,SE,135,2.5,2.5,65,0.00,,,0.00,VWS V14.01,2013-08-05 23:50:00,
2013-08-05 19:51:00,79.4,66.6,30.00,SE,135,0.0,0.0,65,0.00,,CLR,0.00,VWS V14.01,2013-08-05 23:51:00,
2013-08-05 19:52:00,79.4,66.6,30.00,SE,135,0.0,0.0,65,0.00,,,0.00,VWS V14.01,2013-08-05 23:52:00,
2013-08-05 19:53:00,79.2,65.5,30.00,SSE,158,0.0,0.0,63,0.00,,,0.00,VWS V14.01,2013-08-05 23:53:00,
2013-08-05 19:54:00,79.2,66.4,30.00,ESE,112,2.5,2.5,65,0.00,,,0.00,VWS V14.01,2013-08-05 23:54:00,
2013-08-05 19:55:00,79.0,67.1,30.00,SE,135,1.6,1.6,67,0.00,,,0.00,VWS V14.01,2013-08-05 23:55:00,
2013-08-05 19:56:00,79.0,67.1,30.00,South,180,1.3,1.3,67,0.00,,,0.00,VWS V14.01,2013-08-05 23:56:00,
2013-08-05 19:57:00,78.8,67.0,30.00,SE,135,1.6,1.6,67,0.00,,CLR,0.00,VWS V14.01,2013-08-05 23:57:00,
2013-08-05 19:58:00,78.8,67.4,30.00,ESE,112,2.0,2.0,68,0.00,,,0.00,VWS V14.01,2013-08-05 23:58:00,
2013-08-05 19:59:00,78.7,67.2,30.00,ESE,112,0.0,0.0,68,0.00,,,0.00,VWS V14.01,2013-08-05 23:59:00,
2013-08-05 20:00:00,78.5,67.5,30.00,ESE,112,0.9,0.9,69,0.00,,,0.00,VWS V14.01,2013-08-06 00:00:00,
2013-08-05 20:01:00,78.5,67.5,30.00,SE,135,1.1,1.1,69,0.00,,,0.00,VWS V14.01,2013-08-06 00:01:00,
2013-08-05 20:02:00,78.1,67.1,30.00,SE,135,0.9,0.9,69,0.00,,CLR,0.00,VWS V14.01,2013-08-06 00:02:00,
2013-08-05 20:03:00,77.9,67.0,30.00,SE,135,0.9,0.9,69,0.00,,,0.00,VWS V14.01,2013-08-06 00:03:00,
2013-08-05 20:04:00,77.9,67.0,30.00,SE,135,2.2,2.2,69,0.00,,,0.00,VWS V14.01,2013-08-06 00:04:00,
2013-08-05 20:05:00,77.9,67.0,30.00,SE,135,1.1,1.1,69,0.00,,,0.00,VWS V14.01,2013-08-06 00:05:00,
2013-08-05 20:06:00,77.6,67.4,30.00,ESE,112,1.6,1.6,71,0.00,,,0.00,VWS V14.01,2013-08-06 00:06:00,
2013-08-05 20:07:00,77.6,67.0,30.00,SE,135,0.9,0.9,70,0.00,,CLR,0.00,VWS V14.01,2013-08-06 00:07:00,
2013-08-05 20:08:00,77.6,67.0,30.00,SE,135,0.0,0.0,70,0.00,,,0.00,VWS V14.01,2013-08-06 00:08:00,
2013-08-05 20:09:00,77.6,67.0,30.00,SE,135,0.0,0.0,70,0.00,,,0.00,VWS V14.01,2013-08-06 00:09:00,
2013-08-05 20:10:00,77.2,67.1,30.03,SE,135,0.9,0.9,71,0.00,,,0.00,VWS V14.01,2013-08-06 00:10:00,
2013-08-05 20:11:00,77.0,67.3,30.03,ESE,112,2.0,2.0,72,0.00,,,0.00,VWS V14.01,2013-08-06 00:11:00,
2013-08-05 20:12:00,76.9,67.2,30.03,ESE,112,1.1,1.1,72,0.00,,CLR,0.00,VWS V14.01,2013-08-06 00:12:00,
2013-08-05 20:13:00,76.7,66.6,30.03,ESE,112,0.0,0.0,71,0.00,,,0.00,VWS V14.01,2013-08-06 00:13:00,
2013-08-05 20:14:00,76.5,66.8,30.03,ESE,112,1.3,1.3,72,0.00,,,0.00,VWS V14.01,2013-08-06 00:14:00,
2013-08-05 20:15:00,76.3,67.0,30.03,SE,135,0.0,0.0,73,0.00,,,0.00,VWS V14.01,2013-08-06 00:15:00,
2013-08-05 20:16:00,76.1,66.5,30.03,ESE,112,0.0,0.0,72,0.00,,,0.00,VWS V14.01,2013-08-06 00:16:00,
2013-08-05 20:17:00,76.1,66.5,30.03,ESE,112,0.0,0.0,72,0.00,,CLR,0.00,VWS V14.01,2013-08-06 00:17:00,
2013-08-05 20:18:00,76.0,67.1,30.03,ESE,112,0.0,0.0,74,0.00,,,0.00,VWS V14.01,2013-08-06 00:18:00,
2013-08-05 20:19:00,75.6,66.7,30.03,ESE,112,0.0,0.0,74,0.00,,,0.00,VWS V14.01,2013-08-06 00:19:00,
2013-08-05 20:20:00,75.6,67.1,30.03,ESE,112,0.0,0.0,75,0.00,,,0.00,VWS V14.01,2013-08-06 00:20:00,
2013-08-05 20:21:00,75.4,66.9,30.03,East,90,0.0,0.0,75,0.00,,,0.00,VWS V14.01,2013-08-06 00:21:00,
2013-08-05 20:22:00,75.2,67.2,30.03,ESE,112,2.0,2.0,76,0.00,,CLR,0.00,VWS V14.01,2013-08-06 00:22:00,
2013-08-05 20:23:00,75.2,67.2,30.03,ESE,112,1.1,1.1,76,0.00,,,0.00,VWS V14.01,2013-08-06 00:23:00,
2013-08-05 20:24:00,75.2,67.2,30.03,ESE,112,0.0,0.0,76,0.00,,,0.00,VWS V14.01,2013-08-06 00:24:00,
2013-08-05 20:25:00,75.2,66.8,30.03,ESE,112,0.0,0.0,75,0.00,,,0.00,VWS V14.01,2013-08-06 00:25:00,
2013-08-05 20:26:00,75.1,66.2,30.03,ESE,112,0.0,0.0,74,0.00,,,0.00,VWS V14.01,2013-08-06 00:26:00,
2013-08-05 20:27:00,75.1,66.2,30.03,ESE,112,0.0,0.0,74,0.00,,CLR,0.00,VWS V14.01,2013-08-06 00:27:00,
2013-08-05 20:28:00,74.9,66.0,30.03,ESE,112,0.0,0.0,74,0.00,,,0.00,VWS V14.01,2013-08-06 00:28:00,
2013-08-05 20:29:00,74.9,66.0,30.03,ESE,112,0.0,0.0,74,0.00,,,0.00,VWS V14.01,2013-08-06 00:29:00,
2013-08-05 20:30:00,74.9,65.7,30.03,ESE,112,0.0,0.0,73,0.00,,,0.00,VWS V14.01,2013-08-06 00:30:00,
2013-08-05 20:31:00,74.9,65.7,30.03,ESE,112,0.0,0.0,73,0.00,,,0.00,VWS V14.01,2013-08-06 00:31:00,
2013-08-05 20:32:00,74.9,65.7,30.03,ESE,112,0.0,0.0,73,0.00,,CLR,0.00,VWS V14.01,2013-08-06 00:32:00,
2013-08-05 20:33:00,74.7,65.5,30.03,ESE,112,0.0,0.0,73,0.00,,,0.00,VWS V14.01,2013-08-06 00:33:00,
2013-08-05 20:34:00,74.7,65.5,30.03,ESE,112,0.0,0.0,73,0.00,,,0.00,VWS V14.01,2013-08-06 00:34:00,
2013-08-05 20:35:00,74.7,65.5,30.03,ESE,112,0.0,0.0,73,0.00,,,0.00,VWS V14.01,2013-08-06 00:35:00,
2013-08-05 20:36:00,74.5,65.3,30.03,ESE,112,0.0,0.0,73,0.00,,,0.00,VWS V14.01,2013-08-06 00:36:00,
2013-08-05 20:37:00,74.5,65.3,30.03,ESE,112,0.0,0.0,73,0.00,,CLR,0.00,VWS V14.01,2013-08-06 00:37:00,
2013-08-05 20:38:00,74.5,66.1,30.03,ESE,112,0.0,0.0,75,0.00,,,0.00,VWS V14.01,2013-08-06 00:38:00,
2013-08-05 20:39:00,74.3,66.3,30.03,SE,135,2.0,2.0,76,0.00,,,0.00,VWS V14.01,2013-08-06 00:39:00,
2013-08-05 20:40:00,74.3,66.3,30.06,ESE,112,0.0,0.0,76,0.00,,,0.00,VWS V14.01,2013-08-06 00:40:00,
2013-08-05 20:41:00,74.3,66.3,30.06,East,90,0.9,0.9,76,0.00,,,0.00,VWS V14.01,2013-08-06 00:41:00,
2013-08-05 20:42:00,74.0,66.7,30.06,SE,135,1.6,1.6,78,0.00,,CLR,0.00,VWS V14.01,2013-08-06 00:42:00,
2013-08-05 20:43:00,74.0,66.7,30.06,SE,135,2.5,2.5,78,0.00,,,0.00,VWS V14.01,2013-08-06 00:43:00,
2013-08-05 20:44:00,74.0,66.3,30.06,SE,135,0.0,0.0,77,0.00,,,0.00,VWS V14.01,2013-08-06 00:44:00,
2013-08-05 20:45:00,74.0,66.3,30.06,SE,135,1.6,1.6,77,0.00,,,0.00,VWS V14.01,2013-08-06 00:45:00,
2013-08-05 20:46:00,74.0,66.3,30.06,ESE,112,1.3,1.3,77,0.00,,,0.00,VWS V14.01,2013-08-06 00:46:00,
2013-08-05 20:47:00,74.0,67.1,30.06,ESE,112,1.3,1.3,79,0.00,,,0.00,VWS V14.01,2013-08-06 00:47:00,
2013-08-05 20:48:00,74.0,66.7,30.06,ESE,112,1.1,1.1,78,0.00,,CLR,0.00,VWS V14.01,2013-08-06 00:48:00,
2013-08-05 20:49:00,74.0,67.1,30.06,ESE,112,1.3,1.3,79,0.00,,,0.00,VWS V14.01,2013-08-06 00:49:00,
2013-08-05 20:50:00,74.0,67.1,30.06,SE,135,2.0,2.0,79,0.00,,,0.00,VWS V14.01,2013-08-06 00:50:00,
2013-08-05 20:51:00,74.2,67.2,30.06,SE,135,2.0,2.0,79,0.00,,,0.00,VWS V14.01,2013-08-06 00:51:00,
2013-08-05 20:52:00,74.2,67.2,30.06,ESE,112,0.0,0.0,79,0.00,,,0.00,VWS V14.01,2013-08-06 00:52:00,
2013-08-05 20:53:00,74.0,67.1,30.06,ESE,112,1.1,1.1,79,0.00,,CLR,0.00,VWS V14.01,2013-08-06 00:53:00,
2013-08-05 20:54:00,74.0,67.1,30.06,ESE,112,1.3,1.3,79,0.00,,,0.00,VWS V14.01,2013-08-06 00:54:00,
2013-08-05 20:55:00,74.0,67.1,30.03,ESE,112,1.3,1.3,79,0.00,,,0.00,VWS V14.01,2013-08-06 00:55:00,
2013-08-05 20:56:00,73.8,67.2,30.03,ESE,112,1.3,1.3,80,0.00,,,0.00,VWS V14.01,2013-08-06 00:56:00,
2013-08-05 20:57:00,73.8,67.2,30.03,ESE,112,0.9,0.9,80,0.00,,,0.00,VWS V14.01,2013-08-06 00:57:00,
2013-08-05 20:58:00,73.8,67.2,30.03,SE,135,1.1,1.1,80,0.00,,CLR,0.00,VWS V14.01,2013-08-06 00:58:00,
2013-08-05 20:59:00,73.8,67.2,30.03,ESE,112,2.0,2.0,80,0.00,,,0.00,VWS V14.01,2013-08-06 00:59:00,
2013-08-05 21:00:00,73.8,67.2,30.03,ESE,112,2.5,2.5,80,0.00,,,0.00,VWS V14.01,2013-08-06 01:00:00,
2013-08-05 21:01:00,73.8,67.2,30.03,ESE,112,1.3,1.3,80,0.00,,,0.00,VWS V14.01,2013-08-06 01:01:00,
2013-08-05 21:02:00,73.6,67.4,30.03,ESE,112,0.0,0.0,81,0.00,,,0.00,VWS V14.01,2013-08-06 01:02:00,
2013-08-05 21:03:00,73.6,67.4,30.03,ESE,112,0.0,0.0,81,0.00,,CLR,0.00,VWS V14.01,2013-08-06 01:03:00,
2013-08-05 21:04:00,73.8,67.2,30.03,SE,135,1.3,1.3,80,0.00,,,0.00,VWS V14.01,2013-08-06 01:04:00,
2013-08-05 21:05:00,73.8,67.2,30.03,SE,135,0.0,0.0,80,0.00,,,0.00,VWS V14.01,2013-08-06 01:05:00,
2013-08-05 21:06:00,73.8,67.2,30.03,SE,135,0.0,0.0,80,0.00,,,0.00,VWS V14.01,2013-08-06 01:06:00,
2013-08-05 21:07:00,73.8,67.2,30.03,ESE,112,0.0,0.0,80,0.00,,,0.00,VWS V14.01,2013-08-06 01:07:00,
2013-08-05 21:08:00,73.8,67.6,30.03,SE,135,0.0,0.0,81,0.00,,CLR,0.00,VWS V14.01,2013-08-06 01:08:00,
2013-08-05 21:09:00,73.8,67.2,30.03,SE,135,0.0,0.0,80,0.00,,,0.00,VWS V14.01,2013-08-06 01:09:00,
2013-08-05 21:10:00,73.8,67.6,30.03,ESE,112,0.0,0.0,81,0.00,,,0.00,VWS V14.01,2013-08-06 01:10:00,
2013-08-05 21:11:00,74.0,67.4,30.03,SSW,202,0.0,0.0,80,0.00,,,0.00,VWS V14.01,2013-08-06 01:11:00,
2013-08-05 21:12:00,74.0,67.4,30.03,SE,135,0.0,0.0,80,0.00,,,0.00,VWS V14.01,2013-08-06 01:12:00,
2013-08-05 21:13:00,74.0,67.4,30.03,ESE,112,0.0,0.0,80,0.00,,CLR,0.00,VWS V14.01,2013-08-06 01:13:00,
2013-08-05 21:14:00,74.0,67.4,30.03,ESE,112,0.9,0.9,80,0.00,,,0.00,VWS V14.01,2013-08-06 01:14:00,
2013-08-05 21:15:00,74.0,67.4,30.03,SE,135,1.6,1.6,80,0.00,,,0.00,VWS V14.01,2013-08-06 01:15:00,
2013-08-05 21:16:00,74.0,67.4,30.03,SE,135,1.6,1.6,80,0.00,,,0.00,VWS V14.01,2013-08-06 01:16:00,
2013-08-05 21:17:00,74.0,67.4,30.03,SE,135,0.9,0.9,80,0.00,,,0.00,VWS V14.01,2013-08-06 01:17:00,
2013-08-05 21:18:00,73.8,67.2,30.03,SE,135,0.0,0.0,80,0.00,,CLR,0.00,VWS V14.01,2013-08-06 01:18:00,
2013-08-05 21:19:00,73.6,67.1,30.03,SE,135,0.0,0.0,80,0.00,,,0.00,VWS V14.01,2013-08-06 01:19:00,
2013-08-05 21:20:00,73.6,67.1,30.03,SE,135,0.0,0.0,80,0.00,,,0.00,VWS V14.01,2013-08-06 01:20:00,
2013-08-05 21:21:00,73.6,67.1,30.03,SE,135,0.0,0.0,80,0.00,,,0.00,VWS V14.01,2013-08-06 01:21:00,
2013-08-05 21:22:00,73.6,67.1,30.03,SE,135,0.0,0.0,80,0.00,,,0.00,VWS V14.01,2013-08-06 01:22:00,
2013-08-05 21:23:00,73.6,67.1,30.03,SSW,202,0.0,0.0,80,0.00,,CLR,0.00,VWS V14.01,2013-08-06 01:23:00,
2013-08-05 21:24:00,73.4,66.9,30.03,SSE,158,0.0,0.0,80,0.00,,,0.00,VWS V14.01,2013-08-06 01:24:00,
2013-08-05 21:25:00,73.6,67.4,30.03,SSE,158,1.1,1.1,81,0.00,,,0.00,VWS V14.01,2013-08-06 01:25:00,
2013-08-05 21:26:00,73.6,67.4,30.03,ESE,112,0.0,0.0,81,0.00,,,0.00,VWS V14.01,2013-08-06 01:26:00,
2013-08-05 21:27:00,73.6,67.8,30.03,ESE,112,0.0,0.0,82,0.00,,,0.00,VWS V14.01,2013-08-06 01:27:00,
2013-08-05 21:28:00,73.6,67.8,30.03,ESE,112,0.0,0.0,82,0.00,,CLR,0.00,VWS V14.01,2013-08-06 01:28:00,
2013-08-05 21:29:00,73.6,67.8,30.03,ESE,112,0.0,0.0,82,0.00,,,0.00,VWS V14.01,2013-08-06 01:29:00,
2013-08-05 21:30:00,73.6,67.8,30.03,ESE,112,0.0,0.0,82,0.00,,,0.00,VWS V14.01,2013-08-06 01:30:00,
2013-08-05 21:31:00,73.6,67.4,30.03,ESE,112,0.0,0.0,81,0.00,,,0.00,VWS V14.01,2013-08-06 01:31:00,
2013-08-05 21:32:00,73.4,67.3,30.03,ESE,112,0.0,0.0,81,0.00,,,0.00,VWS V14.01,2013-08-06 01:32:00,
2013-08-05 21:33:00,73.4,67.6,30.03,SE,135,2.9,2.9,82,0.00,,,0.00,VWS V14.01,2013-08-06 01:33:00,
2013-08-05 21:34:00,73.4,67.6,30.03,SE,135,2.0,2.0,82,0.00,,CLR,0.00,VWS V14.01,2013-08-06 01:34:00,
2013-08-05 21:35:00,73.4,67.6,30.03,SE,135,1.6,1.6,82,0.00,,,0.00,VWS V14.01,2013-08-06 01:35:00,
2013-08-05 21:36:00,73.4,67.6,30.03,SE,135,1.1,1.1,82,0.00,,,0.00,VWS V14.01,2013-08-06 01:36:00,
2013-08-05 21:37:00,73.4,67.6,30.03,SE,135,0.0,0.0,82,0.00,,,0.00,VWS V14.01,2013-08-06 01:37:00,
2013-08-05 21:38:00,73.4,67.3,30.03,SE,135,0.0,0.0,81,0.00,,,0.00,VWS V14.01,2013-08-06 01:38:00,
2013-08-05 21:39:00,73.4,67.6,30.03,SE,135,0.0,0.0,82,0.00,,FEW065,0.00,VWS V14.01,2013-08-06 01:39:00,
2013-08-05 21:40:00,73.4,67.6,30.00,ESE,112,1.6,1.6,82,0.00,,,0.00,VWS V14.01,2013-08-06 01:40:00,
2013-08-05 21:41:00,73.3,67.4,30.00,SSE,158,0.0,0.0,82,0.00,,,0.00,VWS V14.01,2013-08-06 01:41:00,
2013-08-05 21:42:00,73.3,67.8,30.00,SE,135,1.3,1.3,83,0.00,,,0.00,VWS V14.01,2013-08-06 01:42:00,
2013-08-05 21:43:00,73.3,67.8,30.00,ESE,112,2.2,2.2,83,0.00,,,0.00,VWS V14.01,2013-08-06 01:43:00,
2013-08-05 21:44:00,73.3,67.8,30.00,ESE,112,2.5,2.5,83,0.00,,FEW065,0.00,VWS V14.01,2013-08-06 01:44:00,
2013-08-05 21:45:00,73.1,67.6,30.00,ESE,112,1.6,1.6,83,0.00,,,0.00,VWS V14.01,2013-08-06 01:45:00,
2013-08-05 21:46:00,72.9,67.4,30.00,SE,135,1.3,1.3,83,0.00,,,0.00,VWS V14.01,2013-08-06 01:46:00,
2013-08-05 21:47:00,72.9,67.8,30.00,ESE,112,0.0,0.0,84,0.00,,,0.00,VWS V14.01,2013-08-06 01:47:00,
2013-08-05 21:48:00,72.9,67.8,30.00,ESE,112,0.0,0.0,84,0.00,,,0.00,VWS V14.01,2013-08-06 01:48:00,
2013-08-05 21:49:00,72.7,67.9,30.00,SE,135,2.0,2.0,85,0.00,,FEW065,0.00,VWS V14.01,2013-08-06 01:49:00,
2013-08-05 21:50:00,72.9,68.1,30.00,SE,135,0.0,0.0,85,0.00,,,0.00,VWS V14.01,2013-08-06 01:50:00,
2013-08-05 21:51:00,72.7,68.0,30.00,SE,135,1.6,1.6,85,0.00,,,0.00,VWS V14.01,2013-08-06 01:51:00,
2013-08-05 21:52:00,72.7,68.0,30.00,ESE,112,1.6,1.6,85,0.00,,,0.00,VWS V14.01,2013-08-06 01:52:00,
2013-08-05 21:53:00,72.7,68.0,30.00,ESE,112,1.6,1.6,85,0.00,,,0.00,VWS V14.01,2013-08-06 01:53:00,
2013-08-05 21:54:00,72.7,67.9,30.00,SSE,158,2.5,2.5,85,0.00,,FEW065,0.00,VWS V14.01,2013-08-06 01:54:00,
2013-08-05 21:55:00,72.7,68.0,30.03,SSE,158,0.9,0.9,85,0.00,,,0.00,VWS V14.01,2013-08-06 01:55:00,
2013-08-05 21:56:00,72.7,68.0,30.03,SE,135,1.3,1.3,85,0.00,,,0.00,VWS V14.01,2013-08-06 01:56:00,
2013-08-05 21:57:00,72.9,68.5,30.03,SE,135,2.0,2.0,86,0.00,,,0.00,VWS V14.01,2013-08-06 01:57:00,
2013-08-05 21:58:00,72.9,68.5,30.03,SSE,158,0.0,0.0,86,0.00,,,0.00,VWS V14.01,2013-08-06 01:58:00,
2013-08-05 21:59:00,72.9,68.1,30.03,ESE,112,1.3,1.3,85,0.00,,FEW065,0.00,VWS V14.01,2013-08-06 01:59:00,
2013-08-05 22:00:00,72.9,68.1,30.03,SE,135,2.0,2.0,85,0.00,,,0.00,VWS V14.01,2013-08-06 02:00:00,
2013-08-05 22:01:00,72.9,68.1,30.03,SSE,158,0.0,0.0,85,0.00,,,0.00,VWS V14.01,2013-08-06 02:01:00,
2013-08-05 22:02:00,72.9,68.1,30.03,North,0,0.0,0.0,85,0.00,,,0.00,VWS V14.01,2013-08-06 02:02:00,
2013-08-05 22:03:00,72.9,68.1,30.03,SSE,158,2.5,2.5,85,0.00,,,0.00,VWS V14.01,2013-08-06 02:03:00,
2013-08-05 22:04:00,73.1,68.0,30.03,SSW,202,1.3,1.3,84,0.00,,FEW065,0.00,VWS V14.01,2013-08-06 02:04:00,
2013-08-05 22:05:00,73.1,68.0,30.03,SSE,158,1.6,1.6,84,0.00,,,0.00,VWS V14.01,2013-08-06 02:05:00,
2013-08-05 22:06:00,73.3,68.1,30.03,SSE,158,4.3,4.3,84,0.00,,,0.00,VWS V14.01,2013-08-06 02:06:00,
2013-08-05 22:07:00,73.4,68.3,30.03,NW,315,2.7,2.7,84,0.00,,,0.00,VWS V14.01,2013-08-06 02:07:00,
2013-08-05 22:08:00,73.4,68.0,30.03,SSE,158,1.3,1.3,83,0.00,,,0.00,VWS V14.01,2013-08-06 02:08:00,
2013-08-05 22:09:00,73.4,68.0,30.03,SSW,202,1.1,1.1,83,0.00,,FEW065,0.00,VWS V14.01,2013-08-06 02:09:00,
2013-08-05 22:10:00,73.4,68.0,30.03,SSW,202,0.0,0.0,83,0.00,,,0.00,VWS V14.01,2013-08-06 02:10:00,
2013-08-05 22:11:00,73.6,68.1,30.03,SSE,158,0.0,0.0,83,0.00,,,0.00,VWS V14.01,2013-08-06 02:11:00,
2013-08-05 22:12:00,73.6,67.8,30.03,SSW,202,0.0,0.0,82,0.00,,,0.00,VWS V14.01,2013-08-06 02:12:00,
2013-08-05 22:13:00,73.6,67.8,30.03,South,180,2.7,2.7,82,0.00,,,0.00,VWS V14.01,2013-08-06 02:13:00,
2013-08-05 22:14:00,73.6,67.4,30.03,WSW,248,0.0,0.0,81,0.00,,,0.00,VWS V14.01,2013-08-06 02:14:00,
2013-08-05 22:15:00,73.6,67.4,30.03,SE,135,0.0,0.0,81,0.00,,FEW065,0.00,VWS V14.01,2013-08-06 02:15:00,
2013-08-05 22:16:00,73.6,67.4,30.03,SW,225,1.6,1.6,81,0.00,,,0.00,VWS V14.01,2013-08-06 02:16:00,
2013-08-05 22:17:00,73.6,67.4,30.03,SSW,202,2.0,2.0,81,0.00,,,0.00,VWS V14.01,2013-08-06 02:17:00,
2013-08-05 22:18:00,73.6,67.1,30.03,SSW,202,2.0,2.0,80,0.00,,,0.00,VWS V14.01,2013-08-06 02:18:00,
2013-08-05 22:19:00,73.6,67.1,30.03,South,180,0.0,0.0,80,0.00,,,0.00,VWS V14.01,2013-08-06 02:19:00,
2013-08-05 22:20:00,73.6,67.1,30.03,SSE,158,2.0,2.0,80,0.00,,FEW065,0.00,VWS V14.01,2013-08-06 02:20:00,
2013-08-05 22:21:00,73.8,66.9,30.03,SSW,202,6.3,6.3,79,0.00,,,0.00,VWS V14.01,2013-08-06 02:21:00,
2013-08-05 22:22:00,73.8,66.9,30.03,SSW,202,2.7,2.7,79,0.00,,,0.00,VWS V14.01,2013-08-06 02:22:00,
2013-08-05 22:23:00,73.8,66.9,30.03,SSW,202,3.8,3.8,79,0.00,,,0.00,VWS V14.01,2013-08-06 02:23:00,
2013-08-05 22:24:00,73.8,66.5,30.03,SE,135,2.7,2.7,78,0.00,,,0.00,VWS V14.01,2013-08-06 02:24:00,
2013-08-05 22:25:00,73.8,66.5,30.00,SSW,202,2.5,2.5,78,0.00,,FEW065,0.00,VWS V14.01,2013-08-06 02:25:00,
2013-08-05 22:26:00,73.8,66.5,30.00,SSW,202,3.1,3.1,78,0.00,,,0.00,VWS V14.01,2013-08-06 02:26:00,
2013-08-05 22:27:00,74.0,66.3,30.00,SE,135,3.6,3.6,77,0.00,,,0.00,VWS V14.01,2013-08-06 02:27:00,
2013-08-05 22:28:00,74.0,66.3,30.00,SSW,202,3.4,3.4,77,0.00,,,0.00,VWS V14.01,2013-08-06 02:28:00,
2013-08-05 22:29:00,74.0,66.3,30.00,South,180,3.1,3.1,77,0.00,,,0.00,VWS V14.01,2013-08-06 02:29:00,
2013-08-05 22:30:00,74.0,66.3,30.00,SSE,158,2.0,2.0,77,0.00,,FEW065,0.00,VWS V14.01,2013-08-06 02:30:00,
2013-08-05 22:31:00,74.0,66.3,30.00,SSW,202,2.5,2.5,77,0.00,,,0.00,VWS V14.01,2013-08-06 02:31:00,
2013-08-05 22:32:00,74.0,65.9,30.00,SSW,202,5.4,5.4,76,0.00,,,0.00,VWS V14.01,2013-08-06 02:32:00,
2013-08-05 22:33:00,74.0,65.9,30.00,SSW,202,4.9,4.9,76,0.00,,,0.00,VWS V14.01,2013-08-06 02:33:00,
2013-08-05 22:34:00,74.0,65.9,30.00,SSW,202,4.0,4.0,76,0.00,,,0.00,VWS V14.01,2013-08-06 02:34:00,
2013-08-05 22:35:00,74.0,65.9,30.00,SSE,158,4.0,4.0,76,0.00,,,0.00,VWS V14.01,2013-08-06 02:35:00,
2013-08-05 22:36:00,74.0,65.9,30.00,SSW,202,2.7,2.7,76,0.00,,CLR,0.00,VWS V14.01,2013-08-06 02:36:00,
2013-08-05 22:37:00,74.0,65.6,30.00,SSE,158,3.1,3.1,75,0.00,,,0.00,VWS V14.01,2013-08-06 02:37:00,
2013-08-05 22:38:00,74.0,65.6,30.00,SSE,158,5.6,5.6,75,0.00,,,0.00,VWS V14.01,2013-08-06 02:38:00,
2013-08-05 22:39:00,74.0,65.6,30.00,WSW,248,2.2,2.2,75,0.00,,,0.00,VWS V14.01,2013-08-06 02:39:00,
2013-08-05 22:40:00,74.0,65.6,30.03,SSW,202,3.1,3.1,75,0.00,,,0.00,VWS V14.01,2013-08-06 02:40:00,
2013-08-05 22:41:00,74.0,65.6,30.03,SSW,202,1.1,1.1,75,0.00,,CLR,0.00,VWS V14.01,2013-08-06 02:41:00,
2013-08-05 22:42:00,74.0,65.6,30.03,SSW,202,3.6,3.6,75,0.00,,,0.00,VWS V14.01,2013-08-06 02:42:00,
2013-08-05 22:43:00,74.0,65.6,30.03,SSW,202,1.3,1.3,75,0.00,,,0.00,VWS V14.01,2013-08-06 02:43:00,
2013-08-05 22:44:00,74.0,65.2,30.03,South,180,4.9,4.9,74,0.00,,,0.00,VWS V14.01,2013-08-06 02:44:00,
2013-08-05 22:45:00,74.0,65.2,30.03,SSW,202,1.6,1.6,74,0.00,,,0.00,VWS V14.01,2013-08-06 02:45:00,
2013-08-05 22:46:00,74.0,65.2,30.03,ESE,112,1.3,1.3,74,0.00,,CLR,0.00,VWS V14.01,2013-08-06 02:46:00,
2013-08-05 22:47:00,73.8,65.0,30.03,SSE,158,1.3,1.3,74,0.00,,,0.00,VWS V14.01,2013-08-06 02:47:00,
2013-08-05 22:48:00,73.8,65.0,30.03,South,180,3.1,3.1,74,0.00,,,0.00,VWS V14.01,2013-08-06 02:48:00,
2013-08-05 22:49:00,73.8,65.0,30.03,SSW,202,2.7,2.7,74,0.00,,,0.00,VWS V14.01,2013-08-06 02:49:00,
2013-08-05 22:50:00,73.8,65.0,30.03,SSW,202,1.6,1.6,74,0.00,,,0.00,VWS V14.01,2013-08-06 02:50:00,
2013-08-05 22:51:00,73.8,65.0,30.03,South,180,3.1,3.1,74,0.00,,CLR,0.00,VWS V14.01,2013-08-06 02:51:00,
2013-08-05 22:52:00,73.8,65.0,30.03,SSW,202,4.3,4.3,74,0.00,,,0.00,VWS V14.01,2013-08-06 02:52:00,
2013-08-05 22:53:00,73.8,65.0,30.03,SSW,202,2.0,2.0,74,0.00,,,0.00,VWS V14.01,2013-08-06 02:53:00,
2013-08-05 22:54:00,73.8,65.0,30.03,SSW,202,4.0,4.0,74,0.00,,,0.00,VWS V14.01,2013-08-06 02:54:00,
2013-08-05 22:55:00,73.8,65.0,30.03,SSW,202,1.3,1.3,74,0.00,,,0.00,VWS V14.01,2013-08-06 02:55:00,
2013-08-05 22:56:00,73.8,65.0,30.03,SSW,202,0.0,0.0,74,0.00,,CLR,0.00,VWS V14.01,2013-08-06 02:56:00,
2013-08-05 22:57:00,73.8,65.0,30.03,SE,135,2.5,2.5,74,0.00,,,0.00,VWS V14.01,2013-08-06 02:57:00,
2013-08-05 22:58:00,73.8,65.0,30.03,SSE,158,3.1,3.1,74,0.00,,,0.00,VWS V14.01,2013-08-06 02:58:00,
2013-08-05 22:59:00,73.8,64.6,30.03,SSE,158,3.1,3.1,73,0.00,,,0.00,VWS V14.01,2013-08-06 02:59:00,
2013-08-05 23:00:00,73.8,64.6,30.03,SSW,202,1.1,1.1,73,0.00,,,0.00,VWS V14.01,2013-08-06 03:00:00,
2013-08-05 23:01:00,73.8,64.6,30.03,SSW,202,4.9,4.9,73,0.00,,CLR,0.00,VWS V14.01,2013-08-06 03:01:00,
2013-08-05 23:02:00,73.8,64.6,30.03,SSW,202,4.3,4.3,73,0.00,,,0.00,VWS V14.01,2013-08-06 03:02:00,
2013-08-05 23:03:00,73.8,64.6,30.03,WSW,248,3.6,3.6,73,0.00,,,0.00,VWS V14.01,2013-08-06 03:03:00,
2013-08-05 23:04:00,73.8,64.6,30.03,South,180,3.4,3.4,73,0.00,,,0.00,VWS V14.01,2013-08-06 03:04:00,
2013-08-05 23:05:00,73.8,64.6,30.03,South,180,4.9,4.9,73,0.00,,,0.00,VWS V14.01,2013-08-06 03:05:00,
2013-08-05 23:06:00,73.8,64.6,30.03,SSW,202,4.7,4.7,73,0.00,,CLR,0.00,VWS V14.01,2013-08-06 03:06:00,
2013-08-05 23:07:00,73.8,64.6,30.03,South,180,3.1,3.1,73,0.00,,,0.00,VWS V14.01,2013-08-06 03:07:00,
2013-08-05 23:08:00,73.8,64.6,30.03,SSE,158,3.6,3.6,73,0.00,,,0.00,VWS V14.01,2013-08-06 03:08:00,
2013-08-05 23:09:00,73.8,64.6,30.03,SSE,158,7.8,7.8,73,0.00,,,0.00,VWS V14.01,2013-08-06 03:09:00,
2013-08-05 23:10:00,73.8,64.6,30.00,SSW,202,2.7,2.7,73,0.00,,,0.00,VWS V14.01,2013-08-06 03:10:00,
2013-08-05 23:11:00,73.6,64.4,30.00,SSW,202,4.3,4.3,73,0.00,,CLR,0.00,VWS V14.01,2013-08-06 03:11:00,
2013-08-05 23:12:00,73.6,64.4,30.00,SSW,202,5.6,5.6,73,0.00,,,0.00,VWS V14.01,2013-08-06 03:12:00,
2013-08-05 23:13:00,73.6,64.4,30.00,SSW,202,2.9,2.9,73,0.00,,,0.00,VWS V14.01,2013-08-06 03:13:00,
2013-08-05 23:14:00,73.6,64.4,30.00,SW,225,3.8,3.8,73,0.00,,,0.00,VWS V14.01,2013-08-06 03:14:00,
2013-08-05 23:15:00,73.6,64.4,30.00,South,180,4.0,4.0,73,0.00,,,0.00,VWS V14.01,2013-08-06 03:15:00,
2013-08-05 23:16:00,73.6,64.4,30.00,South,180,4.0,4.0,73,0.00,,CLR,0.00,VWS V14.01,2013-08-06 03:16:00,
2013-08-05 23:17:00,73.6,64.4,30.00,SSW,202,2.7,2.7,73,0.00,,,0.00,VWS V14.01,2013-08-06 03:17:00,
2013-08-05 23:18:00,73.6,64.4,30.00,South,180,3.4,3.4,73,0.00,,,0.00,VWS V14.01,2013-08-06 03:18:00,
2013-08-05 23:19:00,73.6,64.4,30.00,SSE,158,2.9,2.9,73,0.00,,,0.00,VWS V14.01,2013-08-06 03:19:00,
2013-08-05 23:20:00,73.6,64.0,30.00,SE,135,5.6,5.6,72,0.00,,,0.00,VWS V14.01,2013-08-06 03:20:00,
2013-08-05 23:21:00,73.6,64.4,30.00,SSW,202,6.0,6.0,73,0.00,,CLR,0.00,VWS V14.01,2013-08-06 03:21:00,
2013-08-05 23:22:00,73.6,64.0,30.00,SSW,202,4.3,4.3,72,0.00,,,0.00,VWS V14.01,2013-08-06 03:22:00,
2013-08-05 23:23:00,73.6,64.0,30.00,SSE,158,3.4,3.4,72,0.00,,,0.00,VWS V14.01,2013-08-06 03:23:00,
2013-08-05 23:24:00,73.6,64.0,30.00,SW,225,4.3,4.3,72,0.00,,,0.00,VWS V14.01,2013-08-06 03:24:00,
2013-08-05 23:25:00,73.6,64.0,30.00,SSW,202,3.6,3.6,72,0.00,,,0.00,VWS V14.01,2013-08-06 03:25:00,
2013-08-05 23:26:00,73.6,64.0,30.00,South,180,4.3,4.3,72,0.00,,CLR,0.00,VWS V14.01,2013-08-06 03:26:00,
2013-08-05 23:27:00,73.6,64.0,30.00,South,180,3.8,3.8,72,0.00,,,0.00,VWS V14.01,2013-08-06 03:27:00,
2013-08-05 23:28:00,73.6,64.0,30.00,SSW,202,4.9,4.9,72,0.00,,,0.00,VWS V14.01,2013-08-06 03:28:00,
2013-08-05 23:29:00,73.6,64.0,30.00,South,180,1.6,1.6,72,0.00,,,0.00,VWS V14.01,2013-08-06 03:29:00,
2013-08-05 23:30:00,73.6,64.0,30.00,South,180,3.8,3.8,72,0.00,,,0.00,VWS V14.01,2013-08-06 03:30:00,
2013-08-05 23:31:00,73.4,63.9,30.00,South,180,3.6,3.6,72,0.00,,,0.00,VWS V14.01,2013-08-06 03:31:00,
2013-08-05 23:32:00,73.4,63.9,30.00,SSW,202,1.6,1.6,72,0.00,,CLR,0.00,VWS V14.01,2013-08-06 03:32:00,
2013-08-05 23:33:00,73.4,63.9,30.00,SSW,202,2.9,2.9,72,0.00,,,0.00,VWS V14.01,2013-08-06 03:33:00,
2013-08-05 23:34:00,73.4,63.9,30.00,SSE,158,3.6,3.6,72,0.00,,,0.00,VWS V14.01,2013-08-06 03:34:00,
2013-08-05 23:35:00,73.4,63.9,30.00,SSE,158,2.7,2.7,72,0.00,,,0.00,VWS V14.01,2013-08-06 03:35:00,
2013-08-05 23:36:00,73.4,63.9,30.00,SSE,158,5.4,5.4,72,0.00,,,0.00,VWS V14.01,2013-08-06 03:36:00,
2013-08-05 23:37:00,73.4,63.9,30.00,South,180,3.6,3.6,72,0.00,,CLR,0.00,VWS V14.01,2013-08-06 03:37:00,
2013-08-05 23:38:00,73.4,63.9,30.00,SSW,202,2.5,2.5,72,0.00,,,0.00,VWS V14.01,2013-08-06 03:38:00,
2013-08-05 23:39:00,73.4,63.9,30.00,SSW,202,2.7,2.7,72,0.00,,,0.00,VWS V14.01,2013-08-06 03:39:00,
2013-08-05 23:40:00,73.4,63.9,30.03,ESE,112,6.0,6.0,72,0.00,,,0.00,VWS V14.01,2013-08-06 03:40:00,
2013-08-05 23:41:00,73.4,63.9,30.03,SSW,202,2.2,2.2,72,0.00,,,0.00,VWS V14.01,2013-08-06 03:41:00,
2013-08-05 23:42:00,73.4,63.9,30.03,South,180,4.0,4.0,72,0.00,,CLR,0.00,VWS V14.01,2013-08-06 03:42:00,
2013-08-05 23:43:00,73.3,63.7,30.03,SSW,202,3.1,3.1,72,0.00,,,0.00,VWS V14.01,2013-08-06 03:43:00,
2013-08-05 23:44:00,73.3,63.7,30.03,SSW,202,2.5,2.5,72,0.00,,,0.00,VWS V14.01,2013-08-06 03:44:00,
2013-08-05 23:45:00,73.3,63.7,30.03,South,180,3.4,3.4,72,0.00,,,0.00,VWS V14.01,2013-08-06 03:45:00,
2013-08-05 23:46:00,73.3,63.7,30.03,South,180,4.7,4.7,72,0.00,,,0.00,VWS V14.01,2013-08-06 03:46:00,
2013-08-05 23:47:00,73.3,63.7,30.03,South,180,3.8,3.8,72,0.00,,CLR,0.00,VWS V14.01,2013-08-06 03:47:00,
2013-08-05 23:48:00,73.3,63.7,30.03,SSW,202,3.6,3.6,72,0.00,,,0.00,VWS V14.01,2013-08-06 03:48:00,
2013-08-05 23:49:00,73.3,63.7,30.03,WSW,248,1.1,1.1,72,0.00,,,0.00,VWS V14.01,2013-08-06 03:49:00,
2013-08-05 23:50:00,73.1,63.5,30.03,South,180,2.7,2.7,72,0.00,,,0.00,VWS V14.01,2013-08-06 03:50:00,
2013-08-05 23:51:00,73.1,63.5,30.03,SW,225,2.9,2.9,72,0.00,,,0.00,VWS V14.01,2013-08-06 03:51:00,
2013-08-05 23:52:00,73.1,63.5,30.03,SSW,202,2.5,2.5,72,0.00,,CLR,0.00,VWS V14.01,2013-08-06 03:52:00,
2013-08-05 23:53:00,73.1,63.5,30.03,SSW,202,5.8,5.8,72,0.00,,,0.00,VWS V14.01,2013-08-06 03:53:00,
2013-08-05 23:54:00,73.1,63.5,30.03,SSW,202,2.9,2.9,72,0.00,,,0.00,VWS V14.01,2013-08-06 03:54:00,
2013-08-05 23:55:00,73.1,63.5,30.03,SW,225,4.0,4.0,72,0.00,,,0.00,VWS V14.01,2013-08-06 03:55:00,
2013-08-05 23:56:00,73.1,63.5,30.03,SSW,202,2.5,2.5,72,0.00,,,0.00,VWS V14.01,2013-08-06 03:56:00,
2013-08-05 23:57:00,73.1,63.5,30.03,SSW,202,3.4,3.4,72,0.00,,CLR,0.00,VWS V14.01,2013-08-06 03:57:00,
2013-08-05 23:58:00,73.1,63.5,30.03,South,180,4.3,4.3,72,0.00,,,0.00,VWS V14.01,2013-08-06 03:58:00,
2013-08-05 23:59:00,73.1,63.1,30.03,South,180,3.8,3.8,71,0.00,,,0.00,VWS V14.01,2013-08-06 03:59:00,